Provisional Data: Chemung River near Elmira, NY


Please select a monitoring station.
Please select start date.
Please select start date.

Toggle Unit: C/F Toggle Unit: C/F
Sample Time Temperature (C) Temperature (F) Specific Conductivity (mS/cm) pH   Turbidity (NTU+) DO (mg/L)
6/29/2021 12:04:24 AM 25.5425 77.9765 0.3726499 7.990499 9.332497 25.5425
6/29/2021 12:19:24 AM 25.5075 77.9135 0.3726 7.9821 13.7775 25.5075
6/29/2021 12:34:24 AM 25.49 77.882 0.37255 7.9807 19.0575 25.49
6/29/2021 12:49:24 AM 25.4725 77.8505 0.3723001 7.9772 17.8375 25.4725
6/29/2021 1:04:24 AM 25.4375 77.7875 0.37255 7.9723 16.9 25.4375
6/29/2021 1:19:24 AM 25.405 77.729 0.373 7.9667 15.4775 25.405
6/29/2021 1:34:24 AM 25.3525 77.63451 0.373 7.9569 14.8 25.3525
6/29/2021 1:49:24 AM 25.3 77.54 0.3733 7.9513 14.52 25.3
6/29/2021 2:04:24 AM 25.25 77.45 0.3737 7.9422 13.725 25.25
6/29/2021 2:19:24 AM 25.2125 77.3825 0.3736499 7.938 13.535 25.2125
6/29/2021 2:34:24 AM 25.1775 77.3195 0.3736499 7.9331 13.2375 25.1775
6/29/2021 2:49:24 AM 25.1425 77.2565 0.374 7.9198 13.48 25.1425
6/29/2021 3:04:24 AM 25.09 77.162 0.3744 7.9058 13.3125 25.09
6/29/2021 3:19:24 AM 25.04 77.07201 0.3747 7.8855 12.3025 25.04
6/29/2021 3:34:24 AM 25.005 77.009 0.3747501 7.8617 12.37 25.0075
6/29/2021 3:49:24 AM 24.9375 76.8875 0.3750499 7.8302 12.285 24.9375
6/29/2021 4:04:24 AM 24.9 76.82 0.3751 7.8127 12.215 24.9
6/29/2021 4:19:24 AM 24.8325 76.6985 0.37545 7.7924 12.095 24.8325
6/29/2021 4:34:24 AM 24.78 76.604 0.3758 7.7735 11.87 24.78
6/29/2021 4:49:24 AM 24.745 76.541 0.3758 7.745501 12.0825 24.745
6/29/2021 5:04:24 AM 24.6925 76.4465 0.3765 7.738501 11.87 24.6925
6/29/2021 5:19:24 AM 24.66 76.388 0.3768001 7.733601 11.905 24.66
6/29/2021 5:34:24 AM 24.625 76.325 0.37715 7.724501 12.0625 24.625
6/29/2021 5:49:24 AM 24.6075 76.2935 0.37755 7.709801 12.41 24.6075
6/29/2021 6:04:24 AM 24.5725 76.2305 0.3775 7.695101 11.315 24.5725
6/29/2021 6:19:24 AM 24.5375 76.1675 0.3779 7.681101 10.1175 24.5375
6/29/2021 6:34:24 AM 24.505 76.109 0.3782 7.660801 9.837502 24.505
6/29/2021 6:49:24 AM 24.4675 76.0415 0.3785501 7.652399 9.527496 24.4675
6/29/2021 7:04:24 AM 24.45 76.01 0.3789 7.637699 9.542503 24.45
6/29/2021 7:19:24 AM 24.435 75.983 0.3789 7.627899 9.510002 24.435
6/29/2021 7:34:24 AM 24.4325 75.9785 0.3792499 7.616699 9.525002 24.4325
6/29/2021 7:49:24 AM 24.4175 75.9515 0.3792499 7.611099 9.422501 24.4175
6/29/2021 8:04:24 AM 24.4325 75.9785 0.3792499 7.613199 19.005 24.4325
6/29/2021 8:19:24 AM 24.45 76.01 0.3789 7.594299 8.987503 24.45
6/29/2021 8:34:24 AM 24.45 76.01 0.3789 7.592199 9.0625 24.45
6/29/2021 8:49:24 AM 24.4525 76.0145 0.3789 7.591499 9.074997 24.4525
6/29/2021 9:04:24 AM 24.5025 76.1045 0.3785501 7.593599 8.952499 24.5025
6/29/2021 9:19:24 AM 24.555 76.199 0.3782 7.592199 8.897499 24.555
6/29/2021 9:34:24 AM 24.605 76.289 0.3778 7.587299 8.952499 24.605
6/29/2021 9:49:24 AM 24.655 76.379 0.37745 7.583799 9.122498 24.655
6/29/2021 10:04:24 AM 24.7275 76.50951 0.3768001 7.580999 9.142502 24.7275
6/29/2021 10:19:25 AM 24.7775 76.5995 0.3764499 7.578199 9.364998 24.7775
6/29/2021 10:34:24 AM 24.83 76.694 0.3764 7.572599 9.239998 24.83
6/29/2021 10:49:24 AM 24.88 76.784 0.3764 7.571899 9.172501 24.88
6/29/2021 11:04:24 AM 24.9675 76.9415 0.3761 7.576799 9.1875 24.9675
6/29/2021 11:19:24 AM 25.035 77.063 0.3756999 7.582399 9.342499 25.035
6/29/2021 11:34:24 AM 25.1225 77.2205 0.3756999 7.585899 9.43 25.1225
6/29/2021 11:49:24 AM 25.245 77.441 0.3753501 7.585899 9.254997 25.245
6/29/2021 12:04:24 PM 25.345 77.621 0.375 7.590799 9.425003 25.345
6/29/2021 12:19:24 PM 25.43 77.774 0.3746499 7.597099 9.252502 25.43
6/29/2021 12:34:24 PM 25.5175 77.9315 0.3746 7.600599 9.252502 25.5175
6/29/2021 12:49:24 PM 25.535 77.963 0.375 7.611099 9.182503 25.535
6/29/2021 1:04:24 PM 25.64 78.152 0.3742499 7.613899 9.32 25.64
6/29/2021 1:19:24 PM 25.725 78.305 0.3743001 7.621599 9.042503 25.725
6/29/2021 1:34:24 PM 25.76 78.368 0.3746499 7.629999 9.065002 25.76
6/29/2021 1:49:24 PM 25.8475 78.5255 0.3746 7.639799 8.9925 25.8475
6/29/2021 2:04:24 PM 25.97 78.746 0.3743001 7.644699 8.870003 25.97
6/29/2021 2:19:24 PM 26.0875 78.9575 0.3746 7.658001 8.904999 26.0875
6/29/2021 2:34:24 PM 26.23 79.214 0.3746 7.669201 9.0075 26.23
6/29/2021 2:49:24 PM 26.3325 79.3985 0.3749501 7.686701 8.9375 26.3325
6/29/2021 3:04:24 PM 26.435 79.583 0.3749501 7.708401 8.9925 26.435
6/29/2021 3:19:24 PM 26.54 79.772 0.3749501 7.725901 8.849998 26.54
6/29/2021 3:34:24 PM 26.61 79.898 0.3753 7.746201 8.800003 26.61
6/29/2021 3:49:24 PM 26.695 80.051 0.3752499 7.7665 8.904999 26.695
6/29/2021 4:04:24 PM 26.7475 80.1455 0.3756 7.7847 8.8675 26.7475
6/29/2021 4:19:24 PM 26.8325 80.2985 0.3759501 7.8085 8.864998 26.8325
6/29/2021 4:34:24 PM 26.955 80.519 0.3759501 7.8351 8.852501 26.955
6/29/2021 4:49:24 PM 27.0575 80.7035 0.376 7.8239 8.919998 27.0575
6/29/2021 5:04:24 PM 27.145 80.861 0.3763 7.8827 8.730003 27.145
6/29/2021 5:19:24 PM 27.235 81.023 0.3766499 7.9114 8.817497 27.235
6/29/2021 5:34:24 PM 27.3 81.14 0.3766499 7.9317 8.900002 27.3
6/29/2021 5:49:24 PM 27.405 81.329 0.3763 7.9506 8.830002 27.405
6/29/2021 6:04:24 PM 27.4925 81.4865 0.3766499 7.9695 8.870003 27.4925
6/29/2021 6:19:24 PM 27.5625 81.6125 0.3767 7.9842 9.059998 27.5625
6/29/2021 6:34:24 PM 27.58 81.644 0.3770499 7.998199 9.0075 27.58
6/29/2021 6:49:24 PM 27.58 81.644 0.3774 8.008699 9.077499 27.58
6/29/2021 7:04:24 PM 27.5275 81.5495 0.3780499 8.023399 8.885002 27.5275
6/29/2021 7:19:24 PM 27.3575 81.2435 0.3795 8.033199 8.957497 27.3575
6/29/2021 7:34:24 PM 27.2175 80.9915 0.3805 8.029699 8.942497 27.2175
6/29/2021 7:49:24 PM 27.1 80.78 0.3812 8.028999 8.942497 27.1
6/29/2021 8:04:24 PM 27.0475 80.6855 0.3816 8.024799 8.985001 27.0475
6/29/2021 8:19:24 PM 27.0125 80.6225 0.3812 8.029699 9.029999 27.0125
6/29/2021 8:34:24 PM 26.9625 80.5325 0.3812499 8.029699 8.842499 26.9625
6/29/2021 8:49:24 PM 26.91 80.438 0.3812499 8.029699 9.190002 26.91
6/29/2021 9:04:24 PM 26.86 80.348 0.3816 8.028299 9.137497 26.86
6/29/2021 9:19:24 PM 26.8225 80.2805 0.3816499 8.024799 9.309998 26.8225
6/29/2021 9:34:24 PM 26.805 80.249 0.3819501 8.021299 9.3825 26.805
6/29/2021 9:49:24 PM 26.7525 80.1545 0.3819 8.020599 9.277496 26.7525
6/29/2021 10:04:24 PM 26.72 80.096 0.3823 8.010799 9.224998 26.72
6/29/2021 10:19:25 PM 26.7025 80.0645 0.3826499 7.999599 9.260002 26.7025
6/29/2021 10:34:24 PM 26.6675 80.0015 0.383 7.995399 9.1875 26.6675
6/29/2021 10:49:24 PM 26.615 79.907 0.383 7.992599 9.262497 26.615
6/29/2021 11:04:24 PM 26.5825 79.8485 0.3833501 7.9863 9.207497 26.5825
6/29/2021 11:19:24 PM 26.545 79.781 0.3833501 7.9863 9.160004 26.545
6/29/2021 11:34:24 PM 26.5125 79.7225 0.3836499 7.9828 9.364998 26.5125
6/30/2021 12:04:24 AM 26.4425 79.5965 0.3840499 7.9534 9.385002 26.4425
6/30/2021 12:19:24 AM 26.41 79.538 0.3840499 7.9422 9.040001 26.41
6/30/2021 12:34:24 AM 26.3575 79.4435 0.3843501 7.9317 9.517502 26.3575
6/30/2021 12:49:24 AM 26.3075 79.3535 0.3847501 7.9212 9.279999 26.3075
6/30/2021 1:04:24 AM 26.2875 79.3175 0.3847501 7.9191 10.0625 26.2875
6/30/2021 1:19:24 AM 26.2525 79.2545 0.3847501 7.8974 9.612503 26.2525
6/30/2021 1:34:24 AM 26.2025 79.1645 0.3850499 7.8813 9.782501 26.2025
6/30/2021 1:49:24 AM 26.15 79.07 0.3851 7.8631 9.2575 26.15
6/30/2021 2:04:24 AM 26.0975 78.9755 0.3854 7.8512 10.165 26.0975
6/30/2021 2:19:24 AM 26.045 78.881 0.3857501 7.8407 12.7 26.045
6/30/2021 2:34:24 AM 26.0075 78.8135 0.3857501 7.8267 13.13 26.0075
6/30/2021 2:49:24 AM 25.96 78.728 0.38615 7.8127 12.805 25.96
6/30/2021 3:04:24 AM 25.9075 78.6335 0.38645 7.7966 12.91 25.9075
6/30/2021 3:19:24 AM 25.855 78.539 0.38645 7.7833 12.3525 25.855
6/30/2021 3:34:25 AM 25.8025 78.4445 0.38685 7.7665 12.285 25.8025
6/30/2021 3:49:25 AM 25.7325 78.3185 0.38715 7.753901 12.06 25.7325
6/30/2021 4:04:25 AM 25.68 78.224 0.3875 7.7686 11.955 25.68
6/30/2021 4:19:25 AM 25.5925 78.0665 0.3875 7.666401 11.0725 25.5925
6/30/2021 4:34:25 AM 25.5425 77.9765 0.3882499 7.650299 11.0675 25.5425
6/30/2021 4:49:25 AM 25.4925 77.8865 0.3889 7.636999 11.315 25.4925
6/30/2021 5:04:25 AM 25.405 77.729 0.3892499 7.620899 10.2375 25.405
6/30/2021 5:19:25 AM 25.3375 77.6075 0.3896 7.606199 9.752502 25.3375
6/30/2021 5:34:25 AM 25.3025 77.5445 0.3899501 7.586599 9.4925 25.3025
6/30/2021 5:49:25 AM 25.2325 77.4185 0.39 7.572599 9.195 25.2325
6/30/2021 6:04:25 AM 25.18 77.324 0.3907 7.558599 9.165001 25.18
6/30/2021 6:19:25 AM 25.11 77.198 0.391 7.5432 9.25 25.11
6/30/2021 6:34:25 AM 25.0775 77.1395 0.3913501 7.5334 9.199997 25.0775
6/30/2021 6:49:24 AM 25.04 77.07201 0.3916999 7.5215 9.214996 25.04
6/30/2021 7:04:24 AM 25.0075 77.0135 0.3916499 7.5103 9.162498 25.0075
6/30/2021 7:19:24 AM 25.0075 77.0135 0.3916999 7.5054 9.232498 25.0075
6/30/2021 7:34:24 AM 24.99 76.982 0.3920499 7.4963 9.25 24.99
6/30/2021 7:49:24 AM 24.9725 76.9505 0.392 7.4956 9.025002 24.9725
6/30/2021 8:04:24 AM 24.97 76.946 0.392 7.4914 9.0075 24.97
6/30/2021 8:19:24 AM 24.9725 76.9505 0.3916499 7.4907 8.949997 24.9725
6/30/2021 8:34:24 AM 25.025 77.045 0.3913001 7.4893 8.800003 25.025
6/30/2021 8:49:24 AM 25.0575 77.1035 0.391 7.4921 8.747498 25.0575
6/30/2021 9:19:24 AM 25.1425 77.2565 0.3906 7.4907 8.809998 25.1425
6/30/2021 9:34:24 AM 25.1775 77.3195 0.3906499 7.4858 8.777496 25.1775
6/30/2021 9:49:24 AM 25.1925 77.3465 0.3906 7.4816 8.639999 25.1925
6/30/2021 10:04:24 AM 25.21 77.378 0.3906 7.4816 8.672501 25.21
6/30/2021 10:19:24 AM 25.21 77.378 0.3906 7.4802 8.622498 25.21
6/30/2021 10:34:24 AM 25.21 77.378 0.3906 7.4753 8.497498 25.21
6/30/2021 10:49:24 AM 25.1925 77.3465 0.3902499 7.4718 8.57 25.1925
6/30/2021 11:04:24 AM 25.195 77.351 0.3902499 7.4704 8.657501 25.195
6/30/2021 11:19:24 AM 25.2275 77.4095 0.3899 7.476 8.847504 25.2275
6/30/2021 11:34:24 AM 25.2925 77.5265 0.3895 7.4809 8.754997 25.2925
6/30/2021 11:49:24 AM 25.3625 77.6525 0.3895 7.4858 8.722504 25.3625
6/30/2021 12:04:24 PM 25.45 77.81 0.38885 7.4956 8.580002 25.45
6/30/2021 12:19:24 PM 25.5225 77.9405 0.3881 7.4998 8.599998 25.5225
6/30/2021 12:34:25 PM 25.6075 78.0935 0.3878 7.5103 8.614998 25.6075
6/30/2021 12:49:25 PM 25.6575 78.1835 0.3874499 7.5138 8.612503 25.6575
6/30/2021 1:04:25 PM 25.695 78.251 0.3868001 7.5222 8.614998 25.695
6/30/2021 1:19:25 PM 25.745 78.341 0.3867501 7.5292 8.580002 25.745
6/30/2021 1:34:25 PM 25.8125 78.4625 0.3864 7.5383 8.404999 25.8125
6/30/2021 1:49:25 PM 25.8675 78.5615 0.3860499 7.5467 8.462502 25.8675
6/30/2021 2:04:25 PM 25.9525 78.7145 0.3856499 7.556499 8.422501 25.9525
6/30/2021 2:19:25 PM 26.0225 78.8405 0.3853501 7.571199 8.472504 26.0225
6/30/2021 2:34:25 PM 26.0725 78.9305 0.3853501 7.581699 8.4375 26.0725
6/30/2021 2:49:25 PM 26.11 78.998 0.385 7.591499 8.440002 26.11
6/30/2021 3:04:25 PM 26.18 79.124 0.3846499 7.611099 8.370003 26.18
6/30/2021 3:19:25 PM 26.2125 79.1825 0.3846499 7.624399 8.542503 26.2125
6/30/2021 3:34:25 PM 26.265 79.277 0.3846499 7.638399 8.527496 26.265
6/30/2021 3:49:24 PM 26.3875 79.4975 0.3843001 7.654499 8.472504 26.3875
6/30/2021 4:04:24 PM 26.405 79.529 0.3846499 7.665001 8.474998 26.405
6/30/2021 4:19:24 PM 26.335 79.403 0.3853501 7.682501 8.404999 26.335
6/30/2021 4:34:24 PM 26.2675 79.2815 0.3864 7.703501 8.4925 26.2675
6/30/2021 4:49:25 PM 26.2125 79.1825 0.3874499 7.723801 8.4925 26.2125
6/30/2021 5:04:24 PM 26.1775 79.1195 0.3878 7.737801 8.427498 26.1775
6/30/2021 5:19:24 PM 26.215 79.187 0.3878 7.753201 8.514999 26.215
6/30/2021 5:34:24 PM 26.2125 79.1825 0.3877501 7.7707 8.474998 26.2125
6/30/2021 5:49:24 PM 26.1825 79.1285 0.3878 7.7812 8.462502 26.1825
6/30/2021 6:04:24 PM 26.1625 79.0925 0.38815 7.7966 8.442497 26.1625
6/30/2021 6:19:24 PM 26.18 79.124 0.3882 7.8099 8.392502 26.18
6/30/2021 6:34:24 PM 26.1625 79.0925 0.3884499 7.819 8.580002 26.1625
6/30/2021 6:49:24 PM 26.1625 79.0925 0.3885 7.8309 8.635002 26.1625
6/30/2021 7:04:24 PM 26.13 79.034 0.38885 7.8351 8.635002 26.13
6/30/2021 7:19:24 PM 26.095 78.971 0.3895 7.8358 8.584999 26.095
6/30/2021 7:34:25 PM 26.06 78.908 0.38985 7.8407 8.529999 26.06
6/30/2021 7:49:24 PM 26.0775 78.9395 0.3902499 7.8456 8.410004 26.0775
6/30/2021 8:04:24 PM 26.06 78.908 0.3906 7.8442 8.412498 26.06
6/30/2021 8:19:24 PM 26.06 78.908 0.3909501 7.8463 8.622498 26.06
6/30/2021 8:34:25 PM 26.0425 78.8765 0.3912499 7.8456 8.495003 26.0425
6/30/2021 8:49:24 PM 26.0275 78.8495 0.3916499 7.8456 8.672501 26.0275
6/30/2021 9:04:25 PM 26.0275 78.8495 0.3919501 7.8407 8.864998 26.0275
6/30/2021 9:19:24 PM 25.9925 78.7865 0.3919501 7.8344 9 25.9925
6/30/2021 9:34:25 PM 25.9925 78.7865 0.3923501 7.8302 8.7425 25.9925
6/30/2021 9:49:25 PM 25.975 78.755 0.3923501 7.8309 8.709999 25.975
6/30/2021 10:04:25 PM 25.94 78.692 0.3926499 7.8323 8.745003 25.94
6/30/2021 10:19:25 PM 25.9075 78.6335 0.3930499 7.8309 8.654999 25.9075
6/30/2021 10:34:24 PM 25.8375 78.5075 0.3933501 7.826 8.827499 25.8375
6/30/2021 10:49:25 PM 25.7675 78.3815 0.3937501 7.8211 8.7425 25.7675
6/30/2021 11:04:25 PM 25.715 78.287 0.3941 7.8169 8.794998 25.715
6/30/2021 11:19:25 PM 25.6625 78.1925 0.3941 7.8078 9.110001 25.6625
6/30/2021 11:34:25 PM 25.6125 78.1025 0.3945 7.8015 9.387497 25.6125
7/1/2021 12:04:25 AM 25.5425 77.9765 0.3948 7.791 9.525002 25.5425
7/1/2021 12:19:25 AM 25.49 77.882 0.3951 7.7868 9.442497 25.49
7/1/2021 12:34:25 AM 25.44 77.792 0.3954499 7.7777 9.440002 25.44
7/1/2021 12:49:25 AM 25.3875 77.6975 0.3958001 7.7728 9.267502 25.3875
7/1/2021 1:04:24 AM 25.3525 77.63451 0.3958001 7.758801 9.092499 25.3525
7/1/2021 1:19:24 AM 25.335 77.603 0.3961999 7.749001 9.177498 25.335
7/1/2021 1:34:24 AM 25.3025 77.5445 0.3965501 7.738501 9.264999 25.3025
7/1/2021 1:49:24 AM 25.265 77.477 0.39685 7.728001 9.095001 25.265
7/1/2021 2:04:24 AM 25.23 77.414 0.3972 7.716101 9.527496 25.23
7/1/2021 2:19:24 AM 25.1975 77.3555 0.39755 7.699301 9.317497 25.1975
7/1/2021 2:34:24 AM 25.16 77.288 0.3982499 7.686001 9.267502 25.16
7/1/2021 2:49:24 AM 25.11 77.198 0.3986 7.670601 9.199997 25.11
7/1/2021 3:04:24 AM 25.0775 77.1395 0.3989501 7.660801 9.197502 25.0775
7/1/2021 3:19:24 AM 25.0425 77.0765 0.3989501 7.650299 9.404999 25.0425
7/1/2021 3:34:24 AM 24.97 76.946 0.3992499 7.641899 9.217499 24.97
7/1/2021 3:49:24 AM 24.935 76.883 0.3996499 7.628599 9.162498 24.935
7/1/2021 4:04:24 AM 24.885 76.793 0.4 7.616699 8.957497 24.885
7/1/2021 4:19:24 AM 24.8325 76.6985 0.4003001 7.607599 8.419998 24.8325
7/1/2021 4:34:24 AM 24.8 76.64 0.4003501 7.594299 8.644997 24.8
7/1/2021 4:49:24 AM 24.75 76.55 0.4006499 7.583799 8.565002 24.75
7/1/2021 5:04:24 AM 24.695 76.451 0.401 7.568399 8.502502 24.695
7/1/2021 5:19:24 AM 24.645 76.361 0.4010499 7.552999 8.300003 24.645
7/1/2021 5:34:24 AM 24.61 76.298 0.4010499 7.5432 8.662498 24.61
7/1/2021 5:49:24 AM 24.5725 76.2305 0.401 7.5348 8.625 24.5725
7/1/2021 6:04:24 AM 24.5225 76.1405 0.401 7.5236 8.487503 24.5225
7/1/2021 6:19:24 AM 24.4725 76.0505 0.4010499 7.5173 8.577499 24.4725
7/1/2021 6:34:24 AM 24.42 75.956 0.4006999 7.5047 8.487503 24.42
7/1/2021 6:49:25 AM 24.3875 75.8975 0.4006999 7.4949 8.525002 24.3875
7/1/2021 7:04:24 AM 24.3325 75.7985 0.4003501 7.4921 8.457497 24.3325
7/1/2021 7:19:25 AM 24.3175 75.7715 0.4003501 7.4823 8.442497 24.3175
7/1/2021 7:34:25 AM 24.2625 75.6725 0.4 7.4753 8.489998 24.2625
7/1/2021 7:49:25 AM 24.245 75.641 0.4 7.4732 8.404999 24.245
7/1/2021 8:04:24 AM 24.2125 75.5825 0.3997 7.462 8.477501 24.2125
7/1/2021 8:19:25 AM 24.21 75.578 0.3997 7.4571 8.5075 24.21
7/1/2021 8:34:25 AM 24.1775 75.5195 0.3993 7.4578 8.402496 24.1775
7/1/2021 8:49:25 AM 24.1775 75.5195 0.399 7.4515 8.385002 24.1775
7/1/2021 9:04:25 AM 24.16 75.488 0.3986499 7.4473 8.452499 24.16
7/1/2021 9:19:24 AM 24.14 75.452 0.3983001 7.4473 8.352501 24.14
7/1/2021 10:04:25 AM 24.1075 75.3935 0.39685 7.4368 8.402496 24.1075
7/1/2021 10:19:24 AM 24.07 75.326 0.3965501 7.4375 7.847504 24.07
7/1/2021 10:34:24 AM 24.07 75.326 0.3961999 7.4382 7.8825 24.07
7/1/2021 10:49:24 AM 24.0725 75.3305 0.39585 7.4375 7.987503 24.0725
7/1/2021 11:04:24 AM 24.055 75.299 0.3958001 7.4368 8.095001 24.055
7/1/2021 11:19:24 AM 24.055 75.299 0.3955 7.4389 7.934998 24.055
7/1/2021 11:34:24 AM 24.055 75.299 0.39515 7.4368 8.004997 24.055
7/1/2021 11:49:24 AM 24.0375 75.2675 0.3948 7.4319 7.985001 24.0375
7/1/2021 12:04:24 PM 24.02 75.236 0.3944499 7.4319 8.002502 24.02
7/1/2021 12:19:24 PM 24.0025 75.2045 0.3941 7.4319 7.912498 24.0025
7/1/2021 12:34:24 PM 23.9825 75.1685 0.3937501 7.4291 7.967499 23.9825
7/1/2021 12:49:24 PM 23.9675 75.1415 0.3936999 7.4319 7.949997 23.9675
7/1/2021 1:04:24 PM 23.915 75.047 0.3937501 7.4312 7.842499 23.915
7/1/2021 1:19:24 PM 23.8625 74.9525 0.3934 7.4319 7.809998 23.8625
7/1/2021 1:34:24 PM 23.83 74.894 0.3930499 7.4326 7.7425 23.83
7/1/2021 1:49:24 PM 23.7775 74.7995 0.3927501 7.4326 7.690002 23.7775
7/1/2021 2:04:24 PM 23.725 74.705 0.3924 7.4319 7.572502 23.725
7/1/2021 2:19:24 PM 23.69 74.642 0.3920499 7.4375 7.529999 23.69
7/1/2021 2:34:24 PM 23.6725 74.6105 0.3916999 7.4382 7.622498 23.6725
7/1/2021 2:49:24 PM 23.655 74.579 0.3916999 7.4382 7.587502 23.655
7/1/2021 3:19:24 PM 23.69 74.642 0.3916999 7.4522 7.622498 23.69
7/1/2021 3:34:24 PM 23.725 74.705 0.3916999 7.4613 7.692497 23.725
7/1/2021 3:49:24 PM 23.7775 74.7995 0.3916999 7.4753 7.622498 23.7775
7/1/2021 4:04:25 PM 23.83 74.894 0.3916499 7.4858 7.739998 23.83
7/1/2021 4:19:25 PM 23.9 75.02 0.3916999 7.4949 8.264999 23.9
7/1/2021 4:34:25 PM 23.95 75.11 0.3913501 7.5117 8.352501 23.95
7/1/2021 5:04:25 PM 23.9475 75.1055 0.3916999 7.5411 8.262497 23.9475
7/1/2021 5:19:25 PM 23.88 74.984 0.3920499 7.5495 7.8125 23.88
7/1/2021 5:34:25 PM 23.7925 74.8265 0.3923501 7.555099 7.502502 23.7925
7/1/2021 5:49:25 PM 23.74 74.732 0.3927501 7.555099 7.275002 23.74
7/1/2021 6:04:25 PM 23.675 74.615 0.3931 7.559999 7.012497 23.675
7/1/2021 6:19:25 PM 23.6225 74.5205 0.3931 7.559999 6.872498 23.6225
7/1/2021 6:34:25 PM 23.57 74.426 0.39345 7.563499 6.802498 23.57
7/1/2021 6:49:25 PM 23.535 74.363 0.3935 7.564199 7.120003 23.535
7/1/2021 7:04:25 PM 23.4825 74.2685 0.39345 7.569099 7.309998 23.4825
7/1/2021 7:19:25 PM 23.4675 74.2415 0.3931 7.578199 7.5 23.4675
7/1/2021 7:34:25 PM 23.4475 74.2055 0.3931 7.582399 7.290001 23.4475
7/1/2021 7:49:25 PM 23.4125 74.1425 0.3928001 7.595699 6.997498 23.4125
7/1/2021 8:04:25 PM 23.3975 74.11549 0.3924 7.605499 7.087502 23.3975
7/1/2021 8:19:25 PM 23.38 74.084 0.3920499 7.613899 6.942497 23.38
7/1/2021 8:34:25 PM 23.3625 74.0525 0.3916999 7.624399 7.035004 23.3625
7/1/2021 8:49:25 PM 23.3275 73.9895 0.3913501 7.633499 6.93 23.3275
7/1/2021 9:04:25 PM 23.295 73.931 0.391 7.641899 6.910004 23.295
7/1/2021 9:19:25 PM 23.2775 73.8995 0.3907501 7.651699 6.93 23.2775
7/1/2021 9:34:25 PM 23.2425 73.8365 0.3904 7.657301 6.912498 23.2425
7/1/2021 9:49:25 PM 23.2075 73.7735 0.3900499 7.662901 6.985001 23.2075
7/1/2021 10:04:25 PM 23.1875 73.7375 0.3896499 7.664301 7.002502 23.1875
7/1/2021 10:19:25 PM 23.1525 73.6745 0.3893501 7.667801 7.035004 23.1525
7/1/2021 10:34:25 PM 23.12 73.616 0.3886 7.672701 7 23.12
7/1/2021 10:49:25 PM 23.085 73.55299 0.3883001 7.672701 7.022499 23.085
7/1/2021 11:04:25 PM 23.05 73.49 0.3879501 7.676901 7.172501 23.05
7/1/2021 11:19:25 PM 23 73.4 0.3876 7.676901 7.3125 23
7/1/2021 11:34:25 PM 22.9125 73.2425 0.3873 7.677601 7.3675 22.9125
7/2/2021 12:04:25 AM 22.7575 72.9635 0.3855501 7.673401 8.932503 22.7575
7/2/2021 12:19:24 AM 22.705 72.869 0.3834499 7.667101 11.75 22.705
7/2/2021 12:34:25 AM 22.6175 72.7115 0.3816999 7.683901 11.38 22.6175
7/2/2021 12:49:25 AM 22.5675 72.6215 0.3807 7.676901 10.79 22.5675
7/2/2021 1:04:25 AM 22.515 72.527 0.3803501 7.688101 9.847504 22.515
7/2/2021 1:19:25 AM 22.48 72.464 0.3803501 7.681801 8.529999 22.48
7/2/2021 1:34:25 AM 22.4625 72.4325 0.3807 7.673401 7.805 22.4625
7/2/2021 1:49:25 AM 22.43 72.374 0.3810499 7.667101 7.892502 22.43
7/2/2021 2:04:25 AM 22.395 72.311 0.3814 7.658701 8.114998 22.395
7/2/2021 2:19:25 AM 22.3575 72.2435 0.3814 7.648199 7.927498 22.3575
7/2/2021 2:34:26 AM 22.3275 72.1895 0.3814499 7.644699 7.877502 22.3275
7/2/2021 2:49:25 AM 22.2725 72.0905 0.3807 7.639799 7.892502 22.2725
7/2/2021 3:04:25 AM 22.22 71.996 0.3803501 7.624399 7.720001 22.22
7/2/2021 3:19:25 AM 22.15 71.87 0.3807 7.615999 7.790001 22.15
7/2/2021 3:34:25 AM 22.0975 71.7755 0.38045 7.599899 7.860001 22.0975
7/2/2021 3:49:25 AM 22.05 71.69 0.3800499 7.594999 8.190002 22.05
7/2/2021 4:04:25 AM 21.9975 71.5955 0.3793501 7.584499 8.050003 21.9975
7/2/2021 4:19:25 AM 21.925 71.465 0.3793501 7.576799 7.945 21.925
7/2/2021 4:34:25 AM 21.8575 71.3435 0.3794 7.570499 7.949997 21.8575
7/2/2021 4:49:25 AM 21.79 71.222 0.379 7.560699 8.017502 21.79
7/2/2021 5:04:25 AM 21.72 71.096 0.3783501 7.5516 7.879997 21.72
7/2/2021 5:19:25 AM 21.65 70.97 0.3780499 7.546 8.002502 21.65
7/2/2021 5:34:25 AM 21.5625 70.8125 0.3776999 7.5369 8.297501 21.5625
7/2/2021 5:49:25 AM 21.5125 70.7225 0.377 7.5327 8.315002 21.5125
7/2/2021 6:04:25 AM 21.4925 70.6865 0.3762499 7.5285 8.434998 21.4925
7/2/2021 6:19:25 AM 21.475 70.655 0.3762499 7.5173 8.412498 21.475
7/2/2021 6:34:25 AM 21.4225 70.5605 0.3759 7.5124 8.3825 21.4225
7/2/2021 6:49:25 AM 21.405 70.529 0.3759 7.5033 8.452499 21.405
7/2/2021 7:04:25 AM 21.3725 70.4705 0.3763 7.4998 8.452499 21.3725
7/2/2021 7:19:24 AM 21.3375 70.4075 0.3766 7.4928 8.592499 21.3375
7/2/2021 7:34:24 AM 21.32 70.376 0.3769501 7.4928 8.660004 21.32
7/2/2021 7:49:24 AM 21.3025 70.3445 0.3773501 7.4935 8.712502 21.3025
7/2/2021 8:04:24 AM 21.2675 70.2815 0.3776499 7.4928 8.8675 21.2675
7/2/2021 8:19:24 AM 21.2325 70.2185 0.3776 7.4942 9.110001 21.2325
7/2/2021 8:34:24 AM 21.18 70.124 0.3783501 7.4935 9.337502 21.18
7/2/2021 8:49:24 AM 21.095 69.971 0.3793501 7.4928 9.559998 21.095
7/2/2021 9:04:24 AM 21.0425 69.8765 0.3800499 7.4998 9.647499 21.0425
7/2/2021 9:19:24 AM 20.99 69.782 0.3814499 7.4977 12.1125 20.99
7/2/2021 9:34:24 AM 20.9525 69.7145 0.3821 7.5124 22.31 20.9525
7/2/2021 9:49:24 AM 20.9175 69.6515 0.3828 7.5369 18.205 20.9175
7/2/2021 10:04:25 AM 20.92 69.656 0.3838001 7.5474 13.8975 20.92
7/2/2021 10:19:25 AM 20.9025 69.6245 0.3849 7.5474 11.1025 20.9025
7/2/2021 10:34:25 AM 20.8725 69.5705 0.3863001 7.5467 10.005 20.8725
7/2/2021 10:49:25 AM 20.8175 69.4715 0.3855501 7.5467 10.1675 20.8175
7/2/2021 11:04:25 AM 20.785 69.413 0.38315 7.546 10.8475 20.785
7/2/2021 11:19:25 AM 20.765 69.377 0.3794 7.5362 12.285 20.765
7/2/2021 11:34:25 AM 20.74 69.332 0.37585 7.5376 14.02 20.74
7/2/2021 11:49:25 AM 20.7625 69.3725 0.3727501 7.5306 15.6875 20.7625
7/2/2021 12:04:25 PM 20.7725 69.3905 0.3699 7.5334 16.7275 20.7725
7/2/2021 12:19:25 PM 20.78 69.404 0.3678001 7.5313 17.4875 20.78
7/2/2021 12:34:25 PM 20.7975 69.4355 0.3666499 7.5362 17.615 20.7975
7/2/2021 12:49:25 PM 20.825 69.485 0.36555 7.5411 17.42 20.825
7/2/2021 1:04:25 PM 20.9 69.62 0.3648 7.546 16.95 20.9
7/2/2021 1:19:25 PM 20.9675 69.7415 0.3640499 7.554399 16.3225 20.9675
7/2/2021 1:34:24 PM 21.0675 69.9215 0.3631 7.564899 15.335 21.0675
7/2/2021 1:49:24 PM 21.155 70.079 0.3616499 7.575399 14.4675 21.155
7/2/2021 2:04:25 PM 21.24 70.232 0.36 7.585199 13.9775 21.24
7/2/2021 2:19:24 PM 21.3 70.34 0.35815 7.587999 13.3025 21.3
7/2/2021 2:34:24 PM 21.3675 70.4615 0.3561 7.599899 12.975 21.3675
7/2/2021 2:49:24 PM 21.4 70.52 0.3533 7.603399 13.0075 21.4
7/2/2021 3:04:24 PM 21.4175 70.5515 0.34985 7.609699 12.68 21.4175
7/2/2021 3:19:24 PM 21.4 70.52 0.3457501 7.608299 13.2675 21.4
7/2/2021 3:34:24 PM 21.42 70.556 0.3412499 7.608299 13.5975 21.42
7/2/2021 3:49:24 PM 21.4375 70.5875 0.3364 7.613899 13.925 21.4375
7/2/2021 4:34:24 PM 21.45 70.61 0.3208 7.618799 14.7275 21.45
7/2/2021 4:49:24 PM 21.3975 70.5155 0.3157501 7.613199 15.0575 21.3975
7/2/2021 5:04:24 PM 21.355 70.439 0.3105 7.608299 15.57 21.355
7/2/2021 5:19:24 PM 21.2925 70.3265 0.3046 7.610399 16.0225 21.2925
7/2/2021 5:34:24 PM 21.2125 70.1825 0.2991999 7.594299 16.8975 21.2125
7/2/2021 5:49:24 PM 21.145 70.061 0.2936 7.589399 17.84 21.145
7/2/2021 6:04:24 PM 21.07 69.926 0.2884 7.580999 18.66 21.07
7/2/2021 6:19:25 PM 20.99 69.782 0.2828 7.570499 19.8375 20.99
7/2/2021 6:34:24 PM 20.925 69.665 0.2769501 7.559999 20.955 20.925
7/2/2021 6:49:24 PM 20.845 69.521 0.2718 7.5474 22.175 20.845
7/2/2021 7:04:24 PM 20.7575 69.3635 0.26655 7.5334 23.2375 20.7575
7/2/2021 7:19:25 PM 20.7275 69.3095 0.26185 7.5173 24.95 20.7275
7/2/2021 7:34:25 PM 20.6775 69.2195 0.25715 7.5082 25.83 20.6775
7/2/2021 7:49:25 PM 20.6425 69.1565 0.2530499 7.4984 26.845 20.6425
7/2/2021 8:04:25 PM 20.585 69.05299 0.2486499 7.4935 27.46 20.585
7/2/2021 8:19:25 PM 20.5025 68.9045 0.2447501 7.4886 28.4425 20.5025
7/2/2021 8:34:25 PM 20.38 68.684 0.24145 7.4795 28.8175 20.38
7/2/2021 8:49:25 PM 20.28 68.504 0.23815 7.4704 29.3075 20.28
7/2/2021 9:04:25 PM 20.1525 68.2745 0.2355 7.4606 29.4825 20.1525
7/2/2021 9:19:25 PM 20.0875 68.1575 0.2333 7.4403 29.6225 20.0875
7/2/2021 9:34:25 PM 20.0525 68.0945 0.2309 7.4445 29.815 20.0525
7/2/2021 9:49:25 PM 20.015 68.027 0.22855 7.441 30.1625 20.015
7/2/2021 10:04:24 PM 19.96 67.92799 0.22645 7.4312 30.2125 19.96
7/2/2021 10:19:25 PM 19.8925 67.8065 0.2251 7.4263 30.36 19.8925
7/2/2021 10:34:24 PM 19.83 67.694 0.2244 7.4193 30.1625 19.83
7/2/2021 10:49:24 PM 19.775 67.595 0.2244 7.4151 29.885 19.775
7/2/2021 11:04:24 PM 19.74 67.532 0.2245 7.4102 30.32 19.74
7/2/2021 11:19:24 PM 19.6925 67.4465 0.2250499 7.406 30.0075 19.6925
7/2/2021 11:34:24 PM 19.665 67.397 0.2258001 7.4011 29.6925 19.665
7/3/2021 12:04:24 AM 19.64 67.352 0.22755 7.4004 28.75 19.64
7/3/2021 12:19:24 AM 19.605 67.289 0.22855 7.3948 31.115 19.605
7/3/2021 12:34:24 AM 19.565 67.217 0.2295 7.4018 35.3 19.565
7/3/2021 12:49:24 AM 19.5275 67.1495 0.2305501 7.4067 33.2025 19.5275
7/3/2021 1:04:24 AM 19.52 67.136 0.2316499 7.4095 30.0425 19.52
7/3/2021 1:19:24 AM 19.5 67.1 0.2326 7.4109 26.4975 19.5
7/3/2021 1:34:24 AM 19.4925 67.0865 0.2338001 7.4067 25.1575 19.4925
7/3/2021 2:04:24 AM 19.4525 67.0145 0.2361999 7.406 25.105 19.4525
7/3/2021 2:34:24 AM 19.4075 66.9335 0.2386 7.4074 24.255 19.4075
7/3/2021 2:49:24 AM 19.395 66.911 0.2397501 7.4046 23.9625 19.3925
7/3/2021 3:04:24 AM 19.3975 66.9155 0.2403 7.4046 23.74 19.3975
7/3/2021 3:19:24 AM 19.3725 66.8705 0.2410499 7.4109 24.2725 19.3725
7/3/2021 3:34:24 AM 19.365 66.857 0.2416999 7.4102 23.9775 19.365
7/3/2021 3:49:24 AM 19.3625 66.8525 0.2420499 7.3752 21.44 19.3625
7/3/2021 4:04:24 AM 19.3525 66.8345 0.2417501 7.3486 22.5375 19.3525
7/3/2021 4:19:24 AM 19.3575 66.8435 0.2416999 7.3374 22.82 19.3575
7/3/2021 4:34:24 AM 19.36 66.848 0.2418001 7.3332 22.9725 19.36
7/3/2021 4:49:24 AM 19.3625 66.8525 0.2418001 7.317101 23.705 19.3625
7/3/2021 5:04:25 AM 19.3425 66.8165 0.2423501 7.289101 23.8775 19.3425
7/3/2021 5:19:25 AM 19.33 66.794 0.24215 7.268801 25.1075 19.33
7/3/2021 5:34:25 AM 19.2725 66.6905 0.241 7.305201 30.72 19.2725
7/3/2021 5:49:25 AM 19.2375 66.6275 0.2396499 7.308701 32.2675 19.2375
7/3/2021 6:04:25 AM 19.1825 66.5285 0.2379501 7.3241 36.525 19.1825
7/3/2021 6:19:25 AM 19.1325 66.4385 0.2357501 7.3346 44.04 19.1325
7/3/2021 6:34:25 AM 19.1025 66.38451 0.233 7.3367 51.95007 19.1025
7/3/2021 6:49:25 AM 19.0675 66.3215 0.23015 7.3381 65.5 19.0675
7/3/2021 7:04:24 AM 19.03 66.254 0.2279501 7.3374 77.55005 19.03
7/3/2021 7:19:24 AM 19.015 66.227 0.22585 7.3381 85.59998 19.015
7/3/2021 7:34:24 AM 18.995 66.191 0.2246999 7.3374 78.6499 18.995
7/3/2021 7:49:24 AM 18.975 66.155 0.2241 7.3388 78 18.975
7/3/2021 8:04:24 AM 18.945 66.101 0.2237501 7.3318 73.5 18.945
7/3/2021 8:19:24 AM 18.93 66.074 0.2232499 7.3332 66.59998 18.93
7/3/2021 8:34:24 AM 18.93 66.074 0.2230499 6.5765 72.40002 18.93
7/3/2021 9:04:24 AM 18.8575 65.9435 0.2234 7.3857 44.15002 18.8575
7/3/2021 9:19:24 AM 18.8225 65.8805 0.2236 7.392 44.6975 18.8225
7/3/2021 9:34:24 AM 18.7875 65.8175 0.2244499 7.4011 41.5875 18.7875
7/3/2021 9:49:24 AM 18.7725 65.7905 0.2247501 7.4053 39.29 18.7725
7/3/2021 10:04:24 AM 18.7325 65.7185 0.2252 7.4109 37.875 18.7325
7/3/2021 10:19:24 AM 18.7225 65.7005 0.2247501 7.4116 36.5925 18.7225
7/3/2021 10:49:24 AM 18.6625 65.5925 0.223 7.4074 37.945 18.6625
7/3/2021 11:04:24 AM 18.595 65.471 0.2223001 7.4074 39.245 18.595
7/3/2021 11:19:24 AM 18.5275 65.3495 0.2207 7.4053 42.4075 18.5275
7/3/2021 11:34:24 AM 18.455 65.219 0.2189 7.3969 44.90002 18.455
7/3/2021 11:49:24 AM 18.405 65.129 0.2172499 7.3906 55.15002 18.405
7/3/2021 12:04:24 PM 18.365 65.057 0.2157501 7.3969 67.04993 18.365
7/3/2021 12:19:25 PM 18.3525 65.0345 0.2139501 7.3962 81.30005 18.3525
7/3/2021 12:34:24 PM 18.3575 65.0435 0.2126499 7.3857 99.84998 18.3575
7/3/2021 12:49:24 PM 18.365 65.057 0.2111 7.3766 117.2499 18.365
7/3/2021 1:04:24 PM 18.3675 65.0615 0.2099 7.3619 132.9 18.3675
7/3/2021 1:19:25 PM 18.3875 65.0975 0.2084 7.3675 150.85 18.3875
7/3/2021 1:34:25 PM 18.385 65.093 0.2070499 7.3682 165.8 18.385
7/3/2021 1:49:25 PM 18.4025 65.1245 0.2062499 7.3612 175.85 18.4025
7/3/2021 2:04:25 PM 18.4175 65.1515 0.206 7.3577 183.2 18.4175
7/3/2021 2:19:25 PM 18.44 65.192 0.2057 7.3556 185.85 18.44
7/3/2021 2:34:25 PM 18.4375 65.1875 0.2056 7.357 183.5 18.44
7/3/2021 2:49:25 PM 18.43 65.174 0.2063501 7.3619 183.4 18.43
7/3/2021 3:04:25 PM 18.475 65.255 0.2067 7.3556 178.3501 18.475
7/3/2021 3:19:25 PM 18.5075 65.3135 0.2077501 7.3591 168.15 18.5075
7/3/2021 3:34:25 PM 18.5775 65.4395 0.2086499 7.3654 159.5 18.5775
7/3/2021 3:49:25 PM 18.605 65.489 0.2105501 7.3612 149.8 18.605
7/3/2021 4:04:25 PM 18.665 65.597 0.21185 7.3759 140.4 18.665
7/3/2021 4:19:25 PM 18.6925 65.6465 0.2132499 7.3675 128.7 18.6925
7/3/2021 4:34:24 PM 18.7525 65.7545 0.2146 7.3752 117.15 18.7525
7/3/2021 4:49:25 PM 18.8 65.84 0.2165 7.385 106.7 18.8
7/3/2021 5:04:25 PM 18.87 65.966 0.2178001 7.3934 98.40002 18.87
7/3/2021 5:19:25 PM 18.935 66.083 0.21945 7.4004 88.95007 18.935
7/3/2021 5:49:25 PM 19.04 66.272 0.2224 7.4095 75 19.04
7/3/2021 6:04:25 PM 19.0975 66.3755 0.2236499 7.4081 69.5 19.0975
7/3/2021 6:19:24 PM 19.1425 66.4565 0.2246499 7.42 64.95007 19.1425
7/3/2021 6:34:24 PM 19.165 66.497 0.2258001 7.4291 60.09998 19.165
7/3/2021 6:49:24 PM 19.18 66.524 0.2260499 7.4403 56.3501 19.18
7/3/2021 7:04:24 PM 19.165 66.497 0.2267501 7.4487 54.55005 19.165
7/3/2021 7:19:24 PM 19.1675 66.5015 0.2271 7.4522 52.84998 19.1675
7/3/2021 7:34:24 PM 19.1475 66.4655 0.2273501 7.4585 50.04993 19.1475
7/3/2021 7:49:24 PM 19.1425 66.4565 0.2273501 7.4683 48.90002 19.1425
7/3/2021 8:04:24 PM 19.125 66.425 0.2278 7.4683 48.59998 19.125
7/3/2021 8:19:24 PM 19.1175 66.4115 0.2277501 7.4774 48.24988 19.1175
7/3/2021 8:34:24 PM 19.0625 66.3125 0.2280499 7.4732 48.3501 19.0625
7/3/2021 8:49:24 PM 19.0075 66.2135 0.2284 7.4732 48.24988 19.0075
7/3/2021 9:04:24 PM 18.9375 66.0875 0.2286 7.4767 48 18.9375
7/3/2021 9:19:24 PM 18.875 65.975 0.22885 7.4816 47.6499 18.875
7/3/2021 9:34:24 PM 18.7975 65.8355 0.2288 7.4837 47.69995 18.7975
7/3/2021 9:49:24 PM 18.7525 65.7545 0.2289501 7.4879 46.90002 18.7525
7/3/2021 10:04:24 PM 18.715 65.687 0.2289 7.4872 46.90002 18.6975
7/3/2021 10:19:24 PM 18.68 65.624 0.22885 7.4935 46.90002 18.68
7/3/2021 10:34:25 PM 18.6425 65.5565 0.2286 7.4935 46.95007 18.6425
7/3/2021 10:49:25 PM 18.635 65.543 0.22855 7.4872 46.90002 18.635
7/3/2021 11:04:25 PM 18.5775 65.4395 0.2279501 7.4879 48.09998 18.5775
7/3/2021 11:19:25 PM 18.555 65.399 0.22715 7.4886 49 18.555
7/3/2021 11:34:25 PM 18.5325 65.3585 0.2261 7.4872 50.5 18.5325
7/4/2021 12:04:25 AM 18.445 65.201 0.2241 7.4634 53.6499 18.445
7/4/2021 12:19:25 AM 18.405 65.129 0.22255 7.4452 57.40002 18.405
7/4/2021 12:34:25 AM 18.3675 65.0615 0.22155 7.4613 61 18.3675
7/4/2021 12:49:25 AM 18.3425 65.0165 0.2209501 7.4543 59.95007 18.3425
7/4/2021 1:04:25 AM 18.3025 64.9445 0.2206499 7.4494 58.15002 18.3025
7/4/2021 1:19:25 AM 18.2875 64.9175 0.2202 7.4487 55.80005 18.2875
7/4/2021 1:34:25 AM 18.245 64.841 0.2202 7.4466 55.30005 18.245
7/4/2021 1:49:24 AM 18.2175 64.7915 0.22015 7.4445 55.24988 18.2175
7/4/2021 2:04:25 AM 18.185 64.733 0.22015 7.4438 55.3501 18.185
7/4/2021 2:19:25 AM 18.16 64.688 0.2206 7.4459 54.90002 18.16
7/4/2021 2:34:24 AM 18.135 64.643 0.2213001 7.4508 54.90002 18.135
7/4/2021 2:49:24 AM 18.11 64.598 0.2220499 7.4494 55.59998 18.11
7/4/2021 3:04:24 AM 18.0725 64.5305 0.2227 7.455 55 18.0725
7/4/2021 3:19:24 AM 18.06 64.508 0.2238 7.4543 53.95007 18.06
7/4/2021 3:34:24 AM 18.065 64.517 0.2250499 7.4585 53.95007 18.065
7/4/2021 3:49:24 AM 18.0425 64.4765 0.2264 7.4655 52.6499 18.0425
7/4/2021 4:04:24 AM 18.0375 64.4675 0.22785 7.4599 50.75012 18.0375
7/4/2021 4:19:25 AM 18.0225 64.4405 0.229 7.4557 49.5 18.0225
7/4/2021 4:34:25 AM 18.025 64.445 0.2306499 7.4606 48.6499 18.025
7/4/2021 4:49:25 AM 18.0025 64.4045 0.2321 7.4606 47.3501 18.0025
7/4/2021 5:04:25 AM 17.99 64.382 0.2333 7.4599 47.59998 17.99
7/4/2021 5:19:25 AM 17.975 64.355 0.2350499 7.4648 46.24988 17.975
7/4/2021 5:34:25 AM 17.955 64.319 0.23645 7.4711 45.30005 17.955
7/4/2021 5:49:25 AM 17.9375 64.2875 0.2383501 7.4697 45.30005 17.9375
7/4/2021 6:04:25 AM 17.9025 64.2245 0.2397501 7.4753 44.19995 17.9025
7/4/2021 6:19:25 AM 17.9 64.22 0.2413501 7.476 44.59998 17.9
7/4/2021 6:34:25 AM 17.865 64.157 0.2431 7.4802 43.15002 17.865
7/4/2021 6:49:24 AM 17.87 64.166 0.2444 7.4802 42.84998 17.87
7/4/2021 7:04:25 AM 17.855 64.139 0.2462 7.4844 44.3425 17.855
7/4/2021 7:19:25 AM 17.8675 64.1615 0.2475 7.4851 44.1525 17.8675
7/4/2021 7:34:25 AM 17.8525 64.13451 0.24885 7.4886 43.7425 17.8525
7/4/2021 7:49:25 AM 17.85 64.13 0.2503 7.4956 42.08 17.85
7/4/2021 8:04:25 AM 17.8725 64.1705 0.2516499 7.49 40.7275 17.8725
7/4/2021 8:19:25 AM 17.9 64.22 0.2532 7.4942 38.89 17.9
7/4/2021 8:34:25 AM 17.9375 64.2875 0.2542 7.504 37.24 17.9375
7/4/2021 8:49:25 AM 17.9725 64.3505 0.2557 7.5089 34.84 17.9725
7/4/2021 9:04:25 AM 18.03 64.454 0.2566 7.5075 33.365 18.03
7/4/2021 9:19:25 AM 18.075 64.535 0.2581 7.5145 31.8525 18.075
7/4/2021 9:34:26 AM 18.1225 64.6205 0.2593001 7.5152 30.705 18.1225
7/4/2021 9:49:25 AM 18.1775 64.7195 0.2604499 7.5194 29.675 18.1775
7/4/2021 10:04:25 AM 18.245 64.841 0.2618001 7.5236 28.925 18.245
7/4/2021 10:19:25 AM 18.32 64.976 0.2625 7.5264 27.6175 18.32
7/4/2021 10:34:25 AM 18.37 65.066 0.2633501 7.5236 26.6875 18.37
7/4/2021 10:49:25 AM 18.4425 65.1965 0.2645 7.5285 26.03 18.4425
7/4/2021 11:04:25 AM 18.49 65.282 0.2648 7.5327 25.54 18.49
7/4/2021 11:19:25 AM 18.54 65.372 0.2656 7.5383 24.48 18.54
7/4/2021 11:34:25 AM 18.5775 65.4395 0.26655 7.5432 23.9075 18.5775
7/4/2021 11:49:25 AM 18.605 65.489 0.2669501 7.5481 23.025 18.605
7/4/2021 12:04:25 PM 18.685 65.633 0.2676499 7.555799 22.2775 18.685
7/4/2021 12:19:25 PM 18.7525 65.7545 0.2679 7.566299 21.93 18.7525
7/4/2021 12:34:25 PM 18.85 65.93 0.2684 7.575399 21.625 18.85
7/4/2021 12:49:25 PM 18.9725 66.1505 0.26855 7.585899 21.0725 18.9725
7/4/2021 1:04:25 PM 19.0575 66.3035 0.2690499 7.596399 20.3875 19.0575
7/4/2021 1:19:25 PM 19.1125 66.4025 0.2691 7.600599 20.2125 19.1125
7/4/2021 1:34:25 PM 19.185 66.533 0.2689501 7.604799 19.83 19.185
7/4/2021 1:49:25 PM 19.2375 66.6275 0.269 7.613899 19.3325 19.2375
7/4/2021 2:04:25 PM 19.325 66.785 0.2686 7.623699 19.155 19.325
7/4/2021 2:19:25 PM 19.4125 66.9425 0.2683001 7.632799 19.295 19.4125
7/4/2021 2:34:25 PM 19.515 67.127 0.268 7.643299 19.0675 19.515
7/4/2021 2:49:25 PM 19.62 67.316 0.2675501 7.652399 18.9975 19.62
7/4/2021 3:04:25 PM 19.7225 67.5005 0.26685 7.662901 19.225 19.7225
7/4/2021 3:19:25 PM 19.845 67.721 0.26615 7.672001 19.16 19.845
7/4/2021 3:34:25 PM 19.935 67.883 0.2659 7.681101 19.5575 19.935
7/4/2021 3:49:25 PM 20.015 68.027 0.2652499 7.691601 20.0275 20.015
7/4/2021 4:04:25 PM 20.0825 68.1485 0.2646 7.692301 20.36 20.0825
7/4/2021 4:19:25 PM 20.155 68.279 0.2636999 7.696501 21.0075 20.155
7/4/2021 4:34:25 PM 20.19 68.342 0.26315 7.700701 20.795 20.19
7/4/2021 4:49:25 PM 20.2325 68.4185 0.2627501 7.702101 20.71 20.2325
7/4/2021 5:04:25 PM 20.285 68.513 0.2620499 7.702101 20.4825 20.285
7/4/2021 5:19:25 PM 20.32 68.576 0.2621 7.711901 20.815 20.32
7/4/2021 5:34:25 PM 20.36 68.648 0.262 7.721001 20.5825 20.36
7/4/2021 5:49:25 PM 20.3975 68.7155 0.2620499 7.730101 20.675 20.3975
7/4/2021 6:04:25 PM 20.4275 68.7695 0.2624499 7.735001 20.8125 20.4275
7/4/2021 6:19:25 PM 20.45 68.81 0.2626499 7.739201 20.775 20.45
7/4/2021 6:34:26 PM 20.4425 68.7965 0.2630499 7.746201 20.5125 20.4425
7/4/2021 6:49:25 PM 20.45 68.81 0.2634499 7.744101 20.3375 20.45
7/4/2021 7:04:25 PM 20.45 68.81 0.2641 7.750401 20.1825 20.45
7/4/2021 7:19:25 PM 20.4525 68.8145 0.26485 7.753901 20.235 20.4525
7/4/2021 7:34:25 PM 20.4625 68.8325 0.2654499 7.7609 20.2375 20.4625
7/4/2021 7:49:25 PM 20.4625 68.8325 0.26615 7.7658 19.7975 20.4625
7/4/2021 8:04:25 PM 20.465 68.837 0.267 7.7644 19.59 20.465
7/4/2021 8:19:25 PM 20.465 68.837 0.2675 7.7707 19.7275 20.465
7/4/2021 8:34:25 PM 20.43 68.774 0.26855 7.7749 19.0325 20.43
7/4/2021 8:49:25 PM 20.3925 68.7065 0.2693 7.7805 18.985 20.3925
7/4/2021 9:04:25 PM 20.34 68.612 0.2704499 7.7861 18.7075 20.34
7/4/2021 9:19:25 PM 20.3025 68.5445 0.2711 7.7854 18.5175 20.3025
7/4/2021 9:34:25 PM 20.2975 68.5355 0.2717501 7.7847 18.5525 20.2875
7/4/2021 9:49:25 PM 20.22 68.396 0.2723501 7.7805 18.2625 20.22
7/4/2021 10:04:25 PM 20.1775 68.3195 0.2731999 7.7742 18.42 20.1775
7/4/2021 10:19:25 PM 20.1175 68.2115 0.2735 7.7721 18.2825 20.1175
7/4/2021 10:34:25 PM 20.0475 68.0855 0.27385 7.7665 18.505 20.0475
7/4/2021 10:49:25 PM 20.0025 68.0045 0.2742499 7.759501 18.49 20.0025
7/4/2021 11:04:25 PM 19.9525 67.9145 0.2745501 7.7609 18.5775 19.9525
7/4/2021 11:19:25 PM 19.895 67.811 0.2746499 7.752501 18.58 19.895
7/4/2021 11:34:25 PM 19.895 67.811 0.2745501 7.737101 18.95 19.895
7/5/2021 12:04:25 AM 19.8325 67.6985 0.2742 7.712601 21.3475 19.8325
7/5/2021 12:19:25 AM 19.7775 67.5995 0.2734 7.711901 44.075 19.7775
7/5/2021 12:34:25 AM 19.725 67.505 0.2735501 7.716801 38.67 19.725
7/5/2021 12:49:25 AM 19.6675 67.4015 0.27285 7.700001 32.6275 19.6675
7/5/2021 1:04:25 AM 19.6225 67.3205 0.27285 7.682501 29.13 19.6225
7/5/2021 1:19:25 AM 19.59 67.262 0.2724499 7.663601 22.955 19.59
7/5/2021 1:34:25 AM 19.535 67.163 0.2724 7.649599 21.05 19.535
7/5/2021 1:49:25 AM 19.4925 67.0865 0.27185 7.640499 20.7075 19.4925
7/5/2021 2:04:25 AM 19.465 67.037 0.2713501 7.630699 20.7775 19.465
7/5/2021 2:19:25 AM 19.415 66.94701 0.2708001 7.624399 20.795 19.415
7/5/2021 2:34:25 AM 19.38 66.884 0.2703001 7.615999 21.2175 19.38
7/5/2021 2:49:25 AM 19.33 66.794 0.27015 7.609699 21.53 19.33
7/5/2021 3:04:25 AM 19.295 66.731 0.2694499 7.599899 22.015 19.295
7/5/2021 3:19:25 AM 19.235 66.623 0.2691 7.596399 22.07 19.235
7/5/2021 3:34:26 AM 19.22 66.596 0.2683501 7.592899 21.945 19.22
7/5/2021 3:49:26 AM 19.1925 66.5465 0.2677 7.580999 22.53 19.1925
7/5/2021 4:04:25 AM 19.135 66.443 0.2674499 7.576799 23.2625 19.135
7/5/2021 4:19:25 AM 19.0875 66.3575 0.26655 7.572599 23.605 19.0875
7/5/2021 4:34:25 AM 19.0375 66.2675 0.266 7.566299 23.3475 19.0375
7/5/2021 4:49:25 AM 18.9975 66.1955 0.2657 7.562799 23.66 18.9975
7/5/2021 5:04:25 AM 18.9475 66.1055 0.2653501 7.552299 24.3825 18.9475
7/5/2021 5:19:25 AM 18.8925 66.0065 0.2647 7.5488 26.2475 18.8925
7/5/2021 5:34:25 AM 18.84 65.912 0.2639 7.5474 26.87 18.84
7/5/2021 5:49:25 AM 18.805 65.849 0.26355 7.5488 27.4 18.805
7/5/2021 6:04:25 AM 18.7725 65.7905 0.26315 7.5432 26.7025 18.7725
7/5/2021 6:19:25 AM 18.7325 65.7185 0.2632499 7.539 27.365 18.7325
7/5/2021 6:34:25 AM 18.7225 65.7005 0.2626 7.5334 27.2125 18.7225
7/5/2021 6:49:25 AM 18.7025 65.6645 0.2626 7.5292 26.875 18.7025
7/5/2021 7:04:25 AM 18.705 65.669 0.2622499 7.5285 26.7525 18.705
7/5/2021 7:19:25 AM 18.7025 65.6645 0.2616999 7.5243 26.56 18.7025
7/5/2021 7:34:25 AM 18.7175 65.6915 0.2614 7.5257 27.0825 18.7175
7/5/2021 7:49:25 AM 18.74 65.732 0.2614 7.5187 26.8175 18.74
7/5/2021 8:04:25 AM 18.75 65.75 0.2615 7.5194 26.9225 18.75
7/5/2021 8:19:25 AM 18.785 65.813 0.26145 7.5152 26.525 18.785
7/5/2021 8:34:25 AM 18.8175 65.8715 0.26115 7.5159 26.44 18.8175
7/5/2021 8:49:25 AM 18.8725 65.9705 0.2610499 7.5159 25.9675 18.8725
7/5/2021 9:04:24 AM 18.9275 66.0695 0.26085 7.5145 25.3575 18.9275
7/5/2021 9:19:24 AM 18.995 66.191 0.26085 7.5138 25.08 18.995
7/5/2021 9:34:24 AM 19.0425 66.2765 0.2604 7.5138 24.5825 19.0425
7/5/2021 9:49:25 AM 19.1325 66.4385 0.2605 7.518 23.8275 19.1325
7/5/2021 10:04:24 AM 19.1925 66.5465 0.2599501 7.518 24.19 19.1925
7/5/2021 10:19:24 AM 19.2775 66.6995 0.2596499 7.518 25.58 19.2775
7/5/2021 10:34:24 AM 19.3925 66.9065 0.2591999 7.5334 33.5875 19.3925
7/5/2021 10:49:25 AM 19.495 67.091 0.2589 7.5432 34.3975 19.495
7/5/2021 11:04:25 AM 19.6 67.28 0.2584 7.555799 29.9825 19.6
7/5/2021 11:19:25 AM 19.67 67.406 0.2582 7.5467 24.7375 19.67
7/5/2021 11:34:25 AM 19.775 67.595 0.2575 7.5474 22.1975 19.775
7/5/2021 11:49:25 AM 19.89 67.802 0.2571999 7.576799 20.14 19.89
7/5/2021 12:04:25 PM 19.37 66.866 0.27055 7.4921 77.5 19.37
7/5/2021 12:19:25 PM 19.725 67.505 0.2669 7.4963 62.6499 19.725
7/5/2021 12:34:25 PM 19.945 67.901 0.2628 7.5362 38.0375 19.945
7/5/2021 12:49:26 PM 20.1675 68.3015 0.2600499 7.564899 27.68 20.1675
7/5/2021 1:04:25 PM 20.36 68.648 0.2583501 7.584499 23.9 20.36
7/5/2021 1:19:25 PM 20.4925 68.8865 0.2575501 7.604099 21.61 20.4925
7/5/2021 1:34:25 PM 20.635 69.143 0.2568001 7.622999 20.3375 20.635
7/5/2021 1:49:25 PM 20.745 69.341 0.25655 7.637699 19.8 20.745
7/5/2021 2:04:25 PM 20.8475 69.5255 0.2564 7.657301 19.9725 20.8475
7/5/2021 2:19:25 PM 20.95 69.71 0.2564499 7.675501 19.3975 20.95
7/5/2021 2:34:25 PM 21.05 69.89 0.2564 7.690901 19.4325 21.05
7/5/2021 2:49:24 PM 21.155 70.079 0.2569 7.709801 19.4325 21.155
7/5/2021 3:04:24 PM 21.2575 70.2635 0.2569 7.725201 19.4475 21.2575
7/5/2021 3:19:25 PM 21.345 70.421 0.2570499 7.744801 19.2025 21.345
7/5/2021 3:34:24 PM 21.4325 70.5785 0.2575 7.758801 18.505 21.4325
7/5/2021 3:49:25 PM 21.5225 70.74049 0.2578 7.7728 18.49 21.5225
7/5/2021 4:04:24 PM 21.6225 70.9205 0.25815 7.7924 18.3175 21.6225
7/5/2021 4:19:25 PM 21.6875 71.0375 0.2582 7.8085 18.0225 21.6875
7/5/2021 4:49:25 PM 21.8625 71.3525 0.25885 7.847 18.0725 21.8625
7/5/2021 5:04:24 PM 21.94 71.492 0.2591999 7.8603 18.695 21.94
7/5/2021 5:19:24 PM 22.005 71.609 0.2591999 7.8743 17.6225 22.0025
7/5/2021 5:34:25 PM 22.0775 71.7395 0.2596499 7.8841 17.1575 22.0775
7/5/2021 5:49:24 PM 22.1225 71.8205 0.25985 7.9051 16.76 22.1225
7/5/2021 6:04:25 PM 22.1775 71.9195 0.2602 7.9205 16.685 22.1775
7/5/2021 6:34:24 PM 22.3 72.14 0.2609501 7.9373 16.455 22.3
7/5/2021 6:49:24 PM 22.33 72.194 0.2612499 7.9492 16.475 22.33
7/5/2021 7:04:24 PM 22.3675 72.2615 0.2616499 7.952 16.0575 22.3675
7/5/2021 7:19:24 PM 22.4025 72.3245 0.2619501 7.9632 16.02 22.4025
7/5/2021 7:34:24 PM 22.42 72.356 0.2623501 7.9688 16.125 22.42
7/5/2021 7:49:24 PM 22.4375 72.3875 0.2626499 7.9716 16.1075 22.4375
7/5/2021 8:04:25 PM 22.4375 72.3875 0.263 7.9737 15.74 22.4375
7/5/2021 8:19:25 PM 22.4375 72.3875 0.2633501 7.9737 15.915 22.4375
7/5/2021 8:34:25 PM 22.42 72.356 0.2636999 7.9737 15.6525 22.42
7/5/2021 8:49:25 PM 22.4025 72.3245 0.2641 7.9723 15.6425 22.4025
7/5/2021 9:04:25 PM 22.3875 72.2975 0.2644 7.9667 15.5175 22.3875
7/5/2021 9:19:25 PM 22.37 72.266 0.2647501 7.9632 15.62 22.37
7/5/2021 9:34:25 PM 22.35 72.23 0.2651 7.959 15.5525 22.35
7/5/2021 9:49:25 PM 22.3525 72.2345 0.2654499 7.9527 16.2 22.3525
7/5/2021 10:04:25 PM 22.335 72.203 0.2654499 7.9485 15.7225 22.335
7/5/2021 10:19:25 PM 22.3175 72.1715 0.26585 7.9443 15.5 22.3175
7/5/2021 10:34:25 PM 22.2825 72.1085 0.2661 7.9338 15.695 22.2825
7/5/2021 10:49:25 PM 22.265 72.077 0.2665 7.9254 15.4175 22.265
7/5/2021 11:04:24 PM 22.2325 72.0185 0.2665 7.9156 15.365 22.2325
7/5/2021 11:19:24 PM 22.215 71.987 0.26685 7.8988 15.4175 22.215
7/5/2021 11:34:25 PM 22.195 71.951 0.26715 7.8855 16.11 22.195
7/6/2021 12:04:24 AM 22.145 71.861 0.2675501 7.8505 21.785 22.145
7/6/2021 12:19:24 AM 22.09 71.762 0.2679 7.8505 31.73 22.09
7/6/2021 12:34:24 AM 22.075 71.735 0.2682 7.8477 29.3175 22.075
7/6/2021 12:49:24 AM 22.0375 71.6675 0.26855 7.8316 24.185 22.0375
7/6/2021 1:04:24 AM 22.005 71.609 0.2689 7.8169 21.9825 22.005
7/6/2021 1:19:24 AM 21.9725 71.5505 0.2689501 7.8022 21.165 21.9725
7/6/2021 1:34:24 AM 21.9525 71.5145 0.2693 7.7931 20.2825 21.9525
7/6/2021 1:49:24 AM 21.9175 71.4515 0.2692499 7.7777 19.305 21.9175
7/6/2021 2:04:24 AM 21.8825 71.3885 0.2696 7.77 19.41 21.8825
7/6/2021 2:19:24 AM 21.83 71.294 0.2699501 7.749001 19.445 21.83
7/6/2021 2:34:24 AM 21.7625 71.1725 0.2703501 7.738501 18.995 21.7625
7/6/2021 2:49:24 AM 21.73 71.114 0.2706499 7.725201 18.7 21.73
7/6/2021 3:04:24 AM 21.6775 71.0195 0.271 7.719601 18.875 21.6775
7/6/2021 3:19:24 AM 21.6425 70.9565 0.271 7.704201 19.03 21.6425
7/6/2021 3:34:24 AM 21.625 70.925 0.2713501 7.696501 18.6325 21.625
7/6/2021 3:49:24 AM 21.5925 70.8665 0.2713501 7.685301 19.52 21.5925
7/6/2021 4:04:24 AM 21.555 70.799 0.2717 7.674801 18.46 21.555
7/6/2021 4:19:24 AM 21.5225 70.74049 0.2717501 7.665701 18.4275 21.5225
7/6/2021 4:34:24 AM 21.505 70.709 0.2720499 7.656601 17.98 21.505
7/6/2021 4:49:24 AM 21.47 70.646 0.2721 7.652399 17.635 21.47
7/6/2021 5:04:24 AM 21.455 70.619 0.2720499 7.646799 17.635 21.455
7/6/2021 5:19:24 AM 21.4375 70.5875 0.2724 7.642599 17.5975 21.4375
7/6/2021 5:34:24 AM 21.4 70.52 0.2724 7.634199 18.31 21.4
7/6/2021 5:49:24 AM 21.3675 70.4615 0.2727501 7.624399 17.6525 21.3675
7/6/2021 6:04:24 AM 21.35 70.43 0.2727501 7.618099 18.3425 21.35
7/6/2021 6:19:25 AM 21.3325 70.3985 0.2731 7.609699 17.9975 21.3325
7/6/2021 6:34:25 AM 21.33 70.394 0.2731 7.598499 17.9275 21.33
7/6/2021 6:49:25 AM 21.315 70.367 0.2731 7.593599 17.2125 21.315
7/6/2021 7:04:25 AM 21.3325 70.3985 0.2731 7.589399 17.7 21.3325
7/6/2021 7:19:25 AM 21.3325 70.3985 0.2731 7.585199 17.59 21.3325
7/6/2021 7:34:24 AM 21.33 70.394 0.2731 7.573999 16.73 21.33
7/6/2021 7:49:24 AM 21.365 70.457 0.2731 7.571199 16.6025 21.365
7/6/2021 8:04:25 AM 21.42 70.556 0.2727501 7.568399 16.6725 21.42
7/6/2021 8:34:24 AM 21.52 70.736 0.2723501 7.559999 16.32 21.52
7/6/2021 8:49:24 AM 21.5875 70.8575 0.2723501 7.559999 16.04 21.5875
7/6/2021 9:04:24 AM 21.655 70.979 0.2723501 7.554399 16.4525 21.655
7/6/2021 9:19:24 AM 21.725 71.105 0.2724 7.5502 16.09 21.725
7/6/2021 9:34:24 AM 21.795 71.231 0.272 7.559299 15.6225 21.795
7/6/2021 9:49:24 AM 21.865 71.357 0.272 7.568399 15.635 21.865
7/6/2021 10:04:24 AM 21.9525 71.5145 0.272 7.567699 15.195 21.9525
7/6/2021 10:19:24 AM 22.02 71.636 0.2716499 7.567699 15.04 22.02
7/6/2021 10:34:24 AM 22.09 71.762 0.2716499 7.566999 14.505 22.09
7/6/2021 10:49:24 AM 22.16 71.888 0.272 7.573299 14.5725 22.16
7/6/2021 11:04:24 AM 22.2275 72.00951 0.272 7.583099 14.275 22.2275
7/6/2021 11:19:24 AM 22.3125 72.1625 0.2719501 7.587999 14.36 22.3125
7/6/2021 11:34:24 AM 22.385 72.293 0.2723501 7.602699 14.135 22.385
7/6/2021 12:04:24 PM 22.5575 72.6035 0.2727 7.625799 13.6775 22.5575
7/6/2021 12:19:24 PM 22.645 72.761 0.2726499 7.640499 13.7475 22.645
7/6/2021 12:34:24 PM 22.7325 72.9185 0.2730499 7.659401 13.6075 22.7325
7/6/2021 12:49:24 PM 22.8325 73.0985 0.2734 7.688801 13.225 22.8325
7/6/2021 1:04:24 PM 22.9225 73.2605 0.2733501 7.669201 13.7275 22.9225
7/6/2021 1:19:24 PM 23.0425 73.4765 0.2737501 7.709101 13.395 23.0425
7/6/2021 1:34:24 PM 23.1625 73.6925 0.2740499 7.747601 13.2375 23.1625
7/6/2021 1:49:24 PM 23.2675 73.8815 0.2744 7.7707 13.2575 23.2675
7/6/2021 2:04:24 PM 23.3725 74.0705 0.2748001 7.791 12.995 23.3725
7/6/2021 2:19:24 PM 23.4075 74.1335 0.27515 7.8169 13.3475 23.4075
7/6/2021 2:34:25 PM 23.25 73.85 0.27685 7.8456 13.59 23.25
7/6/2021 2:49:24 PM 23.1475 73.6655 0.27755 7.8596 13.28 23.1475
7/6/2021 3:04:24 PM 23.0925 73.5665 0.27755 7.8659 14.15 23.0925
7/6/2021 3:19:24 PM 23.08 73.544 0.2779501 7.8736 13.715 23.08
7/6/2021 3:34:24 PM 23.115 73.607 0.2782499 7.8792 13.1425 23.115
7/6/2021 3:49:25 PM 23.185 73.733 0.2786499 7.8981 13.385 23.185
7/6/2021 4:04:25 PM 23.29 73.922 0.2786 7.9226 13.0025 23.29
7/6/2021 4:19:25 PM 23.3925 74.1065 0.2789501 7.952 13.02 23.3925
7/6/2021 4:34:25 PM 23.515 74.327 0.2789501 7.9758 13.1425 23.515
7/6/2021 4:49:25 PM 23.62 74.516 0.2789501 7.995399 13.04 23.62
7/6/2021 5:04:25 PM 23.74 74.732 0.2789 8.017099 12.8975 23.74
7/6/2021 5:19:24 PM 23.84 74.912 0.2789501 8.020599 12.8925 23.84
7/6/2021 5:34:24 PM 23.875 74.975 0.2792499 8.030399 12.81 23.875
7/6/2021 5:49:24 PM 23.825 74.885 0.2796499 8.030399 12.935 23.825
7/6/2021 6:04:24 PM 23.74 74.732 0.2796 8.014999 12.81 23.74
7/6/2021 6:19:24 PM 23.65 74.57 0.2793 7.9877 12.7625 23.65
7/6/2021 6:34:24 PM 23.6175 74.5115 0.2789501 7.9716 12.8125 23.6175
7/6/2021 6:49:25 PM 23.6375 74.5475 0.2789501 7.9667 13.02 23.6375
7/6/2021 7:04:25 PM 23.6675 74.6015 0.2789 7.9632 20.26 23.6675
7/6/2021 7:19:25 PM 23.7025 74.6645 0.2793 7.9779 13.855 23.7025
7/6/2021 7:34:25 PM 23.705 74.669 0.2803501 7.992599 13.35 23.705
7/6/2021 7:49:24 PM 23.7025 74.6645 0.2810499 8.001699 13.42 23.7025
7/6/2021 8:04:24 PM 23.72 74.696 0.2817 8.020599 13.015 23.72
7/6/2021 8:19:24 PM 23.7225 74.7005 0.2827501 8.016399 13.1775 23.7225
7/6/2021 8:34:24 PM 23.7025 74.6645 0.2834499 8.012899 13.09 23.7025
7/6/2021 8:49:24 PM 23.6875 74.6375 0.2838 8.011499 13.2625 23.6875
7/6/2021 9:04:25 PM 23.6525 74.5745 0.2845 8.005899 13.125 23.6525
7/6/2021 9:19:25 PM 23.6025 74.4845 0.28485 8.000999 13.2275 23.6025
7/6/2021 9:34:25 PM 23.565 74.417 0.2855501 7.991899 13.405 23.565
7/6/2021 9:49:24 PM 23.5325 74.3585 0.2862 7.9863 13.56 23.5325
7/6/2021 10:04:25 PM 23.5325 74.3585 0.2866 7.9814 13.63 23.5325
7/6/2021 10:19:24 PM 23.4975 74.2955 0.2869 7.9786 13.425 23.495
7/6/2021 10:34:25 PM 23.4775 74.25951 0.2872499 7.9723 13.785 23.4775
7/6/2021 10:49:24 PM 23.4475 74.2055 0.2872499 7.9674 13.8225 23.4475
7/6/2021 11:04:24 PM 23.4125 74.1425 0.2873001 7.9625 13.995 23.4125
7/6/2021 11:19:25 PM 23.375 74.075 0.2876499 7.9576 13.925 23.375
7/6/2021 11:34:25 PM 23.3425 74.0165 0.2879501 7.9478 14.12 23.3425
7/7/2021 12:04:25 AM 23.255 73.859 0.2889501 7.9149 14.17 23.255
7/7/2021 12:19:25 AM 23.2025 73.7645 0.2893501 7.8918 14.1175 23.2025
7/7/2021 12:34:25 AM 23.135 73.643 0.2897501 7.861 13.805 23.135
7/7/2021 12:49:25 AM 23.0975 73.5755 0.2904499 7.8477 13.9875 23.0975
7/7/2021 1:04:25 AM 23.045 73.481 0.2911 7.833 14.2925 23.045
7/7/2021 1:19:25 AM 23.0125 73.4225 0.2917501 7.8211 14.3975 23.0125
7/7/2021 1:34:25 AM 22.9575 73.3235 0.29245 7.8127 14.5675 22.9575
7/7/2021 1:49:25 AM 22.925 73.265 0.29315 7.7987 14.6575 22.925
7/7/2021 2:04:25 AM 22.875 73.175 0.29385 7.777 14.3125 22.875
7/7/2021 2:19:25 AM 22.84 73.112 0.2941999 7.763 14.815 22.84
7/7/2021 2:34:25 AM 22.79 73.022 0.2949 7.749001 14.4675 22.79
7/7/2021 2:49:25 AM 22.7375 72.9275 0.2953 7.733601 14.3125 22.7375
7/7/2021 3:04:25 AM 22.685 72.833 0.2956 7.724501 14.0325 22.685
7/7/2021 3:19:25 AM 22.6325 72.7385 0.2959501 7.710501 14.07 22.6325
7/7/2021 3:34:25 AM 22.5975 72.6755 0.2963001 7.695801 13.9475 22.5975
7/7/2021 3:49:25 AM 22.5275 72.5495 0.2963001 7.674801 14.47 22.5275
7/7/2021 4:04:25 AM 22.4925 72.4865 0.2966 7.662901 14.2975 22.4925
7/7/2021 4:19:25 AM 22.4275 72.3695 0.297 7.651699 14.33 22.4275
7/7/2021 4:34:24 AM 22.39 72.302 0.297 7.637699 14.155 22.39
7/7/2021 4:49:25 AM 22.355 72.239 0.2973 7.628599 14.265 22.355
7/7/2021 5:04:25 AM 22.3025 72.1445 0.2973 7.613899 14.465 22.3025
7/7/2021 5:19:25 AM 22.2675 72.0815 0.2976499 7.602699 14.21 22.2675
7/7/2021 5:34:25 AM 22.2175 71.9915 0.2983501 7.592899 14.7275 22.2175
7/7/2021 5:49:25 AM 22.2 71.96 0.2984 7.584499 14.9575 22.2
7/7/2021 6:04:25 AM 22.165 71.897 0.2987501 7.579599 14.5225 22.165
7/7/2021 6:19:24 AM 22.1475 71.86549 0.2990499 7.571199 14.8725 22.1475
7/7/2021 6:34:25 AM 22.1125 71.8025 0.2994 7.565599 14.6975 22.1125
7/7/2021 6:49:25 AM 22.0975 71.7755 0.2997501 7.558599 14.505 22.0975
7/7/2021 7:04:25 AM 22.0775 71.7395 0.3001 7.5516 14.26 22.0775
7/7/2021 7:19:25 AM 22.0625 71.7125 0.3004499 7.546 14.3025 22.0625
7/7/2021 7:34:25 AM 22.06 71.708 0.3008001 7.5404 14.785 22.06
7/7/2021 7:49:24 AM 22.06 71.708 0.3008001 7.5341 14.25 22.06
7/7/2021 8:04:24 AM 22.0925 71.7665 0.3011 7.5306 13.945 22.0925
7/7/2021 8:19:25 AM 22.1125 71.8025 0.3011 7.5292 14.1025 22.1125
7/7/2021 8:34:25 AM 22.1475 71.86549 0.30115 7.5313 14.295 22.1475
7/7/2021 8:49:25 AM 22.1825 71.9285 0.30145 7.5306 13.5625 22.1825
7/7/2021 9:04:25 AM 22.23 72.014 0.30145 7.5271 13.67 22.23
7/7/2021 9:19:25 AM 22.32 72.176 0.3014 7.4963 15.8625 22.32
7/7/2021 9:34:25 AM 22.3875 72.2975 0.30145 7.4963 11.095 22.3875
7/7/2021 10:04:25 AM 22.5275 72.5495 0.3018 7.5166 11.045 22.5275
7/7/2021 10:19:25 AM 22.61 72.698 0.3017501 7.525 10.7325 22.61
7/7/2021 10:34:25 AM 22.7325 72.9185 0.3018 7.5208 11.13 22.7325
7/7/2021 10:49:25 AM 22.8175 73.0715 0.3018 7.5348 11.045 22.8175
7/7/2021 11:04:25 AM 22.905 73.229 0.3017501 7.5355 10.99 22.905
7/7/2021 11:19:25 AM 22.9725 73.3505 0.3021 7.5446 10.955 22.9725
7/7/2021 11:34:25 AM 23.045 73.481 0.3021 7.552299 11.0225 23.045
7/7/2021 11:49:24 AM 23.1275 73.6295 0.3024 7.564899 10.9025 23.1275
7/7/2021 12:04:25 PM 23.18 73.724 0.3024499 7.572599 10.8825 23.18
7/7/2021 12:19:24 PM 23.265 73.877 0.3024 7.582399 10.8275 23.265
7/7/2021 12:34:24 PM 23.37 74.066 0.3024 7.592899 10.795 23.37
7/7/2021 12:49:25 PM 23.4575 74.2235 0.3027501 7.611099 11.0225 23.4575
7/7/2021 1:04:24 PM 23.5425 74.3765 0.3027501 7.636299 10.7075 23.5425
7/7/2021 1:19:25 PM 23.6325 74.5385 0.3027501 7.649599 11.0725 23.6325
7/7/2021 1:34:24 PM 23.7175 74.6915 0.3031 7.676201 10.69 23.7175
7/7/2021 1:49:25 PM 23.8225 74.8805 0.3031 7.697201 10.7425 23.8225
7/7/2021 2:04:24 PM 23.905 75.029 0.3031 7.718901 11.205 23.905
7/7/2021 2:34:25 PM 24.1475 75.4655 0.3034 7.7728 10.4625 24.15
7/7/2021 2:49:24 PM 24.27 75.686 0.3034 7.8008 10.46 24.27
7/7/2021 3:04:25 PM 24.375 75.875 0.3034 7.826 10.725 24.375
7/7/2021 3:19:24 PM 24.4425 75.9965 0.3034 7.8484 10.3175 24.4425
7/7/2021 3:34:25 PM 24.495 76.091 0.3037501 7.8694 10.515 24.495
7/7/2021 3:49:24 PM 24.55 76.19 0.3037501 7.8827 10.6025 24.55
7/7/2021 4:04:24 PM 24.62 76.316 0.3037501 7.9016 10.4425 24.62
7/7/2021 4:19:24 PM 24.6525 76.3745 0.3037501 7.9163 10.3425 24.6525
7/7/2021 4:34:24 PM 24.755 76.559 0.3036999 7.9464 10.285 24.755
7/7/2021 4:49:24 PM 24.845 76.721 0.3037501 7.9667 10.53 24.845
7/7/2021 5:04:24 PM 24.9125 76.8425 0.3037501 7.989799 10.4275 24.9125
7/7/2021 5:19:24 PM 25 77 0.3037501 8.014299 10.7025 25
7/7/2021 5:34:25 PM 25.085 77.153 0.3037501 8.049299 10.7375 25.085
7/7/2021 5:49:25 PM 25.155 77.279 0.3037501 8.068899 10.495 25.155
7/7/2021 6:04:25 PM 25.1575 77.2835 0.3041 8.091999 10.515 25.1575
7/7/2021 6:19:25 PM 25.1575 77.2835 0.3044499 8.098301 10.8525 25.1575
7/7/2021 6:34:25 PM 25.12 77.216 0.3048001 8.107401 10.76 25.12
7/7/2021 6:49:25 PM 25.0875 77.1575 0.3052 8.121401 10.76 25.0875
7/7/2021 7:04:25 PM 25.055 77.099 0.3055 8.133301 10.4325 25.055
7/7/2021 7:19:25 PM 25.0025 77.0045 0.30585 8.141001 10.52 25.0025
7/7/2021 7:34:25 PM 24.9525 76.9145 0.3059 8.147301 10.7275 24.9525
7/7/2021 7:49:25 PM 24.8975 76.8155 0.3059 8.153601 10.5575 24.8975
7/7/2021 8:04:25 PM 24.88 76.784 0.3055 8.157801 10.5175 24.88
7/7/2021 8:19:25 PM 24.8675 76.7615 0.3055 8.161301 10.66 24.8675
7/7/2021 8:34:25 PM 24.8125 76.6625 0.3059 8.171801 10.575 24.8125
7/7/2021 8:49:25 PM 24.7975 76.6355 0.3059 8.176701 10.8 24.7975
7/7/2021 9:04:24 PM 24.78 76.604 0.3062499 8.185801 10.8325 24.78
7/7/2021 9:19:25 PM 24.695 76.451 0.3066 8.192101 11.215 24.695
7/7/2021 9:34:24 PM 24.6275 76.3295 0.307 8.195601 11.41 24.6275
7/7/2021 9:49:25 PM 24.5725 76.2305 0.3069501 8.192101 11.29 24.5725
7/7/2021 10:04:25 PM 24.5025 76.1045 0.3066499 8.1984 11.4825 24.5025
7/7/2021 10:19:25 PM 24.4675 76.0415 0.3059 8.2075 11.5525 24.4675
7/7/2021 10:34:25 PM 24.4175 75.9515 0.3056 8.187201 11.985 24.4175
7/7/2021 10:49:25 PM 24.385 75.893 0.3052499 8.187201 11.8675 24.385
7/7/2021 11:04:25 PM 24.3475 75.8255 0.3056499 8.171801 11.9 24.3475
7/7/2021 11:19:25 PM 24.33 75.794 0.3056 8.155001 12.2 24.33
7/7/2021 11:34:25 PM 24.28 75.704 0.3059501 8.152201 12.9575 24.28
7/8/2021 12:04:24 AM 24.245 75.641 0.3062499 8.133301 12.87 24.245
7/8/2021 12:19:25 AM 24.21 75.578 0.3063 8.130501 12.5225 24.21
7/8/2021 12:34:25 AM 24.175 75.515 0.3066499 8.109501 12.3 24.175
7/8/2021 12:49:25 AM 24.1225 75.4205 0.3069501 8.101101 12.575 24.1225
7/8/2021 1:04:24 AM 24.07 75.326 0.3069501 8.076599 12.415 24.07
7/8/2021 1:19:25 AM 24.0025 75.2045 0.3073501 8.045799 10.79 24.0025
7/8/2021 1:34:25 AM 23.95 75.11 0.3073501 8.022699 10.72 23.95
7/8/2021 1:49:25 AM 23.8975 75.0155 0.3076999 7.996799 10.58 23.8975
7/8/2021 2:19:25 AM 23.78 74.804 0.3076499 7.9541 10.5125 23.78
7/8/2021 2:34:25 AM 23.7075 74.6735 0.308 7.9352 10.3925 23.7075
7/8/2021 2:49:25 AM 23.6375 74.5475 0.3084 7.9121 10.635 23.6375
7/8/2021 3:04:25 AM 23.5875 74.4575 0.3087 7.8813 10.88 23.5875
7/8/2021 3:19:25 AM 23.5175 74.3315 0.3087501 7.8568 10.8775 23.5175
7/8/2021 3:34:25 AM 23.43 74.174 0.3091 7.8428 11.0525 23.43
7/8/2021 3:49:25 AM 23.3775 74.0795 0.3094 7.8239 11.0175 23.3775
7/8/2021 4:04:25 AM 23.3275 73.9895 0.3094499 7.798 11.175 23.3275
7/8/2021 4:19:25 AM 23.2575 73.8635 0.3094499 7.7728 11.3975 23.2575
7/8/2021 4:34:26 AM 23.2075 73.7735 0.3098001 7.753901 11.5725 23.2075
7/8/2021 4:49:25 AM 23.135 73.643 0.3101 7.735001 11.8625 23.14
7/8/2021 5:04:25 AM 23.085 73.55299 0.31085 7.715401 11.9925 23.085
7/8/2021 5:19:25 AM 23.0325 73.4585 0.3115 7.701401 11.58 23.0325
7/8/2021 5:34:25 AM 22.9625 73.3325 0.3122 7.686001 11.76 22.9625
7/8/2021 5:49:25 AM 22.895 73.211 0.3129 7.670601 12.4775 22.895
7/8/2021 6:04:25 AM 22.8425 73.1165 0.3132499 7.652399 13.2575 22.8425
7/8/2021 6:19:25 AM 22.79 73.022 0.3131999 7.641899 13.3125 22.79
7/8/2021 6:34:25 AM 22.74 72.932 0.3135501 7.629299 13.9 22.74
7/8/2021 6:49:25 AM 22.6675 72.8015 0.3139501 7.620199 14.325 22.6675
7/8/2021 7:04:25 AM 22.5975 72.6755 0.3153 7.609699 14.54 22.5975
7/8/2021 7:19:25 AM 22.5325 72.5585 0.3170499 7.603399 14.945 22.5325
7/8/2021 7:34:25 AM 22.445 72.401 0.3184499 7.599199 15.395 22.445
7/8/2021 7:49:25 AM 22.39 72.302 0.31985 7.593599 15.7525 22.39
7/8/2021 8:04:24 AM 22.3575 72.2435 0.3209 7.593599 16.035 22.3575
7/8/2021 8:19:25 AM 22.355 72.239 0.32185 7.592899 16.8775 22.355
7/8/2021 8:34:24 AM 22.355 72.239 0.3225501 7.594299 17.02 22.355
7/8/2021 8:49:25 AM 22.3575 72.2435 0.3232499 7.598499 17.1425 22.3575
7/8/2021 9:04:25 AM 22.3375 72.2075 0.3229 7.599199 18.185 22.3375
7/8/2021 9:19:25 AM 22.3575 72.2435 0.3221999 7.594999 17.8775 22.3575
7/8/2021 9:34:25 AM 22.3575 72.2435 0.32115 7.594999 18.39 22.3575
7/8/2021 9:49:25 AM 22.3725 72.2705 0.3187501 7.589399 18.185 22.3725
7/8/2021 10:04:24 AM 22.4075 72.3335 0.3159501 7.579599 18.745 22.4075
7/8/2021 10:19:24 AM 22.425 72.365 0.3122 7.568399 19.005 22.425
7/8/2021 10:34:25 AM 22.425 72.365 0.308 7.555099 19.655 22.425
7/8/2021 11:04:25 AM 22.3875 72.2975 0.2979501 7.5271 23.02 22.3875
7/8/2021 11:19:25 AM 22.3725 72.2705 0.29315 7.5103 26.26 22.3725
7/8/2021 11:34:24 AM 22.335 72.203 0.2875501 7.4921 32.2325 22.335
7/8/2021 11:49:25 AM 22.2825 72.1085 0.2813501 7.4711 38.8825 22.2825
7/8/2021 12:04:25 PM 22.23 72.014 0.2744 7.4508 45.80005 22.23
7/8/2021 12:19:25 PM 22.195 71.951 0.26855 7.4361 56.24988 22.195
7/8/2021 12:34:25 PM 22.1425 71.8565 0.2626 7.4165 68.09998 22.1425
7/8/2021 12:49:25 PM 22.0725 71.7305 0.2575 7.4025 80.59998 22.0725
7/8/2021 1:04:25 PM 21.97 71.546 0.2533 7.3892 95.19995 21.97
7/8/2021 1:19:25 PM 21.865 71.357 0.24985 7.378 110.45 21.865
7/8/2021 1:34:25 PM 21.83 71.294 0.2474499 7.3675 126.45 21.83
7/8/2021 1:49:25 PM 21.83 71.294 0.2460499 7.3577 139.3 21.83
7/8/2021 2:04:25 PM 21.83 71.294 0.245 7.3542 153.1 21.83
7/8/2021 2:19:25 PM 21.815 71.267 0.2446 7.3479 161.9 21.815
7/8/2021 2:34:25 PM 21.795 71.231 0.2439501 7.3444 166.3501 21.795
7/8/2021 2:49:25 PM 21.76 71.168 0.24255 7.3381 169.1 21.76
7/8/2021 3:04:25 PM 21.725 71.105 0.2412 7.3339 174.6 21.725
7/8/2021 3:19:25 PM 21.7075 71.0735 0.2391 7.3297 178.9 21.7075
7/8/2021 3:34:25 PM 21.6925 71.0465 0.2363501 7.319901 178.1 21.6925
7/8/2021 3:49:25 PM 21.71 71.078 0.2332499 7.312901 175.3 21.71
7/8/2021 4:04:25 PM 21.71 71.078 0.2297501 7.309401 173.2499 21.71
7/8/2021 4:19:25 PM 21.705 71.069 0.2263 7.305901 171.45 21.705
7/8/2021 4:34:25 PM 21.7075 71.0735 0.22285 7.295401 168.5 21.7075
7/8/2021 4:49:25 PM 21.655 70.979 0.2194 7.289101 164.85 21.655
7/8/2021 5:04:25 PM 21.6225 70.9205 0.2166499 7.284201 159.45 21.6225
7/8/2021 5:19:25 PM 21.585 70.853 0.21385 7.281401 156.6 21.585
7/8/2021 5:34:25 PM 21.57 70.826 0.21145 7.275801 152.6499 21.57
7/8/2021 5:49:24 PM 21.5525 70.7945 0.2093501 7.270201 148.6499 21.5525
7/8/2021 6:04:25 PM 21.535 70.763 0.2073001 7.270901 147.15 21.535
7/8/2021 6:19:24 PM 21.4975 70.6955 0.2059 7.267401 144.1 21.4975
7/8/2021 6:34:24 PM 21.4625 70.6325 0.2045 7.266001 139.3 21.4625
7/8/2021 6:49:25 PM 21.4275 70.5695 0.20385 7.262501 136.85 21.4275
7/8/2021 7:04:24 PM 21.3775 70.4795 0.2031 7.261801 132.9501 21.3775
7/8/2021 7:19:25 PM 21.325 70.385 0.2028001 7.260401 131.7 21.325
7/8/2021 7:34:25 PM 21.275 70.295 0.20285 7.259701 127.15 21.275
7/8/2021 7:49:24 PM 21.24 70.232 0.2028001 7.261801 122.9501 21.24
7/8/2021 8:04:25 PM 21.2225 70.2005 0.2032 7.261101 121 21.2225
7/8/2021 8:19:24 PM 21.1875 70.1375 0.20385 7.259701 118.85 21.1875
7/8/2021 8:49:25 PM 21.12 70.016 0.2052499 7.266701 112.2499 21.12
7/8/2021 9:19:25 PM 21.07 69.926 0.2066499 7.270901 103.9 21.07
7/8/2021 9:34:25 PM 21.05 69.89 0.2073501 7.275101 102.7501 21.05
7/8/2021 9:49:25 PM 21.05 69.89 0.2083501 7.282101 98.3501 21.05
7/8/2021 10:04:25 PM 21.03 69.854 0.2093501 7.282101 95.44995 21.03
7/8/2021 10:19:25 PM 21.0175 69.8315 0.2104499 7.286301 91.69995 21.0175
7/8/2021 10:34:25 PM 21.0175 69.8315 0.21145 7.291901 89.19995 21.0175
7/8/2021 10:49:25 PM 21 69.8 0.21285 7.296101 87.15002 21
7/8/2021 11:04:25 PM 20.9825 69.7685 0.2139 7.301001 84.15002 20.9825
7/8/2021 11:19:25 PM 20.9825 69.7685 0.2152499 7.306601 82.3501 20.9825
7/8/2021 11:34:25 PM 20.965 69.737 0.2166499 7.304501 78.19995 20.965
7/9/2021 12:04:25 AM 20.9475 69.7055 0.2190499 7.314301 72.6499 20.9475
7/9/2021 12:19:25 AM 20.9475 69.7055 0.22055 7.321301 71.80005 20.9475
7/9/2021 12:34:25 AM 20.95 69.71 0.22185 7.3248 68.04993 20.95
7/9/2021 12:49:25 AM 20.9325 69.6785 0.2232499 7.3304 66.44995 20.9325
7/9/2021 1:04:25 AM 20.9325 69.6785 0.2246499 7.3339 64.75012 20.9325
7/9/2021 1:19:25 AM 20.9325 69.6785 0.2264 7.3388 61.15002 20.9325
7/9/2021 1:34:25 AM 20.915 69.647 0.2277501 7.3444 60.19995 20.915
7/9/2021 1:49:25 AM 20.895 69.611 0.22915 7.3514 57.59998 20.895
7/9/2021 2:04:25 AM 20.9125 69.6425 0.2301999 7.35 57 20.895
7/9/2021 2:19:25 AM 20.9125 69.6425 0.2316 7.3549 63.95007 20.9125
7/9/2021 2:34:25 AM 20.9125 69.6425 0.2325501 7.3696 69.95007 20.9125
7/9/2021 2:49:24 AM 20.8975 69.61549 0.2332499 7.3745 62.80005 20.8975
7/9/2021 3:04:25 AM 20.88 69.584 0.234 7.378 56.59998 20.88
7/9/2021 3:19:24 AM 20.8625 69.5525 0.2346499 7.3752 51.3501 20.8625
7/9/2021 3:34:24 AM 20.8625 69.5525 0.235 7.3738 48.40002 20.8625
7/9/2021 3:49:24 AM 20.845 69.521 0.2357 7.3745 46.95007 20.845
7/9/2021 4:04:24 AM 20.8275 69.4895 0.2360499 7.3752 46.90002 20.8275
7/9/2021 4:19:24 AM 20.81 69.458 0.2360499 7.3801 45.15002 20.81
7/9/2021 4:34:24 AM 20.81 69.458 0.23645 7.3801 43.80005 20.81
7/9/2021 4:49:24 AM 20.7775 69.3995 0.23645 7.3843 43.84998 20.7775
7/9/2021 5:04:24 AM 20.7575 69.3635 0.2367501 7.3857 42.44995 20.7575
7/9/2021 5:19:24 AM 20.7425 69.3365 0.2367501 7.3906 42.6499 20.7425
7/9/2021 5:34:24 AM 20.705 69.269 0.2367501 7.3913 41.59998 20.705
7/9/2021 5:49:24 AM 20.7075 69.2735 0.2368 7.3941 44.7775 20.7075
7/9/2021 6:04:25 AM 20.6925 69.2465 0.2368 7.3934 42.09998 20.6925
7/9/2021 6:19:25 AM 20.675 69.215 0.2368 7.3941 44.31 20.675
7/9/2021 6:34:25 AM 20.655 69.179 0.23715 7.3934 43.93 20.655
7/9/2021 6:49:25 AM 20.64 69.152 0.2371 7.3941 44.07 20.64
7/9/2021 7:04:25 AM 20.6225 69.1205 0.2374499 7.3941 44.085 20.6225
7/9/2021 7:19:25 AM 20.6225 69.1205 0.2371 7.3948 43.2675 20.6225
7/9/2021 7:34:25 AM 20.6025 69.0845 0.2371 7.399 43.235 20.6025
7/9/2021 7:49:25 AM 20.6025 69.0845 0.23715 7.4004 42.2075 20.6025
7/9/2021 8:04:25 AM 20.6025 69.0845 0.2371 7.3983 40.455 20.6025
7/9/2021 8:19:25 AM 20.6225 69.1205 0.2367501 7.4011 39.57 20.6225
7/9/2021 8:34:25 AM 20.62 69.116 0.2368 7.4053 38.075 20.62
7/9/2021 8:49:25 AM 20.62 69.116 0.23645 7.4039 36.9975 20.62
7/9/2021 9:04:25 AM 20.6175 69.1115 0.2361 7.4039 35.9225 20.6175
7/9/2021 9:19:24 AM 20.6525 69.1745 0.2357501 7.4088 35.5225 20.6525
7/9/2021 9:34:24 AM 20.675 69.215 0.2354 7.4123 35.0675 20.6725
7/9/2021 9:49:25 AM 20.705 69.269 0.2346999 7.4144 35.2075 20.705
7/9/2021 10:04:24 AM 20.7425 69.3365 0.2346999 7.4179 34.5625 20.7425
7/9/2021 10:19:24 AM 20.775 69.395 0.2343501 7.4186 34.545 20.775
7/9/2021 10:34:24 AM 20.845 69.521 0.2343501 7.4179 33.66 20.845
7/9/2021 10:49:25 AM 20.8975 69.61549 0.2343501 7.4179 34.0425 20.8975
7/9/2021 11:04:24 AM 20.9475 69.7055 0.2343501 7.4179 33.7125 20.9475
7/9/2021 11:19:24 AM 21 69.8 0.234 7.4172 33.0175 21
7/9/2021 11:34:24 AM 21.015 69.827 0.2336499 7.4193 32.945 21.015
7/9/2021 11:49:25 AM 21.015 69.827 0.2332499 7.4165 33.4125 21.015
7/9/2021 12:04:24 PM 21 69.8 0.2325501 7.4193 34.715 21
7/9/2021 12:19:24 PM 21.0325 69.8585 0.2315501 7.4186 35.6725 21.0325
7/9/2021 12:34:24 PM 21.0325 69.8585 0.23015 7.4123 36.9875 21.0325
7/9/2021 12:49:24 PM 21.0675 69.9215 0.2287501 7.4074 41.12 21.0675
7/9/2021 1:04:24 PM 21.065 69.917 0.2274 7.3983 44 21.065
7/9/2021 1:19:24 PM 21.0675 69.9215 0.226 7.3885 54.09998 21.0675
7/9/2021 1:34:24 PM 21.085 69.953 0.2246 7.3752 68.44995 21.085
7/9/2021 1:49:24 PM 21.135 70.043 0.2235501 7.3633 85.15002 21.135
7/9/2021 2:04:24 PM 21.175 70.115 0.2221999 7.3535 104.6 21.175
7/9/2021 2:19:24 PM 21.1875 70.1375 0.2211 7.3444 120.15 21.1875
7/9/2021 2:34:24 PM 21.22 70.196 0.2201 7.3402 134.6499 21.22
7/9/2021 2:49:24 PM 21.24 70.232 0.2187501 7.3283 142.7501 21.24
7/9/2021 3:04:25 PM 21.1175 70.0115 0.2176999 7.3297 153.15 21.1175
7/9/2021 3:19:25 PM 21.035 69.863 0.2163001 7.3283 159.8 21.035
7/9/2021 3:34:25 PM 20.965 69.737 0.2142499 7.3311 162.6 20.965
7/9/2021 3:49:25 PM 20.9475 69.7055 0.21285 7.3283 162.2 20.9475
7/9/2021 4:04:25 PM 20.9475 69.7055 0.21145 7.3269 168.9 20.9475
7/9/2021 4:19:25 PM 20.9475 69.7055 0.2097501 7.319901 164.85 20.9475
7/9/2021 4:34:25 PM 20.9825 69.7685 0.2084 7.315001 163.9501 20.9825
7/9/2021 4:49:25 PM 21.0325 69.8585 0.2066499 7.309401 162.5 21.0325
7/9/2021 5:04:25 PM 21.085 69.953 0.2056 7.310801 160.4 21.085
7/9/2021 5:19:25 PM 21.1375 70.0475 0.2042 7.306601 159.3501 21.1375
7/9/2021 5:34:25 PM 21.1375 70.0475 0.20315 7.300301 155.9501 21.1375
7/9/2021 5:49:25 PM 21.135 70.043 0.2028001 7.296101 154.5 21.135
7/9/2021 6:04:25 PM 21.155 70.079 0.2025 7.296801 148.9 21.155
7/9/2021 6:19:24 PM 21.1375 70.0475 0.20215 7.289801 145.5 21.1375
7/9/2021 6:34:24 PM 21.12 70.016 0.20215 7.291201 143.4 21.12
7/9/2021 6:49:25 PM 21.1025 69.9845 0.2025 7.291201 138.85 21.1025
7/9/2021 7:04:25 PM 21.085 69.953 0.20285 7.290501 133.4 21.085
7/9/2021 7:34:24 PM 21.0475 69.8855 0.2039 7.296801 127.9 21.0475
7/9/2021 7:49:24 PM 21.035 69.863 0.2049501 7.299601 126.8 21.035
7/9/2021 8:04:24 PM 21.035 69.863 0.2059501 7.305201 120.2499 21.035
7/9/2021 8:19:24 PM 21.0325 69.8585 0.2073501 7.311501 112.55 21.0325
7/9/2021 8:34:24 PM 21.035 69.863 0.2087 7.316401 113.85 21.035
7/9/2021 8:49:25 PM 21.0175 69.8315 0.2101 7.319201 107.6499 21.0175
7/9/2021 9:19:25 PM 20.9975 69.7955 0.21285 7.3304 100.45 20.9975
7/9/2021 9:34:24 PM 20.9825 69.7685 0.21455 7.3353 97 20.9825
7/9/2021 9:49:24 PM 20.9675 69.7415 0.2163501 7.3458 94.40002 20.9675
7/9/2021 10:04:24 PM 20.9475 69.7055 0.2176999 7.3598 90.59998 20.9475
7/9/2021 10:19:24 PM 20.9325 69.6785 0.2195 7.3696 87.84998 20.9325
7/9/2021 10:34:24 PM 20.9325 69.6785 0.2208 7.3738 85.44995 20.9325
7/9/2021 10:49:24 PM 20.8975 69.61549 0.2226 7.3836 81 20.8975
7/9/2021 11:04:24 PM 20.8975 69.61549 0.224 7.3927 80.55005 20.8975
7/9/2021 11:19:24 PM 20.88 69.584 0.2253501 7.4032 76.19995 20.88
7/9/2021 11:34:24 PM 20.8825 69.5885 0.2267501 7.4081 73.09998 20.8825
7/10/2021 12:04:25 AM 20.8625 69.5525 0.2295 7.4242 68.55005 20.8625
7/10/2021 12:19:25 AM 20.8625 69.5525 0.2311999 7.427 65.3501 20.8625
7/10/2021 12:34:25 AM 20.865 69.557 0.2326499 7.4375 63 20.865
7/10/2021 12:49:25 AM 20.845 69.521 0.2343501 7.4431 60.90002 20.845
7/10/2021 1:04:25 AM 20.8475 69.5255 0.2357501 7.4466 59.75012 20.8475
7/10/2021 1:19:25 AM 20.83 69.494 0.2371 7.4529 56.75012 20.83
7/10/2021 1:34:25 AM 20.8125 69.4625 0.23815 7.4571 54.6499 20.8125
7/10/2021 2:04:25 AM 20.76 69.368 0.2406 7.4627 52.5 20.76
7/10/2021 2:19:25 AM 20.74 69.332 0.2416 7.4683 59.44995 20.74
7/10/2021 2:34:25 AM 20.725 69.305 0.243 7.4823 59.40002 20.725
7/10/2021 2:49:25 AM 20.69 69.242 0.244 7.4879 56 20.69
7/10/2021 3:04:25 AM 20.67 69.206 0.2450499 7.4725 50.40002 20.67
7/10/2021 3:34:25 AM 20.605 69.089 0.2464499 7.4592 42.5375 20.605
7/10/2021 3:49:24 AM 20.57 69.026 0.2475 7.4627 40.9275 20.57
7/10/2021 4:04:24 AM 20.535 68.963 0.2482 7.4676 39.6425 20.535
7/10/2021 4:19:24 AM 20.5 68.9 0.2489501 7.4746 37.9225 20.5
7/10/2021 4:34:24 AM 20.4675 68.8415 0.2496 7.476 36.7425 20.4675
7/10/2021 4:49:24 AM 20.4325 68.7785 0.2503 7.4781 36.7475 20.4325
7/10/2021 5:04:24 AM 20.415 68.747 0.2506499 7.4718 35.7175 20.415
7/10/2021 5:19:24 AM 20.3975 68.7155 0.251 7.4732 34.955 20.3975
7/10/2021 5:34:24 AM 20.38 68.684 0.2510499 7.4739 34.0375 20.38
7/10/2021 5:49:24 AM 20.345 68.621 0.251 7.4739 33.535 20.345
7/10/2021 6:04:24 AM 20.33 68.594 0.2513501 7.4725 33.22 20.33
7/10/2021 6:19:24 AM 20.3125 68.5625 0.2513501 7.4739 32.49 20.3125
7/10/2021 6:34:24 AM 20.295 68.531 0.2510499 7.469 31.9775 20.295
7/10/2021 6:49:24 AM 20.2575 68.4635 0.251 7.4697 31.7425 20.2575
7/10/2021 7:04:24 AM 20.245 68.441 0.251 7.4634 31.1225 20.245
7/10/2021 7:19:24 AM 20.2275 68.4095 0.2506499 7.4578 30.7375 20.2275
7/10/2021 7:34:24 AM 20.21 68.378 0.2503501 7.4578 30.57 20.21
7/10/2021 7:49:24 AM 20.1925 68.3465 0.2503 7.4536 30.2025 20.1925
7/10/2021 8:04:24 AM 20.1725 68.3105 0.25 7.4494 29.6975 20.1725
7/10/2021 8:19:24 AM 20.1725 68.3105 0.25 7.4494 29.855 20.1725
7/10/2021 8:34:24 AM 20.1575 68.2835 0.25 7.4438 28.8925 20.1575
7/10/2021 8:49:24 AM 20.1575 68.2835 0.2499501 7.4431 28.3375 20.1575
7/10/2021 9:04:24 AM 20.175 68.315 0.25 7.4291 27.91 20.175
7/10/2021 9:19:24 AM 20.1725 68.3105 0.2496499 7.4452 26.5725 20.1725
7/10/2021 9:34:24 AM 20.2075 68.3735 0.2496 7.4515 25.905 20.2075
7/10/2021 9:49:25 AM 20.2425 68.4365 0.2496499 7.448 25.005 20.2425
7/10/2021 10:04:24 AM 20.2775 68.4995 0.2499501 7.448 24.3525 20.2775
7/10/2021 10:19:24 AM 20.3125 68.5625 0.2499501 7.448 24.9525 20.3125
7/10/2021 10:34:25 AM 20.345 68.621 0.2503 7.4494 24.175 20.345
7/10/2021 10:49:25 AM 20.38 68.684 0.2503 7.4473 24.5875 20.38
7/10/2021 11:04:25 AM 20.3975 68.7155 0.2506499 7.4487 23.685 20.3975
7/10/2021 11:19:25 AM 20.465 68.837 0.2506499 7.4473 24.31 20.465
7/10/2021 11:34:25 AM 20.5175 68.9315 0.251 7.4536 24.45 20.5175
7/10/2021 12:04:25 PM 20.6225 69.1205 0.251 7.4592 25.9375 20.6225
7/10/2021 12:19:24 PM 20.675 69.215 0.251 7.4571 24.8475 20.675
7/10/2021 12:34:24 PM 20.71 69.278 0.2506499 7.462 25.1875 20.7075
7/10/2021 12:49:24 PM 20.74 69.332 0.2506 7.4641 26.0175 20.74
7/10/2021 1:19:24 PM 20.8125 69.4625 0.2506 7.4676 26.945 20.8125
7/10/2021 1:34:24 PM 20.83 69.494 0.2503 7.4613 27.4225 20.83
7/10/2021 1:49:24 PM 20.81 69.458 0.2499501 7.4585 27.94 20.81
7/10/2021 2:04:24 PM 20.83 69.494 0.24955 7.4571 28.5725 20.83
7/10/2021 2:19:24 PM 20.8625 69.5525 0.2492 7.4585 29.1275 20.8625
7/10/2021 2:34:24 PM 20.8975 69.61549 0.2492499 7.4585 29.5075 20.8975
7/10/2021 2:49:24 PM 20.93 69.674 0.2492499 7.462 30.12 20.93
7/10/2021 3:04:24 PM 20.965 69.737 0.2496 7.4585 29.9775 20.965
7/10/2021 3:19:24 PM 20.9825 69.7685 0.2495 7.4571 31.215 20.9825
7/10/2021 3:34:24 PM 21 69.8 0.2499 7.4564 30.47 21
7/10/2021 3:49:24 PM 20.9975 69.7955 0.2502499 7.4578 31.1575 20.9975
7/10/2021 4:04:24 PM 21.0175 69.8315 0.2505501 7.4613 31.3 21.0175
7/10/2021 4:19:24 PM 21.055 69.899 0.2506 7.462 31.4425 21.055
7/10/2021 4:34:24 PM 21.0875 69.9575 0.2499501 7.4627 31.1325 21.0875
7/10/2021 4:49:24 PM 21.105 69.989 0.24885 7.4557 31.63 21.105
7/10/2021 5:04:24 PM 21.1375 70.0475 0.2468001 7.4578 31.665 21.1375
7/10/2021 5:19:24 PM 21.14 70.052 0.2447 7.4466 31.6275 21.14
7/10/2021 5:34:24 PM 21.175 70.115 0.2419501 7.4424 31.195 21.175
7/10/2021 5:49:24 PM 21.1575 70.0835 0.23885 7.4375 31.5225 21.1575
7/10/2021 6:04:25 PM 21.155 70.079 0.2360499 7.4277 31.18 21.155
7/10/2021 6:19:25 PM 21.1025 69.9845 0.2336499 7.4235 31.1275 21.1025
7/10/2021 6:34:25 PM 21.0675 69.9215 0.23085 7.4137 31.04 21.0675
7/10/2021 6:49:25 PM 21.0175 69.8315 0.22885 7.4032 30.85 21.0175
7/10/2021 7:04:25 PM 20.9675 69.7415 0.22745 7.3969 30.54 20.9675
7/10/2021 7:19:25 PM 20.93 69.674 0.2260499 7.3948 30.0675 20.93
7/10/2021 7:34:26 PM 20.8775 69.5795 0.2246499 7.3829 30.2725 20.8775
7/10/2021 7:49:25 PM 20.8625 69.5525 0.2236499 7.3794 29.125 20.8625
7/10/2021 8:04:25 PM 20.8275 69.4895 0.2229501 7.3759 29.1925 20.8275
7/10/2021 8:19:25 PM 20.775 69.395 0.2222499 7.3661 29.1225 20.775
7/10/2021 8:34:25 PM 20.7225 69.3005 0.2219 7.3584 28.9475 20.7225
7/10/2021 8:49:25 PM 20.6375 69.1475 0.22185 7.3556 28.9 20.6375
7/10/2021 9:04:25 PM 20.565 69.017 0.2216 7.3493 27.9675 20.565
7/10/2021 9:19:25 PM 20.5 68.9 0.22155 7.3493 27.8675 20.5
7/10/2021 9:34:25 PM 20.4475 68.8055 0.2219 7.3465 27.815 20.4475
7/10/2021 9:49:25 PM 20.415 68.747 0.2216 7.3458 28.3325 20.415
7/10/2021 10:04:24 PM 20.38 68.684 0.2219501 7.3451 27.25 20.38
7/10/2021 10:19:25 PM 20.3425 68.6165 0.2219501 7.3416 27.2175 20.3425
7/10/2021 10:34:24 PM 20.325 68.585 0.2219 7.3409 26.6375 20.325
7/10/2021 10:49:24 PM 20.2925 68.5265 0.2223001 7.3409 27.015 20.2925
7/10/2021 11:04:24 PM 20.26 68.468 0.2223001 7.343 26.2025 20.26
7/10/2021 11:19:24 PM 20.225 68.405 0.2226499 7.3423 26.0625 20.225
7/10/2021 11:34:24 PM 20.2075 68.3735 0.2226499 7.3374 25.525 20.2075
7/11/2021 12:04:25 AM 20.1725 68.3105 0.2233501 7.3332 30.62 20.1725
7/11/2021 12:19:24 AM 20.155 68.279 0.2233001 7.3402 90.04993 20.155
7/11/2021 12:34:24 AM 20.1375 68.2475 0.2233001 7.371 60.59998 20.1375
7/11/2021 12:49:25 AM 20.105 68.189 0.2236499 7.3465 44.1775 20.105
7/11/2021 1:04:25 AM 20.0675 68.1215 0.2240499 7.3353 29.9975 20.0675
7/11/2021 1:19:25 AM 20.0525 68.0945 0.2244499 7.3325 25.0725 20.0525
7/11/2021 1:34:25 AM 20.0175 68.0315 0.2247501 7.3318 22.9225 20.0175
7/11/2021 1:49:25 AM 20.07 68.126 0.2247501 7.3346 22.3825 20.07
7/11/2021 2:04:24 AM 20.07 68.126 0.2251 7.3325 21.7875 20.07
7/11/2021 2:19:24 AM 20.0525 68.0945 0.2257501 7.3283 21.915 20.0525
7/11/2021 2:34:25 AM 20.02 68.036 0.22615 7.3269 21.455 20.02
7/11/2021 2:49:25 AM 19.985 67.973 0.22645 7.3339 21.2325 19.985
7/11/2021 3:04:25 AM 19.9475 67.9055 0.2272 7.3339 20.835 19.9475
7/11/2021 3:19:25 AM 19.915 67.847 0.22755 7.3339 20.9925 19.915
7/11/2021 3:34:25 AM 19.8825 67.7885 0.2282499 7.3367 21.13 19.8825
7/11/2021 3:49:25 AM 19.8475 67.7255 0.2286 7.3381 20.8025 19.8475
7/11/2021 4:04:25 AM 19.8125 67.6625 0.2289 7.3416 20.4025 19.8125
7/11/2021 4:19:25 AM 19.7775 67.5995 0.2296 7.3423 20.2625 19.7775
7/11/2021 4:34:25 AM 19.745 67.541 0.23 7.3423 20.6125 19.745
7/11/2021 4:49:25 AM 19.7075 67.4735 0.2306499 7.343 20.2575 19.7075
7/11/2021 5:04:25 AM 19.675 67.415 0.2310499 7.3423 20.89 19.675
7/11/2021 5:19:25 AM 19.655 67.379 0.2316499 7.3479 22.47 19.655
7/11/2021 5:34:25 AM 19.62 67.316 0.2324 7.3577 25.1775 19.62
7/11/2021 6:04:25 AM 19.5525 67.1945 0.23345 7.3486 24.185 19.5525
7/11/2021 6:19:25 AM 19.535 67.163 0.23415 7.3535 23.3525 19.535
7/11/2021 6:34:25 AM 19.5175 67.1315 0.2348001 7.3521 23.5425 19.5175
7/11/2021 6:49:25 AM 19.5 67.1 0.23515 7.3535 23.04 19.5
7/11/2021 7:04:24 AM 19.4975 67.0955 0.2358 7.3542 22.5275 19.4975
7/11/2021 7:19:24 AM 19.4675 67.0415 0.2362499 7.357 22.4275 19.4675
7/11/2021 7:34:24 AM 19.465 67.037 0.2369 7.3577 22.62 19.465
7/11/2021 7:49:24 AM 19.4675 67.0415 0.2372499 7.3619 22.8475 19.4675
7/11/2021 8:04:24 AM 19.4475 67.0055 0.2376 7.3647 22.2125 19.4475
7/11/2021 8:19:24 AM 19.45 67.01 0.2383001 7.3682 22.145 19.45
7/11/2021 8:34:24 AM 19.4475 67.0055 0.2386499 7.3675 21.9525 19.4475
7/11/2021 8:49:24 AM 19.4475 67.0055 0.239 7.3724 23.16 19.4475
7/11/2021 9:04:24 AM 19.4475 67.0055 0.2393501 7.3724 22.09 19.4475
7/11/2021 9:19:25 AM 19.465 67.037 0.2392499 7.378 21.105 19.465
7/11/2021 9:34:25 AM 19.465 67.037 0.2396499 7.3822 20.4525 19.465
7/11/2021 9:49:24 AM 19.4825 67.0685 0.2399501 7.3822 20.02 19.4825
7/11/2021 10:04:24 AM 19.4825 67.0685 0.2403501 7.3878 20.05 19.4825
7/11/2021 10:19:24 AM 19.5 67.1 0.2406999 7.3934 19.44 19.5
7/11/2021 10:34:25 AM 19.52 67.136 0.241 7.392 18.9525 19.52
7/11/2021 10:49:24 AM 19.535 67.163 0.2410499 7.3976 18.9175 19.535
7/11/2021 11:04:24 AM 19.535 67.163 0.2413501 7.4018 18.76 19.535
7/11/2021 11:19:24 AM 19.5675 67.2215 0.2416999 7.4011 19.0725 19.5675
7/11/2021 11:34:24 AM 19.6025 67.2845 0.242 7.4123 19.1225 19.6025
7/11/2021 11:49:24 AM 19.62 67.316 0.2420499 7.4165 18.9125 19.62
7/11/2021 12:04:24 PM 19.62 67.316 0.2427501 7.4249 18.9525 19.62
7/11/2021 12:19:24 PM 19.6225 67.3205 0.2431 7.4291 18.46 19.6225
7/11/2021 12:34:25 PM 19.6 67.28 0.2437501 7.4305 18.2175 19.6
7/11/2021 12:49:25 PM 19.6025 67.2845 0.2445 7.4347 17.985 19.6025
7/11/2021 1:04:25 PM 19.6025 67.2845 0.24515 7.4396 17.7475 19.6025
7/11/2021 1:19:25 PM 19.6 67.28 0.24585 7.4508 17.745 19.6
7/11/2021 1:34:25 PM 19.6025 67.2845 0.2465501 7.4543 17.75 19.6025
7/11/2021 1:49:25 PM 19.6025 67.2845 0.2472499 7.4613 17.64 19.6025
7/11/2021 2:04:25 PM 19.6 67.28 0.2479501 7.4704 17.7625 19.6
7/11/2021 2:19:25 PM 19.6 67.28 0.2486 7.4732 17.3675 19.6
7/11/2021 2:34:25 PM 19.6 67.28 0.2496499 7.4802 17.555 19.6
7/11/2021 2:49:25 PM 19.6025 67.2845 0.2503501 7.483 17.265 19.6025
7/11/2021 3:04:25 PM 19.585 67.253 0.2510499 7.49 17.6925 19.585
7/11/2021 3:19:25 PM 19.5825 67.2485 0.2517 7.4879 17.8675 19.5825
7/11/2021 3:34:25 PM 19.5675 67.2215 0.2524 7.4921 18.18 19.5675
7/11/2021 3:49:25 PM 19.5675 67.2215 0.2527501 7.4494 23.0325 19.5675
7/11/2021 4:04:25 PM 19.565 67.217 0.2534499 7.4732 13.8125 19.565
7/11/2021 4:19:24 PM 19.55 67.19 0.25415 7.4921 14.295 19.55
7/11/2021 4:34:24 PM 19.5325 67.1585 0.25485 7.4949 14.57 19.5325
7/11/2021 4:49:24 PM 19.515 67.127 0.2555501 7.4935 15.07 19.515
7/11/2021 5:04:24 PM 19.4975 67.0955 0.2559 7.4977 15.1025 19.4975
7/11/2021 5:19:24 PM 19.48 67.064 0.2562 7.4942 15.175 19.48
7/11/2021 5:34:24 PM 19.465 67.037 0.25655 7.4872 16.15 19.465
7/11/2021 5:49:25 PM 19.4475 67.0055 0.2569 7.4893 16.555 19.4475
7/11/2021 6:04:24 PM 19.43 66.974 0.2569 7.4879 16.6125 19.43
7/11/2021 6:34:25 PM 19.3925 66.9065 0.2572499 7.4851 16.6225 19.3925
7/11/2021 6:49:24 PM 19.375 66.875 0.2576 7.4795 16.97 19.375
7/11/2021 7:04:24 PM 19.3775 66.8795 0.2576499 7.4788 17.8875 19.3775
7/11/2021 7:19:24 PM 19.3575 66.8435 0.2576 7.4837 17.905 19.3575
7/11/2021 7:34:24 PM 19.3425 66.8165 0.2576499 7.4809 17.9875 19.3425
7/11/2021 7:49:24 PM 19.3425 66.8165 0.2576999 7.4802 18.3725 19.3425
7/11/2021 8:04:24 PM 19.325 66.785 0.2576999 7.4788 18.9775 19.325
7/11/2021 8:19:24 PM 19.3075 66.7535 0.25745 7.4753 19.3125 19.3075
7/11/2021 8:34:24 PM 19.285 66.713 0.2569 7.4851 19.575 19.285
7/11/2021 8:49:24 PM 19.275 66.695 0.25545 7.4893 20.1925 19.275
7/11/2021 9:19:25 PM 19.22 66.596 0.2553 7.4795 21.825 19.22
7/11/2021 9:34:25 PM 19.205 66.569 0.2551 7.483 22.935 19.205
7/11/2021 9:49:25 PM 19.185 66.533 0.2551 7.4746 23.1225 19.185
7/11/2021 10:04:25 PM 19.15 66.47 0.2549 7.4683 24.0825 19.15
7/11/2021 10:19:25 PM 19.13 66.434 0.25455 7.4795 25.2675 19.13
7/11/2021 10:34:25 PM 19.1225 66.4205 0.2538 7.469 26.2475 19.1225
7/11/2021 10:49:25 PM 19.1025 66.38451 0.2534499 7.4697 27.0475 19.1025
7/11/2021 11:04:25 PM 19.085 66.353 0.2530499 7.4648 29.055 19.085
7/11/2021 11:19:25 PM 19.0675 66.3215 0.2527501 7.4578 31.3875 19.0675
7/12/2021 12:04:25 AM 19.03 66.254 0.2525 7.4487 33.435 19.03
7/12/2021 12:19:25 AM 19.0125 66.2225 0.2523001 7.4445 36.6075 19.0125
7/12/2021 12:34:25 AM 18.975 66.155 0.2525 7.4445 37.895 18.975
7/12/2021 12:49:25 AM 18.9625 66.1325 0.2525 7.4396 39.705 18.9625
7/12/2021 1:04:25 AM 18.9425 66.0965 0.2523001 7.441 41.1425 18.9425
7/12/2021 1:19:24 AM 18.9225 66.0605 0.2523501 7.4403 42.98 18.9225
7/12/2021 1:34:24 AM 18.93 66.074 0.2520499 7.4347 41.40002 18.93
7/12/2021 1:49:24 AM 18.9025 66.0245 0.2517 7.4361 44.15002 18.9025
7/12/2021 2:04:24 AM 18.895 66.011 0.2513 7.4347 49.69995 18.895
7/12/2021 2:19:24 AM 18.875 65.975 0.251 7.4333 67.19995 18.875
7/12/2021 2:34:24 AM 18.855 65.939 0.2507501 7.4438 75.04993 18.855
7/12/2021 2:49:24 AM 18.8175 65.8715 0.2502499 7.4459 71.95007 18.8175
7/12/2021 3:19:24 AM 18.775 65.795 0.2499501 7.448 59.90002 18.775
7/12/2021 3:34:24 AM 18.7375 65.7275 0.2499 7.4529 59.09998 18.7375
7/12/2021 3:49:24 AM 18.7 65.66 0.2496 7.4487 58.5 18.7
7/12/2021 4:04:24 AM 18.645 65.561 0.2493501 7.4494 60.55005 18.645
7/12/2021 4:19:24 AM 18.61 65.498 0.2486499 7.4445 61.95007 18.61
7/12/2021 4:34:24 AM 18.56 65.408 0.2477501 7.4438 62.90002 18.56
7/12/2021 4:49:24 AM 18.525 65.345 0.2471 7.4403 64.09998 18.525
7/12/2021 5:19:25 AM 18.4775 65.25951 0.2437 7.4347 69.30005 18.4725
7/12/2021 5:34:24 AM 18.42 65.156 0.2418001 7.4256 60.84998 18.42
7/12/2021 5:49:24 AM 18.37 65.066 0.2392499 7.4151 65.80005 18.37
7/12/2021 6:04:24 AM 18.3125 64.9625 0.2361 7.4158 72 18.3125
7/12/2021 6:19:24 AM 18.2625 64.8725 0.2322499 7.4046 79.95007 18.2625
7/12/2021 6:34:24 AM 18.1925 64.7465 0.22885 7.3962 84.19995 18.1925
7/12/2021 6:49:25 AM 18.13 64.634 0.2261 7.385 87.3501 18.13
7/12/2021 7:19:25 AM 18.04 64.472 0.2220499 7.3759 90.40002 18.04
7/12/2021 7:34:25 AM 18.005 64.409 0.2205 7.3668 88.6499 18.005
7/12/2021 7:49:25 AM 17.9725 64.3505 0.2195 7.3668 86.80005 17.9725
7/12/2021 8:04:25 AM 17.9525 64.3145 0.2182499 7.3661 87.24988 17.9525
7/12/2021 8:19:25 AM 17.9525 64.3145 0.2163501 7.357 86.95007 17.9525
7/12/2021 8:34:25 AM 17.9525 64.3145 0.2149 7.357 86.15002 17.9525
7/12/2021 8:49:25 AM 17.94 64.292 0.2133 7.3514 86.19995 17.94
7/12/2021 9:04:25 AM 17.9575 64.3235 0.2119501 7.3458 84.5 17.9575
7/12/2021 9:19:25 AM 17.95 64.31 0.2099 7.3521 75.84998 17.95
7/12/2021 9:34:24 AM 17.9675 64.3415 0.2076499 7.3528 79 17.9675
7/12/2021 9:49:25 AM 17.9825 64.3685 0.2056499 7.3437 84.15002 17.9825
7/12/2021 10:04:24 AM 18.0075 64.4135 0.2035 7.3423 91 18.0075
7/12/2021 10:19:24 AM 18.0175 64.4315 0.2012499 7.343 97.3501 18.0175
7/12/2021 10:34:24 AM 18.06 64.508 0.1993501 7.3423 104.2499 18.06
7/12/2021 10:49:24 AM 18.0925 64.5665 0.1976499 7.3374 110.1 18.0925
7/12/2021 11:04:24 AM 18.14 64.652 0.1959 7.3416 115.6499 18.14
7/12/2021 11:19:24 AM 18.2075 64.7735 0.194 7.3367 119.5 18.2075
7/12/2021 11:34:24 AM 18.265 64.877 0.1925 7.336 131.3501 18.265
7/12/2021 11:49:24 AM 18.315 64.967 0.1907501 7.3325 135.55 18.315
7/12/2021 12:04:24 PM 18.35 65.03 0.19045 7.3318 136.2 18.35
7/12/2021 12:19:24 PM 18.435 65.183 0.1886999 7.311501 162.6 18.435
7/12/2021 12:34:24 PM 18.505 65.309 0.1869 7.317101 181.7 18.505
7/12/2021 12:49:24 PM 18.555 65.399 0.1856 7.317801 175.4 18.555
7/12/2021 1:04:24 PM 18.59 65.462 0.18455 7.320601 174.45 18.59
7/12/2021 1:19:24 PM 18.66 65.588 0.1838 7.315001 169.1 18.66
7/12/2021 1:34:24 PM 18.745 65.741 0.1831 7.319901 164 18.745
7/12/2021 1:49:24 PM 18.8125 65.8625 0.18245 7.310801 157.6 18.8125
7/12/2021 2:04:24 PM 18.88 65.984 0.1824 7.310801 150.0499 18.88
7/12/2021 2:19:24 PM 18.9675 66.1415 0.1824 7.305201 144.1 18.9675
7/12/2021 2:34:24 PM 19.0375 66.2675 0.1827501 7.310801 137.2 19.0375
7/12/2021 2:49:24 PM 19.125 66.425 0.18345 7.310801 129.6 19.125
7/12/2021 3:04:24 PM 19.1925 66.5465 0.18415 7.310101 123.3 19.1925
7/12/2021 3:19:24 PM 19.2475 66.6455 0.18515 7.311501 116.3501 19.2475
7/12/2021 3:34:24 PM 19.315 66.767 0.18585 7.314301 113.3 19.315
7/12/2021 4:04:25 PM 19.4375 66.9875 0.1872499 7.319201 105.2 19.4375
7/12/2021 4:19:24 PM 19.4875 67.0775 0.1876 7.3255 100.45 19.4875
7/12/2021 4:34:24 PM 19.54 67.172 0.1879501 7.3297 98.3501 19.54
7/12/2021 4:49:24 PM 19.575 67.235 0.1882499 7.3234 97.30005 19.575
7/12/2021 5:04:24 PM 19.625 67.325 0.1886499 7.3248 93.5 19.625
7/12/2021 5:19:25 PM 19.6775 67.4195 0.1889501 7.3255 92.30005 19.6775
7/12/2021 5:34:25 PM 19.7475 67.5455 0.1893501 7.319901 90.59998 19.7475
7/12/2021 5:49:25 PM 19.8175 67.6715 0.1896499 7.3241 89.30005 19.8175
7/12/2021 6:04:25 PM 19.8525 67.7345 0.1900499 7.321301 88.19995 19.8525
7/12/2021 6:19:25 PM 19.8875 67.7975 0.1907501 7.315001 86.44995 19.8875
7/12/2021 6:34:24 PM 19.9375 67.8875 0.1910499 7.320601 84 19.9375
7/12/2021 6:49:24 PM 19.94 67.892 0.1917501 7.315701 83 19.94
7/12/2021 7:04:24 PM 19.925 67.865 0.19245 7.315001 80.69995 19.925
7/12/2021 7:19:24 PM 19.9225 67.8605 0.1928 7.317101 78.55005 19.9225
7/12/2021 7:34:24 PM 19.9425 67.8965 0.1935 7.321301 77.40002 19.9425
7/12/2021 7:49:24 PM 19.96 67.92799 0.1941999 7.319201 76.5 19.96
7/12/2021 8:04:24 PM 19.9575 67.9235 0.1949 7.319901 74.40002 19.9575
7/12/2021 8:19:24 PM 19.995 67.991 0.1956 7.320601 74.04993 19.995
7/12/2021 8:34:24 PM 19.995 67.991 0.1959501 7.319201 72.95007 19.995
7/12/2021 8:49:24 PM 20.0125 68.0225 0.1963 7.3304 70.84998 20.0125
7/12/2021 9:04:24 PM 20.03 68.054 0.197 7.3304 68.75012 20.03
7/12/2021 9:19:24 PM 20.045 68.081 0.1973 7.3311 67.80005 20.045
7/12/2021 9:34:24 PM 20.0475 68.0855 0.1980499 7.329 65.3501 20.0475
7/12/2021 9:49:24 PM 20.0475 68.0855 0.1987 7.3353 64.3501 20.0475
7/12/2021 10:04:24 PM 20.0475 68.0855 0.1997501 7.336 64.3501 20.0475
7/12/2021 10:19:24 PM 20.065 68.117 0.20045 7.3395 62.59998 20.065
7/12/2021 10:34:24 PM 20.065 68.117 0.2015 7.3444 61.55005 20.065
7/12/2021 10:49:24 PM 20.0625 68.1125 0.2025501 7.3458 60.09998 20.0625
7/12/2021 11:04:24 PM 20.065 68.117 0.2035501 7.3493 59.15002 20.065
7/12/2021 11:19:24 PM 20.0625 68.1125 0.2046 7.3514 58.5 20.0625
7/12/2021 11:34:24 PM 20.0825 68.1485 0.2056499 7.3535 56 20.0825
7/13/2021 12:04:24 AM 20.1 68.18 0.2077 7.3591 53.80005 20.1
7/13/2021 12:19:24 AM 20.115 68.207 0.2091 7.364 53.5 20.115
7/13/2021 12:34:24 AM 20.1 68.18 0.2104499 7.3696 51.69995 20.1
7/13/2021 12:49:24 AM 20.08 68.144 0.2122 7.3703 50.75012 20.08
7/13/2021 1:04:25 AM 20.085 68.153 0.2136 7.3738 50.44995 20.085
7/13/2021 1:19:25 AM 20.0825 68.1485 0.2156499 7.3843 53.5 20.0825
7/13/2021 1:34:25 AM 20.065 68.117 0.2171 7.3878 51.09998 20.065
7/13/2021 1:49:25 AM 20.065 68.117 0.2188001 7.3878 51.15002 20.065
7/13/2021 2:04:25 AM 20.03 68.054 0.2205 7.3948 50.40002 20.03
7/13/2021 2:19:25 AM 20.0125 68.0225 0.2219 7.4032 50.04993 20.0125
7/13/2021 2:34:25 AM 19.995 67.991 0.2236499 7.4046 51.55005 19.995
7/13/2021 2:49:25 AM 19.9775 67.9595 0.2253501 7.4074 61.75012 19.9775
7/13/2021 3:04:25 AM 19.9775 67.9595 0.2271 7.413 62.3501 19.9775
7/13/2021 3:19:25 AM 19.96 67.92799 0.22845 7.4179 61.19995 19.96
7/13/2021 3:34:25 AM 19.9425 67.8965 0.22985 7.4221 60.15002 19.9425
7/13/2021 4:04:25 AM 19.925 67.865 0.2319501 7.4284 58.04993 19.925
7/13/2021 4:19:25 AM 19.89 67.802 0.2322499 7.4284 54.59998 19.89
7/13/2021 4:34:25 AM 19.8725 67.7705 0.2326499 7.4284 54.30005 19.8725
7/13/2021 4:49:25 AM 19.84 67.712 0.2326 7.4277 57.09998 19.84
7/13/2021 5:04:25 AM 19.8225 67.6805 0.2326 7.4291 59.90002 19.8225
7/13/2021 5:19:25 AM 19.7875 67.6175 0.2326 7.4284 60.90002 19.7875
7/13/2021 5:34:24 AM 19.7725 67.5905 0.2323 7.4221 64.09998 19.7725
7/13/2021 5:49:24 AM 19.735 67.523 0.2319501 7.4228 67.84998 19.735
7/13/2021 6:04:24 AM 19.7 67.46 0.2312499 7.4249 70.59998 19.7
7/13/2021 6:19:24 AM 19.6625 67.3925 0.2301999 7.4249 75.19995 19.6625
7/13/2021 6:34:24 AM 19.615 67.307 0.2295 7.4172 79.19995 19.615
7/13/2021 6:49:25 AM 19.58 67.244 0.2288 7.4151 82.3501 19.58
7/13/2021 7:04:24 AM 19.545 67.181 0.2278 7.4144 83.69995 19.545
7/13/2021 7:19:24 AM 19.5275 67.1495 0.2267501 7.4123 90.59998 19.5275
7/13/2021 7:34:24 AM 19.51 67.118 0.2253501 7.4074 93.15002 19.51
7/13/2021 7:49:24 AM 19.4925 67.0865 0.2236499 7.4032 94.15002 19.4925
7/13/2021 8:04:24 AM 19.4925 67.0865 0.2219 7.3983 96.15002 19.4925
7/13/2021 8:19:24 AM 19.4925 67.0865 0.22015 7.3976 97.59998 19.4925
7/13/2021 8:34:24 AM 19.51 67.118 0.2188001 7.3885 102.0499 19.51
7/13/2021 8:49:24 AM 19.545 67.181 0.2174 7.3745 104.6 19.545
7/13/2021 9:04:24 AM 19.5775 67.2395 0.216 7.371 101.9 19.5775
7/13/2021 9:19:24 AM 19.615 67.307 0.2142499 7.3689 106.3501 19.615
7/13/2021 9:34:24 AM 19.645 67.361 0.21255 7.3689 110.9 19.645
7/13/2021 9:49:24 AM 19.645 67.361 0.2107501 7.3647 115.0499 19.645
7/13/2021 10:04:25 AM 19.68 67.424 0.2087 7.3556 122.0499 19.68
7/13/2021 10:19:25 AM 19.6975 67.4555 0.207 7.3598 133.7 19.7
7/13/2021 10:34:25 AM 19.6975 67.4555 0.2049 7.3542 146.6 19.6975
7/13/2021 10:49:26 AM 19.715 67.487 0.2028001 7.3353 167.8 19.715
7/13/2021 11:04:25 AM 19.7325 67.5185 0.2004 7.3304 190.4 19.7325
7/13/2021 11:19:26 AM 19.7825 67.6085 0.198 7.3248 211.9501 19.7825
7/13/2021 11:34:25 AM 19.815 67.667 0.1959 7.315701 225.3501 19.815
7/13/2021 11:49:25 AM 19.835 67.703 0.19385 7.310801 233.6499 19.835
7/13/2021 12:04:26 PM 19.8175 67.6715 0.1917 7.301001 234.1 19.8175
7/13/2021 12:19:25 PM 19.8175 67.6715 0.19 7.296801 232.0499 19.8175
7/13/2021 12:34:25 PM 19.835 67.703 0.189 7.289801 221.6 19.835
7/13/2021 12:49:25 PM 19.85 67.73 0.1876 7.286301 210.8 19.85
7/13/2021 1:04:25 PM 19.8525 67.7345 0.1869 7.281401 198.3501 19.8525
7/13/2021 1:19:25 PM 19.8325 67.6985 0.1861999 7.275101 183.3501 19.8325
7/13/2021 1:34:25 PM 19.8325 67.6985 0.1861999 7.275801 175.8 19.8325
7/13/2021 1:49:25 PM 19.8675 67.7615 0.1861999 7.275101 162.9501 19.8675
7/13/2021 2:04:25 PM 19.92 67.856 0.1865501 7.270901 154.2499 19.92
7/13/2021 2:19:25 PM 19.9375 67.8875 0.1872 7.268801 146.55 19.9375
7/13/2021 2:34:25 PM 19.97 67.946 0.1879501 7.270201 142.9501 19.97
7/13/2021 2:49:25 PM 20.0375 68.0675 0.1886 7.270901 142.4 20.0375
7/13/2021 3:04:25 PM 20.0225 68.0405 0.1896499 7.269501 140.2499 20.0225
7/13/2021 3:19:25 PM 19.9525 67.9145 0.1906499 7.270201 141.3 19.9525
7/13/2021 3:34:25 PM 19.9525 67.9145 0.1913501 7.270201 143.7 19.9525
7/13/2021 3:49:25 PM 20.005 68.009 0.1917501 7.275101 147.15 20.005
7/13/2021 4:04:25 PM 20.0575 68.1035 0.1921 7.271601 146.5 20.0575
7/13/2021 4:19:25 PM 20.145 68.261 0.1920499 7.270201 147.2499 20.145
7/13/2021 4:34:25 PM 20.18 68.324 0.1920499 7.275101 144.7501 20.18
7/13/2021 4:49:25 PM 20.215 68.387 0.1924 7.270201 142.7 20.215
7/13/2021 5:04:25 PM 20.25 68.45 0.1920499 7.269501 139.55 20.25
7/13/2021 5:19:24 PM 20.3 68.54 0.1920499 7.275101 135.3 20.3
7/13/2021 5:34:24 PM 20.3875 68.6975 0.1917 7.274401 128.45 20.3875
7/13/2021 5:49:24 PM 20.49 68.882 0.191 7.275801 125.7 20.49
7/13/2021 6:04:24 PM 20.6125 69.1025 0.1906499 7.275801 122.6 20.6125
7/13/2021 6:19:24 PM 20.715 69.287 0.1903501 7.275801 116 20.715
7/13/2021 6:34:25 PM 20.8175 69.4715 0.19 7.275101 112.9 20.8175
7/13/2021 6:49:24 PM 20.905 69.629 0.1896 7.279301 108.0499 20.905
7/13/2021 7:04:24 PM 20.96 69.728 0.1896499 7.279301 104.55 20.96
7/13/2021 7:19:25 PM 21.01 69.818 0.1892499 7.275101 100.6499 21.01
7/13/2021 7:34:25 PM 21.0475 69.8855 0.1889501 7.280001 98.24988 21.0475
7/13/2021 7:49:25 PM 21.0825 69.9485 0.1889501 7.275101 99 21.0825
7/13/2021 8:04:25 PM 21.1 69.98 0.1886 7.280001 96.15002 21.1
7/13/2021 8:19:25 PM 21.0975 69.9755 0.1883 7.256201 93 21.0975
7/13/2021 8:34:25 PM 21.0825 69.9485 0.1879 7.270901 90.59998 21.0825
7/13/2021 8:49:25 PM 21.0625 69.9125 0.1875501 7.274401 94.04993 21.0625
7/13/2021 9:04:25 PM 20.925 69.665 0.1875 7.270201 100.7 20.925
7/13/2021 9:19:25 PM 20.7175 69.2915 0.1876 7.265301 105.5 20.7175
7/13/2021 9:34:25 PM 20.6175 69.1115 0.1872499 7.269501 113.5 20.6175
7/13/2021 9:49:25 PM 20.565 69.017 0.1866 7.270201 119.85 20.565
7/13/2021 10:04:25 PM 20.5475 68.9855 0.1855 7.267401 129.3 20.5475
7/13/2021 10:19:25 PM 20.53 68.954 0.18485 7.262501 135.85 20.53
7/13/2021 10:34:25 PM 20.495 68.891 0.18415 7.262501 144.8 20.495
7/13/2021 10:49:25 PM 20.46 68.828 0.1835 7.261801 152.85 20.46
7/13/2021 11:19:25 PM 20.4625 68.8325 0.18245 7.255501 170.2499 20.4625
7/13/2021 11:34:25 PM 20.445 68.801 0.1821 7.256201 176.7501 20.445
7/14/2021 12:04:25 AM 20.445 68.801 0.1810499 7.262501 194.6 20.445
7/14/2021 12:19:24 AM 20.43 68.774 0.1806999 7.257601 198.0499 20.43
7/14/2021 12:34:24 AM 20.43 68.774 0.1800499 7.251301 207 20.43
7/14/2021 12:49:24 AM 20.4275 68.7695 0.1793501 7.253401 214.8 20.4275
7/14/2021 1:04:24 AM 20.43 68.774 0.1790499 7.251301 222.45 20.43
7/14/2021 1:19:24 AM 20.4125 68.7425 0.178 7.247101 229.2499 20.4125
7/14/2021 1:34:24 AM 20.4125 68.7425 0.1776 7.242201 236.3 20.4125
7/14/2021 1:49:24 AM 20.41 68.738 0.1769501 7.247801 243.45 20.41
7/14/2021 2:04:24 AM 20.3925 68.7065 0.1762499 7.244301 252.55 20.3925
7/14/2021 2:19:24 AM 20.3775 68.6795 0.17555 7.237301 259.9 20.3775
7/14/2021 2:34:24 AM 20.36 68.648 0.1749 7.242901 266.45 20.36
7/14/2021 2:49:24 AM 20.325 68.585 0.17415 7.242201 275.0499 20.325
7/14/2021 3:04:25 AM 20.3075 68.5535 0.17315 7.238701 279.55 20.3075
7/14/2021 3:19:24 AM 20.29 68.522 0.1724 7.248501 284.1 20.29
7/14/2021 3:34:25 AM 20.2725 68.49049 0.1717501 7.237301 292.55 20.2725
7/14/2021 3:49:24 AM 20.255 68.459 0.1711 7.236601 301.2499 20.255
7/14/2021 4:04:24 AM 20.22 68.396 0.1704 7.236601 299.8 20.22
7/14/2021 4:19:25 AM 20.205 68.369 0.17 7.233101 304.2 20.205
7/14/2021 4:34:25 AM 20.1525 68.2745 0.1696499 7.227501 306.45 20.1525
7/14/2021 4:49:25 AM 20.1175 68.2115 0.1693 7.233101 311.85 20.1175
7/14/2021 5:04:25 AM 20.0825 68.1485 0.1693501 7.228901 312.2499 20.0825
7/14/2021 5:19:25 AM 20.065 68.117 0.1693501 7.224001 310.9501 20.065
7/14/2021 5:34:25 AM 20.0475 68.0855 0.1693501 7.229601 310.6499 20.0475
7/14/2021 5:49:25 AM 20.0125 68.0225 0.1693501 7.234501 307.1 20.0125
7/14/2021 6:04:25 AM 19.995 67.991 0.1693 7.228201 308.0499 19.995
7/14/2021 6:19:25 AM 19.9775 67.9595 0.1697 7.228201 304.85 19.9775
7/14/2021 6:34:25 AM 19.945 67.901 0.1693 7.234501 304.9 19.945
7/14/2021 6:49:25 AM 19.9275 67.8695 0.1693501 7.228201 304.55 19.9275
7/14/2021 7:04:25 AM 19.8925 67.8065 0.169 7.229601 303.6499 19.8925
7/14/2021 7:19:25 AM 19.89 67.802 0.1683 7.224001 303.1 19.89
7/14/2021 7:34:25 AM 19.855 67.739 0.1676 7.224001 301.8 19.855
7/14/2021 7:49:25 AM 19.84 67.712 0.1669 7.218399 299 19.84
7/14/2021 8:04:24 AM 19.805 67.649 0.1665501 7.217699 292.45 19.805
7/14/2021 8:19:25 AM 19.785 67.613 0.1659 7.219101 290.7 19.785
7/14/2021 8:34:24 AM 19.7675 67.5815 0.1656 7.214199 288.0499 19.7675
7/14/2021 8:49:24 AM 19.77 67.586 0.16485 7.212799 282.7501 19.77
7/14/2021 9:04:24 AM 19.8025 67.6445 0.16415 7.208599 279.2 19.8025
7/14/2021 9:19:24 AM 19.7875 67.6175 0.1637501 7.204399 276.7501 19.7875
7/14/2021 9:34:24 AM 19.785 67.613 0.1631 7.198099 273.45 19.785
7/14/2021 9:49:24 AM 19.7675 67.5815 0.1627501 7.184799 263.3 19.7675
7/14/2021 10:04:24 AM 19.7675 67.5815 0.1624 7.184099 272 19.7675
7/14/2021 10:19:24 AM 19.785 67.613 0.1617 7.184099 265.45 19.785
7/14/2021 10:34:24 AM 19.7825 67.6085 0.161 7.188999 266.4 19.7825
7/14/2021 10:49:24 AM 19.7825 67.6085 0.1603 7.193199 263 19.7825
7/14/2021 11:04:24 AM 19.8 67.64 0.1599501 7.189699 260.1 19.8
7/14/2021 11:19:24 AM 19.8175 67.6715 0.1596 7.188999 259.55 19.8175
7/14/2021 11:34:24 AM 19.8525 67.7345 0.1592499 7.194599 255.2499 19.8525
7/14/2021 11:49:24 AM 19.885 67.793 0.1592499 7.188999 253.9501 19.885
7/14/2021 12:04:24 PM 19.955 67.919 0.1592499 7.188299 248.3 19.955
7/14/2021 12:19:24 PM 20.0275 68.0495 0.1596 7.187599 240 20.0275
7/14/2021 12:34:24 PM 20.095 68.171 0.1599501 7.192499 237.2 20.095
7/14/2021 12:49:24 PM 20.1625 68.2925 0.1606499 7.193899 232.6499 20.1625
7/14/2021 1:04:24 PM 20.215 68.387 0.1613501 7.191799 228.85 20.215
7/14/2021 1:19:24 PM 20.2825 68.5085 0.1616 7.197399 223.3 20.2825
7/14/2021 1:34:25 PM 20.3525 68.63451 0.1623501 7.198099 221.55 20.3525
7/14/2021 1:49:24 PM 20.405 68.729 0.163 7.202299 218.3501 20.405
7/14/2021 2:04:25 PM 20.3525 68.63451 0.1641 7.205799 217.1 20.3525
7/14/2021 2:19:25 PM 20.215 68.387 0.1651 7.217699 218.0499 20.215
7/14/2021 2:34:25 PM 20.165 68.297 0.16515 7.213499 218.1 20.165
7/14/2021 2:49:25 PM 20.18 68.324 0.16515 7.212799 218.5 20.18
7/14/2021 3:04:25 PM 20.215 68.387 0.1651 7.216999 220.2499 20.215
7/14/2021 3:19:25 PM 20.2525 68.4545 0.1655 7.221201 222.2 20.2525
7/14/2021 3:34:25 PM 20.25 68.45 0.1658 7.212799 223.7 20.25
7/14/2021 3:49:25 PM 20.2525 68.4545 0.1662 7.216299 225.7501 20.2525
7/14/2021 4:04:25 PM 20.25 68.45 0.1662 7.222601 230.2499 20.25
7/14/2021 4:19:25 PM 20.25 68.45 0.1665501 7.222601 230.9501 20.25
7/14/2021 4:34:24 PM 20.285 68.513 0.1665501 7.223301 235.2 20.285
7/14/2021 4:49:24 PM 20.3375 68.6075 0.1665 7.226801 235.45 20.3375
7/14/2021 5:04:24 PM 20.355 68.639 0.1662 7.231001 237.9 20.355
7/14/2021 5:19:24 PM 20.3725 68.6705 0.1658 7.231001 238.55 20.3725
7/14/2021 5:34:24 PM 20.4075 68.7335 0.1658 7.231701 240.6499 20.4075
7/14/2021 5:49:24 PM 20.46 68.828 0.1655 7.230301 242.85 20.46
7/14/2021 6:19:24 PM 20.5275 68.9495 0.1651 7.225401 239.9 20.5275
7/14/2021 6:34:24 PM 20.545 68.981 0.1654499 7.231701 239 20.545
7/14/2021 6:49:24 PM 20.58 69.044 0.1654499 7.231001 242.7501 20.58
7/14/2021 7:04:25 PM 20.5775 69.0395 0.1654499 7.225401 238.2499 20.5775
7/14/2021 7:19:24 PM 20.58 69.044 0.1657501 7.231701 232.6 20.58
7/14/2021 7:34:24 PM 20.5625 69.0125 0.16615 7.215599 229.55 20.5625
7/14/2021 7:49:25 PM 20.5625 69.0125 0.1665 7.226101 226.15 20.5625
7/14/2021 8:04:25 PM 20.5625 69.0125 0.1672 7.226801 226.4 20.5625
7/14/2021 8:19:25 PM 20.545 68.981 0.1679 7.233101 222.3 20.545
7/14/2021 8:34:24 PM 20.5125 68.9225 0.1689501 7.230301 223.0499 20.5125
7/14/2021 8:49:24 PM 20.4575 68.8235 0.1702499 7.237301 217.15 20.4575
7/14/2021 9:04:24 PM 20.4075 68.7335 0.1713501 7.235901 209 20.4075
7/14/2021 9:19:24 PM 20.375 68.675 0.1724499 7.241501 205.3501 20.375
7/14/2021 9:34:24 PM 20.34 68.612 0.1734 7.240101 198.7501 20.34
7/14/2021 9:49:24 PM 20.32 68.576 0.1741 7.247101 192.5 20.32
7/14/2021 10:04:25 PM 20.305 68.549 0.17485 7.246401 186.1 20.3025
7/14/2021 10:19:24 PM 20.2675 68.4815 0.17485 7.250601 181 20.2675
7/14/2021 10:34:25 PM 20.235 68.423 0.1748001 7.252701 175.6499 20.235
7/14/2021 10:49:25 PM 20.2175 68.3915 0.1748001 7.252001 169.9501 20.2175
7/14/2021 11:04:25 PM 20.1825 68.3285 0.1742 7.256901 165.3 20.1825
7/14/2021 11:19:25 PM 20.1675 68.3015 0.1734499 7.256201 162.8 20.1675
7/14/2021 11:34:25 PM 20.15 68.27 0.1727501 7.255501 160.2499 20.15
7/15/2021 12:04:25 AM 20.0975 68.1755 0.1703501 7.247101 163 20.0975
7/15/2021 12:19:25 AM 20.0625 68.1125 0.1693 7.242901 166.1 20.0625
7/15/2021 12:34:25 AM 20.0275 68.0495 0.1679501 7.237301 170.15 20.0275
7/15/2021 12:49:25 AM 20.01 68.018 0.16685 7.236601 177.55 20.01
7/15/2021 1:04:25 AM 19.9925 67.9865 0.16585 7.238701 185.55 19.9925
7/15/2021 1:19:25 AM 19.96 67.92799 0.1648 7.233101 193.8 19.96
7/15/2021 1:34:25 AM 19.94 67.892 0.1638 7.226801 196.6 19.94
7/15/2021 1:49:25 AM 19.91 67.838 0.1630499 7.228201 198.4 19.91
7/15/2021 2:04:25 AM 19.8725 67.7705 0.1624 7.226801 198.0499 19.8725
7/15/2021 2:19:25 AM 19.84 67.712 0.1617 7.224701 198.3501 19.84
7/15/2021 2:34:25 AM 19.82 67.676 0.1613501 7.224001 194.85 19.82
7/15/2021 2:49:25 AM 19.785 67.613 0.161 7.223301 192.45 19.785
7/15/2021 3:04:25 AM 19.75 67.55 0.1606499 7.222601 190.6499 19.75
7/15/2021 3:19:25 AM 19.7325 67.5185 0.1606999 7.224701 191.45 19.7325
7/15/2021 3:34:25 AM 19.715 67.487 0.1603501 7.219801 186.8 19.715
7/15/2021 3:49:25 AM 19.6975 67.4555 0.1603501 7.219801 185.9501 19.6975
7/15/2021 4:04:25 AM 19.68 67.424 0.1603501 7.218399 186.3 19.68
7/15/2021 4:19:25 AM 19.6675 67.4015 0.1606999 7.217699 186.85 19.6675
7/15/2021 4:34:25 AM 19.6475 67.36549 0.1606999 7.217699 182.7501 19.6475
7/15/2021 4:49:24 AM 19.6275 67.3295 0.161 7.214199 183.5 19.6275
7/15/2021 5:04:25 AM 19.6125 67.3025 0.1610499 7.217699 182.7 19.6125
7/15/2021 5:19:25 AM 19.5925 67.2665 0.1614 7.219101 181.6 19.5925
7/15/2021 5:34:25 AM 19.5775 67.2395 0.1617501 7.219101 180 19.5775
7/15/2021 5:49:25 AM 19.5625 67.2125 0.1620499 7.223301 179.7 19.5625
7/15/2021 6:04:25 AM 19.525 67.145 0.16245 7.222601 178.6499 19.525
7/15/2021 6:19:25 AM 19.4925 67.0865 0.1628 7.227501 177.6 19.4925
7/15/2021 6:34:24 AM 19.4775 67.0595 0.1635 7.227501 177.3 19.4775
7/15/2021 6:49:25 AM 19.44 66.992 0.16415 7.228901 174.4 19.44
7/15/2021 7:04:24 AM 19.4225 66.9605 0.1645 7.229601 172.7 19.4225
7/15/2021 7:19:25 AM 19.405 66.929 0.1648 7.234501 169.85 19.405
7/15/2021 7:34:25 AM 19.39 66.902 0.1655501 7.233801 169.6499 19.39
7/15/2021 7:49:25 AM 19.3725 66.8705 0.1659 7.233801 168.8 19.3725
7/15/2021 8:04:25 AM 19.355 66.839 0.1665501 7.239401 168.1 19.355
7/15/2021 8:19:25 AM 19.335 66.80299 0.1672499 7.238701 165.7501 19.335
7/15/2021 8:34:25 AM 19.3375 66.8075 0.1679501 7.231701 164.45 19.3375
7/15/2021 8:49:25 AM 19.3375 66.8075 0.1686499 7.233801 161.15 19.3375
7/15/2021 9:04:25 AM 19.3375 66.8075 0.1693501 7.238001 160.2 19.3375
7/15/2021 9:19:25 AM 19.3525 66.8345 0.1700499 7.242201 160.15 19.3525
7/15/2021 9:34:26 AM 19.3875 66.8975 0.1710499 7.242901 155.55 19.3875
7/15/2021 9:49:25 AM 19.4425 66.9965 0.1717501 7.247101 153.15 19.4425
7/15/2021 10:04:25 AM 19.5075 67.1135 0.1720499 7.242201 152.4 19.5075
7/15/2021 10:19:25 AM 19.595 67.271 0.1724 7.243601 149.6499 19.595
7/15/2021 10:34:25 AM 19.665 67.397 0.17315 7.248501 150.8 19.665
7/15/2021 10:49:25 AM 19.73 67.514 0.1734 7.247101 147.3 19.73
7/15/2021 11:04:25 AM 19.765 67.577 0.1737501 7.252001 144.8 19.765
7/15/2021 11:19:25 AM 19.8175 67.6715 0.17415 7.252001 145 19.8175
7/15/2021 11:34:25 AM 19.85 67.73 0.1748001 7.250601 145.15 19.85
7/15/2021 11:49:25 AM 19.9025 67.8245 0.17515 7.252001 144.9 19.9025
7/15/2021 12:04:25 PM 19.9725 67.9505 0.17555 7.251301 143.3501 19.9725
7/15/2021 12:19:25 PM 20.0425 68.0765 0.1758001 7.249901 144.2 20.0425
7/15/2021 12:34:25 PM 20.11 68.198 0.1762 7.255501 144.55 20.11
7/15/2021 12:49:25 PM 20.1275 68.2295 0.17615 7.236601 161.4 20.1275
7/15/2021 1:04:25 PM 20.1975 68.3555 0.1762 7.256201 140.7 20.1975
7/15/2021 1:19:25 PM 20.25 68.45 0.17615 7.245701 136.85 20.25
7/15/2021 1:34:25 PM 20.25 68.45 0.17645 7.250601 134.0499 20.25
7/15/2021 1:49:25 PM 20.2475 68.4455 0.17685 7.255501 134.1 20.2475
7/15/2021 2:04:25 PM 20.2825 68.5085 0.1771999 7.254801 132.9501 20.2825
7/15/2021 2:19:25 PM 20.335 68.603 0.1771999 7.255501 133.6499 20.335
7/15/2021 2:34:25 PM 20.37 68.666 0.17755 7.260401 132.6499 20.37
7/15/2021 2:49:25 PM 20.42 68.756 0.1781999 7.260401 130.9501 20.42
7/15/2021 3:04:25 PM 20.5075 68.9135 0.1786 7.254101 130.6 20.5075
7/15/2021 3:19:25 PM 20.61 69.098 0.1789 7.254801 129.55 20.61
7/15/2021 3:34:25 PM 20.7 69.26 0.1792499 7.259701 129.55 20.7
7/15/2021 3:49:25 PM 20.7825 69.4085 0.1796 7.259701 127.45 20.7825
7/15/2021 4:04:25 PM 20.8375 69.5075 0.1799 7.261101 127.0499 20.8375
7/15/2021 4:19:25 PM 20.8875 69.5975 0.1806499 7.265301 126.3 20.8875
7/15/2021 4:34:25 PM 20.9225 69.6605 0.1813 7.270201 124 20.9225
7/15/2021 4:49:26 PM 20.9575 69.7235 0.1816499 7.270201 122.9 20.9575
7/15/2021 5:04:25 PM 20.9925 69.7865 0.1824 7.269501 123 20.9925
7/15/2021 5:19:25 PM 21.045 69.881 0.1831 7.275101 119.5 21.045
7/15/2021 5:34:25 PM 21.06 69.908 0.1834 7.273701 117.3 21.06
7/15/2021 5:49:25 PM 21.115 70.007 0.1837501 7.275101 113.8 21.115
7/15/2021 6:04:25 PM 21.13 70.034 0.18445 7.275801 115 21.13
7/15/2021 6:19:25 PM 21.1675 70.1015 0.1848 7.278601 112.15 21.1675
7/15/2021 6:34:26 PM 21.1825 70.1285 0.1855 7.280001 111.8 21.1825
7/15/2021 6:49:25 PM 21.2 70.16 0.1858 7.283501 110.85 21.2
7/15/2021 7:04:25 PM 21.22 70.196 0.1861999 7.283501 109.7501 21.22
7/15/2021 7:19:25 PM 21.235 70.223 0.18685 7.290501 106.55 21.235
7/15/2021 7:34:25 PM 21.255 70.259 0.1872 7.289801 104.5 21.255
7/15/2021 7:49:25 PM 21.2725 70.2905 0.1875501 7.294001 105.2 21.2725
7/15/2021 8:04:25 PM 21.2725 70.2905 0.1882499 7.293301 103.1 21.2725
7/15/2021 8:19:25 PM 21.2725 70.2905 0.1886 7.294701 101.3501 21.2725
7/15/2021 8:34:25 PM 21.235 70.223 0.189 7.299601 99.24988 21.235
7/15/2021 8:49:25 PM 21.2175 70.1915 0.1893 7.300301 98.6499 21.2175
7/15/2021 9:04:25 PM 21.2175 70.1915 0.1896499 7.303101 97.15002 21.2175
7/15/2021 9:19:25 PM 21.285 70.313 0.1896499 7.310101 96.19995 21.285
7/15/2021 9:34:25 PM 21.3375 70.4075 0.1896499 7.310101 96.04993 21.3375
7/15/2021 9:49:25 PM 21.3575 70.4435 0.1899501 7.309401 92.69995 21.3575
7/15/2021 10:04:25 PM 21.305 70.349 0.1903 7.308001 93.69995 21.305
7/15/2021 10:19:24 PM 21.2025 70.1645 0.191 7.308001 91.80005 21.2025
7/15/2021 10:34:25 PM 21.15 70.07 0.1917501 7.313601 90.80005 21.15
7/15/2021 10:49:24 PM 21.115 70.007 0.1920499 7.314301 90.95007 21.115
7/15/2021 11:04:25 PM 21.15 70.07 0.1924 7.315701 89.95007 21.15
7/15/2021 11:19:24 PM 21.2225 70.2005 0.1920499 7.308701 87.55005 21.2225
7/15/2021 11:34:24 PM 21.27 70.286 0.1923501 7.304501 88.09998 21.27
7/16/2021 12:04:24 AM 21.3225 70.3805 0.1923501 7.313601 91.30005 21.3225
7/16/2021 12:19:24 AM 21.2375 70.2275 0.1931 7.317801 95.84998 21.2375
7/16/2021 12:34:25 AM 21.115 70.007 0.19415 7.322001 94.40002 21.115
7/16/2021 12:49:25 AM 21.1675 70.1015 0.1945 7.3241 92 21.1675
7/16/2021 1:04:24 AM 21.22 70.196 0.1945 7.3297 87.5 21.22
7/16/2021 1:19:25 AM 21.22 70.196 0.1948 7.3269 85.09998 21.22
7/16/2021 1:34:25 AM 21.22 70.196 0.1955 7.3276 81.95007 21.22
7/16/2021 1:49:25 AM 21.2175 70.1915 0.19655 7.3332 80.80005 21.2175
7/16/2021 2:04:25 AM 21.1675 70.1015 0.1972 7.3332 80.24988 21.1675
7/16/2021 2:19:25 AM 21.045 69.881 0.1986499 7.3395 79.55005 21.0475
7/16/2021 2:34:25 AM 21.0475 69.8855 0.1997 7.3374 78.19995 21.0475
7/16/2021 2:49:25 AM 21.115 70.007 0.2 7.3423 77.5 21.115
7/16/2021 3:04:25 AM 21.1325 70.0385 0.2007 7.3465 75.75012 21.1325
7/16/2021 3:19:25 AM 21.15 70.07 0.2013501 7.3458 75.04993 21.15
7/16/2021 3:34:25 AM 21.1475 70.0655 0.2020499 7.3535 74.04993 21.1475
7/16/2021 3:49:25 AM 21.15 70.07 0.2027501 7.3521 73.24988 21.15
7/16/2021 4:04:25 AM 21.1475 70.0655 0.2034499 7.3507 71.90002 21.1475
7/16/2021 4:19:25 AM 21.0275 69.8495 0.20455 7.357 71.19995 21.0275
7/16/2021 4:34:25 AM 20.96 69.728 0.2052 7.357 71.19995 20.96
7/16/2021 4:49:25 AM 21.0275 69.8495 0.2052 7.3584 70.80005 21.0275
7/16/2021 5:19:25 AM 21.06 69.908 0.2048001 7.3577 68.44995 21.06
7/16/2021 5:34:24 AM 21.0625 69.9125 0.2045 7.3563 71.55005 21.0625
7/16/2021 5:49:25 AM 21.06 69.908 0.2041 7.3528 68.3501 21.06
7/16/2021 6:04:24 AM 21.06 69.908 0.2037501 7.3528 68.30005 21.06
7/16/2021 6:19:24 AM 20.925 69.665 0.20415 7.3514 68.80005 20.925
7/16/2021 6:34:25 AM 20.8725 69.5705 0.2042 7.3535 66.6499 20.8725
7/16/2021 7:04:25 AM 20.975 69.755 0.2031 7.3486 67.75012 20.975
7/16/2021 7:19:24 AM 20.995 69.791 0.2028001 7.3416 67.04993 20.995
7/16/2021 7:34:24 AM 21.01 69.818 0.2021 7.343 67.09998 21.01
7/16/2021 7:49:24 AM 20.975 69.755 0.2017501 7.3367 66.59998 20.975
7/16/2021 8:04:24 AM 20.87 69.566 0.2017501 7.3388 67.40002 20.87
7/16/2021 8:19:24 AM 20.855 69.539 0.2014 7.3381 69.09998 20.855
7/16/2021 8:34:24 AM 20.8375 69.5075 0.2010499 7.3346 69.04993 20.8375
7/16/2021 8:49:24 AM 20.8375 69.5075 0.2007 7.3346 68.84998 20.8375
7/16/2021 9:04:24 AM 20.84 69.512 0.2000499 7.3283 71.09998 20.84
7/16/2021 9:19:24 AM 20.8425 69.5165 0.1997 7.3276 70.55005 20.8425
7/16/2021 9:34:24 AM 20.8575 69.5435 0.1993501 7.3234 73.04993 20.8575
7/16/2021 9:49:24 AM 20.875 69.575 0.1986499 7.308001 73.95007 20.875
7/16/2021 10:04:24 AM 20.89 69.602 0.1983 7.310801 74.59998 20.89
7/16/2021 10:34:24 AM 20.9625 69.7325 0.1976 7.308701 76.75012 20.9625
7/16/2021 10:49:24 AM 21.0125 69.8225 0.1972 7.309401 76.04993 21.0125
7/16/2021 11:04:25 AM 21.03 69.854 0.1969 7.308701 76.69995 21.03
7/16/2021 11:19:25 AM 21.045 69.881 0.1969 7.310801 78.15002 21.045
7/16/2021 11:34:25 AM 21.065 69.917 0.1969 7.308701 77.5 21.065
7/16/2021 11:49:25 AM 21.08 69.944 0.1969 7.3248 82.19995 21.08
7/16/2021 12:19:25 PM 21.0975 69.9755 0.1969 7.303101 83 21.0975
7/16/2021 12:34:25 PM 21.1175 70.0115 0.1969 7.303101 80.59998 21.1175
7/16/2021 12:49:25 PM 21.135 70.043 0.1969 7.303801 64.6499 21.135
7/16/2021 1:04:25 PM 21.15 70.07 0.1969501 7.308701 63.55005 21.15
7/16/2021 1:19:25 PM 21.1525 70.0745 0.19655 7.309401 63.15002 21.1525
7/16/2021 1:34:25 PM 21.15 70.07 0.19655 7.309401 63.6499 21.15
7/16/2021 1:49:25 PM 21.135 70.043 0.1969501 7.308701 64.30005 21.135
7/16/2021 2:04:25 PM 21.1525 70.0745 0.1969 7.310101 64.24988 21.1525
7/16/2021 2:19:24 PM 21.17 70.106 0.1969501 7.310101 65.24988 21.17
7/16/2021 2:34:24 PM 21.17 70.106 0.1969 7.310101 66.3501 21.17
7/16/2021 2:49:25 PM 21.185 70.133 0.1969501 7.310101 67.3501 21.185
7/16/2021 3:04:24 PM 21.205 70.169 0.1969 7.309401 65.6499 21.205
7/16/2021 3:19:24 PM 21.22 70.196 0.1969 7.315001 65.59998 21.22
7/16/2021 3:34:24 PM 21.22 70.196 0.1969 7.313601 66.80005 21.22
7/16/2021 3:49:25 PM 21.2375 70.2275 0.1969 7.314301 67.09998 21.2375
7/16/2021 4:04:25 PM 21.255 70.259 0.1969 7.315001 66.04993 21.255
7/16/2021 4:19:25 PM 21.255 70.259 0.1969501 7.315701 67.04993 21.255
7/16/2021 4:34:25 PM 21.255 70.259 0.1969 7.319201 66.3501 21.255
7/16/2021 4:49:25 PM 21.2375 70.2275 0.1972499 7.3248 67.04993 21.2375
7/16/2021 5:04:25 PM 21.2025 70.1645 0.1976 7.320601 67.6499 21.2025
7/16/2021 5:19:24 PM 21.1875 70.1375 0.1979501 7.317801 68.80005 21.1875
7/16/2021 5:34:25 PM 21.1675 70.1015 0.198 7.318501 68.09998 21.1675
7/16/2021 5:49:24 PM 21.135 70.043 0.1979501 7.320601 68 21.135
7/16/2021 6:04:24 PM 21.0825 69.9485 0.1983 7.3248 68.69995 21.0825
7/16/2021 6:19:24 PM 21.03 69.854 0.1983501 7.3241 68.80005 21.03
7/16/2021 6:34:25 PM 21.015 69.827 0.1987 7.3255 69.5 21.015
7/16/2021 6:49:24 PM 20.9975 69.7955 0.1986499 7.329 68.40002 20.9975
7/16/2021 7:04:24 PM 20.995 69.791 0.1989501 7.3297 67.90002 20.995
7/16/2021 7:19:24 PM 21.065 69.917 0.1986499 7.3297 69.84998 21.065
7/16/2021 7:34:25 PM 21.1 69.98 0.1983 7.3283 68.09998 21.1
7/16/2021 7:49:24 PM 21.115 70.007 0.1982499 7.3283 67.40002 21.115
7/16/2021 8:04:25 PM 21.115 70.007 0.1982499 7.3325 66.04993 21.115
7/16/2021 8:19:25 PM 20.995 69.791 0.199 7.3388 66.6499 20.995
7/16/2021 8:34:25 PM 20.9075 69.6335 0.1993501 7.3346 66.40002 20.9075
7/16/2021 8:49:25 PM 20.9075 69.6335 0.1993001 7.3332 67.09998 20.9075
7/16/2021 9:04:25 PM 20.9775 69.75951 0.1989501 7.3332 67.3501 20.9775
7/16/2021 9:19:25 PM 20.9925 69.7865 0.1989501 7.3339 66.69995 20.9925
7/16/2021 9:34:25 PM 21.01 69.818 0.1989501 7.3388 65.55005 21.01
7/16/2021 10:04:26 PM 20.84 69.512 0.2004 7.3395 65.59998 20.84
7/16/2021 10:19:25 PM 20.7875 69.4175 0.2007 7.3388 64.90002 20.7875
7/16/2021 10:34:25 PM 20.84 69.512 0.2007 7.3381 63.59998 20.84
7/16/2021 10:49:25 PM 20.8725 69.5705 0.2007 7.3374 63.84998 20.8725
7/16/2021 11:04:25 PM 20.8725 69.5705 0.2007 7.3374 63.5 20.8725
7/16/2021 11:19:25 PM 20.8525 69.5345 0.2010499 7.3381 62.44995 20.8525
7/16/2021 11:34:25 PM 20.8375 69.5075 0.2014 7.3367 62.04993 20.8375
7/17/2021 12:04:25 AM 20.665 69.19701 0.2024 7.343 61.15002 20.665
7/17/2021 12:19:25 AM 20.735 69.323 0.2024 7.3381 61.19995 20.735
7/17/2021 12:34:25 AM 20.75 69.35 0.2027501 7.3437 60.3501 20.75
7/17/2021 12:49:25 AM 20.7675 69.3815 0.20315 7.343 59.04993 20.7675
7/17/2021 1:04:25 AM 20.7675 69.3815 0.2034499 7.343 59 20.7675
7/17/2021 1:19:25 AM 20.77 69.386 0.20415 7.3465 57.59998 20.77
7/17/2021 1:34:25 AM 20.665 69.19701 0.20485 7.3465 58.59998 20.665
7/17/2021 1:49:24 AM 20.6325 69.1385 0.20555 7.3521 57.6499 20.6325
7/17/2021 2:04:24 AM 20.6975 69.2555 0.2059 7.3584 57.30005 20.6975
7/17/2021 2:19:24 AM 20.7175 69.2915 0.2062499 7.3577 56.30005 20.7175
7/17/2021 2:49:25 AM 20.75 69.35 0.2069 7.3612 55.59998 20.75
7/17/2021 3:04:25 AM 20.75 69.35 0.2076 7.3675 55.95007 20.75
7/17/2021 3:19:24 AM 20.665 69.19701 0.2086499 7.3612 55.5 20.665
7/17/2021 3:34:24 AM 20.595 69.071 0.2096499 7.3668 55.19995 20.595
7/17/2021 3:49:24 AM 20.665 69.19701 0.2100499 7.3661 54.15002 20.665
7/17/2021 4:04:24 AM 20.735 69.323 0.2106999 7.371 58.59998 20.735
7/17/2021 4:19:25 AM 20.805 69.449 0.2110499 7.3766 66.69995 20.805
7/17/2021 4:34:25 AM 20.7675 69.3815 0.2117501 7.3773 65.30005 20.7675
7/17/2021 4:49:25 AM 20.63 69.134 0.2128001 7.3787 61.15002 20.63
7/17/2021 5:04:25 AM 20.6125 69.1025 0.21315 7.3836 55.19995 20.6125
7/17/2021 5:19:25 AM 20.65 69.17 0.21315 7.3801 53.09998 20.65
7/17/2021 5:49:25 AM 20.665 69.19701 0.2138 7.3829 52.6499 20.665
7/17/2021 6:04:25 AM 20.6475 69.1655 0.2141999 7.3801 53.5 20.6475
7/17/2021 6:19:25 AM 20.645 69.161 0.2145 7.3822 52.69995 20.645
7/17/2021 6:34:25 AM 20.6275 69.1295 0.2151999 7.3822 51.59998 20.6275
7/17/2021 6:49:25 AM 20.525 68.945 0.2159 7.3822 51 20.525
7/17/2021 7:04:26 AM 20.51 68.918 0.2162499 7.3808 51.95007 20.51
7/17/2021 7:19:26 AM 20.56 69.008 0.2162499 7.3871 50.95007 20.56
7/17/2021 7:34:25 AM 20.575 69.035 0.2162499 7.3864 52.44995 20.575
7/17/2021 7:49:25 AM 20.5925 69.0665 0.2162499 7.3871 50.75012 20.5925
7/17/2021 8:04:25 AM 20.6125 69.1025 0.2162499 7.3878 51.75012 20.6125
7/17/2021 8:19:25 AM 20.5925 69.0665 0.2166 7.3864 51.30005 20.5925
7/17/2021 8:34:25 AM 20.525 68.945 0.2173 7.3822 50.3501 20.525
7/17/2021 8:49:25 AM 20.475 68.855 0.218 7.3822 50.75012 20.475
7/17/2021 9:04:25 AM 20.545 68.981 0.2180499 7.3815 51.44995 20.545
7/17/2021 9:19:25 AM 20.63 69.134 0.2179501 7.3822 51.59998 20.63
7/17/2021 9:34:25 AM 20.68 69.224 0.2179501 7.3829 49.5 20.68
7/17/2021 9:49:25 AM 20.7175 69.2915 0.218 7.3815 49.84998 20.7175
7/17/2021 10:04:25 AM 20.6475 69.1655 0.2183501 7.3808 50.24988 20.6475
7/17/2021 10:19:25 AM 20.6125 69.1025 0.2190499 7.3822 49.19995 20.6125
7/17/2021 10:34:25 AM 20.63 69.134 0.2190499 7.3822 49.55005 20.63
7/17/2021 10:49:25 AM 20.665 69.19701 0.219 7.3822 49.19995 20.665
7/17/2021 11:04:25 AM 20.6825 69.2285 0.2191 7.3822 49.19995 20.6825
7/17/2021 11:19:25 AM 20.6825 69.2285 0.2194 7.3836 48.90002 20.6825
7/17/2021 11:34:25 AM 20.7175 69.2915 0.2197501 7.3892 48.55005 20.7175
7/17/2021 11:49:25 AM 20.735 69.323 0.2197501 7.3878 49.30005 20.735
7/17/2021 12:04:25 PM 20.7525 69.3545 0.2197501 7.3871 50.6499 20.7525
7/17/2021 12:19:25 PM 20.7725 69.3905 0.2197501 7.3864 49.3501 20.7725
7/17/2021 12:34:25 PM 20.805 69.449 0.2197501 7.3878 50.04993 20.805
7/17/2021 12:49:25 PM 20.825 69.485 0.2197501 7.3913 50.30005 20.825
7/17/2021 1:04:25 PM 20.8425 69.5165 0.2198001 7.3871 49.3501 20.8425
7/17/2021 1:19:25 PM 20.875 69.575 0.2197501 7.3913 50.3501 20.875
7/17/2021 1:34:25 PM 20.89 69.602 0.2197501 7.3934 49.55005 20.89
7/17/2021 1:49:25 PM 20.91 69.638 0.2201 7.392 50.04993 20.91
7/17/2021 2:04:25 PM 20.9275 69.6695 0.22015 7.3913 50.69995 20.9275
7/17/2021 2:19:25 PM 20.98 69.764 0.2200499 7.3927 50.75012 20.98
7/17/2021 2:34:25 PM 21.03 69.854 0.2201 7.3906 50.59998 21.03
7/17/2021 2:49:25 PM 21.065 69.917 0.2200499 7.3913 51.09998 21.065
7/17/2021 3:04:26 PM 21.1 69.98 0.2196999 7.3969 50.59998 21.1
7/17/2021 3:19:26 PM 21.15 70.07 0.2197501 7.3976 50.6499 21.15
7/17/2021 3:34:26 PM 21.205 70.169 0.2197501 7.3948 51.09998 21.205
7/17/2021 3:49:26 PM 21.22 70.196 0.2196999 7.4025 50.95007 21.22
7/17/2021 4:04:26 PM 21.235 70.223 0.2196999 7.4025 50.75012 21.235
7/17/2021 4:19:25 PM 21.2375 70.2275 0.2196999 7.4011 51.84998 21.2375
7/17/2021 4:34:25 PM 21.24 70.232 0.2197501 7.4081 51.44995 21.24
7/17/2021 4:49:25 PM 21.1875 70.1375 0.2196999 7.4081 52.04993 21.1875
7/17/2021 5:04:25 PM 21.135 70.043 0.2197501 7.4074 52.5 21.135
7/17/2021 5:19:25 PM 21.1 69.98 0.2198001 7.4074 52.15002 21.1
7/17/2021 5:34:25 PM 21.1 69.98 0.2194 7.4123 52.3501 21.1
7/17/2021 5:49:25 PM 21.17 70.106 0.2186999 7.4067 51.80005 21.17
7/17/2021 6:04:25 PM 21.2025 70.1645 0.218 7.4116 51.3501 21.2025
7/17/2021 6:19:25 PM 21.2025 70.1645 0.2173501 7.4109 50.95007 21.2025
7/17/2021 6:34:25 PM 21.2025 70.1645 0.2169501 7.4102 51.6499 21.2025
7/17/2021 6:49:25 PM 21.0975 69.9755 0.2166 7.4067 52 21.0975
7/17/2021 7:04:25 PM 20.995 69.791 0.2162499 7.406 51.40002 20.995
7/17/2021 7:19:25 PM 20.96 69.728 0.2152499 7.4116 51.40002 20.96
7/17/2021 7:34:25 PM 21.0475 69.8855 0.2141999 7.4102 50.90002 21.0475
7/17/2021 7:49:25 PM 21.0625 69.9125 0.2135 7.4116 51.30005 21.0625
7/17/2021 8:04:25 PM 21.08 69.944 0.21245 7.4074 51.69995 21.08
7/17/2021 8:19:25 PM 21.08 69.944 0.2117501 7.4011 51.40002 21.08
7/17/2021 8:34:25 PM 21.045 69.881 0.2110499 7.4004 51.30005 21.045
7/17/2021 8:49:25 PM 20.9075 69.6335 0.2107501 7.4025 51 20.9075
7/17/2021 9:04:25 PM 20.8375 69.5075 0.2104 7.4011 50.59998 20.8375
7/17/2021 9:19:25 PM 20.9425 69.6965 0.2086499 7.4018 57.6499 20.9425
7/17/2021 9:34:25 PM 20.995 69.791 0.2072499 7.4067 63.80005 20.995
7/17/2021 9:49:25 PM 21.0275 69.8495 0.20655 7.406 60.84998 21.0275
7/17/2021 10:04:25 PM 20.8725 69.5705 0.2066 7.3857 58.30005 20.8725
7/17/2021 10:19:25 PM 20.7525 69.3545 0.2069501 7.3927 54.55005 20.7525
7/17/2021 10:34:25 PM 20.7525 69.3545 0.2066 7.3934 52.44995 20.7525
7/17/2021 10:49:24 PM 20.8225 69.4805 0.2062499 7.3906 52.40002 20.8225
7/17/2021 11:04:24 PM 20.8375 69.5075 0.2059 7.3857 51.24988 20.8375
7/17/2021 11:19:25 PM 20.8375 69.5075 0.2059 7.3871 52.6499 20.8375
7/17/2021 11:34:25 PM 20.8375 69.5075 0.20555 7.3871 53.44995 20.82
7/18/2021 12:04:25 AM 20.6475 69.1655 0.2061999 7.3878 55.6499 20.6475
7/18/2021 12:19:25 AM 20.6825 69.2285 0.2062499 7.3927 56.59998 20.6825
7/18/2021 12:34:25 AM 20.7 69.26 0.2062499 7.3913 58.59998 20.7
7/18/2021 12:49:25 AM 20.68 69.224 0.2066 7.3976 62.09998 20.68
7/18/2021 1:04:25 AM 20.6625 69.1925 0.2062499 7.3913 64.19995 20.6625
7/18/2021 1:19:25 AM 20.6475 69.1655 0.20555 7.3857 68.15002 20.6475
7/18/2021 1:34:25 AM 20.6275 69.1295 0.2045 7.3871 72.24988 20.6275
7/18/2021 1:49:25 AM 20.61 69.098 0.2028001 7.3815 78.84998 20.61
7/18/2021 2:04:25 AM 20.5925 69.0665 0.201 7.3815 81.24988 20.5925
7/18/2021 2:19:25 AM 20.5925 69.0665 0.2003501 7.3829 85.30005 20.5925
7/18/2021 2:34:25 AM 20.5575 69.0035 0.2010499 7.3808 89.95007 20.5575
7/18/2021 2:49:25 AM 20.5225 68.9405 0.2021 7.3724 100.0499 20.5225
7/18/2021 3:04:25 AM 20.455 68.819 0.2007 7.3829 141.6 20.455
7/18/2021 3:19:25 AM 20.3525 68.63451 0.19515 7.3612 209.6499 20.3525
7/18/2021 3:34:25 AM 20.21 68.378 0.1858 7.3388 269.1 20.21
7/18/2021 3:49:25 AM 20.07 68.126 0.17615 7.317801 304.55 20.0725
7/18/2021 4:04:25 AM 19.865 67.757 0.1692499 7.294001 319.7 19.865
7/18/2021 4:19:25 AM 19.83 67.694 0.1658 7.215599 312.9 19.83
7/18/2021 4:34:25 AM 19.83 67.694 0.16685 7.265301 313.15 19.83
7/18/2021 4:49:25 AM 19.8125 67.6625 0.1703001 7.249901 334.3 19.8125
7/18/2021 5:04:25 AM 19.7775 67.5995 0.1713001 7.254101 384.6499 19.7775
7/18/2021 5:19:25 AM 19.725 67.505 0.1699501 7.246401 439.9501 19.725
7/18/2021 5:34:25 AM 19.6575 67.3835 0.16615 7.229601 479.8 19.6575
7/18/2021 5:49:25 AM 19.57 67.226 0.1619501 7.219801 510.8 19.57
7/18/2021 6:04:25 AM 19.5 67.1 0.15815 7.205799 527.6499 19.5
7/18/2021 6:19:25 AM 19.4125 66.9425 0.1547 7.201599 525 19.4125
7/18/2021 6:34:24 AM 19.26 66.668 0.1526499 7.191799 534 19.26
7/18/2021 6:49:25 AM 19.24 66.632 0.1509 7.182699 521.85 19.24
7/18/2021 7:04:25 AM 19.205 66.569 0.1499 7.181299 528.7 19.205
7/18/2021 7:19:24 AM 19.1725 66.5105 0.1491999 7.166599 542.7 19.1725
7/18/2021 7:34:25 AM 19.1375 66.4475 0.1485 7.171499 572.8999 19.1375
7/18/2021 7:49:24 AM 19.12 66.416 0.14815 7.177799 607.1501 19.12
7/18/2021 8:04:24 AM 19.0825 66.3485 0.14815 7.177099 637.7 19.0825
7/18/2021 8:19:25 AM 19.065 66.317 0.14845 7.182699 655.75 19.065
7/18/2021 8:34:25 AM 19.0325 66.2585 0.1495 7.186199 661.3501 19.0325
7/18/2021 8:49:25 AM 18.945 66.101 0.1512499 7.192499 653.1001 18.945
7/18/2021 9:04:25 AM 18.9125 66.0425 0.153 7.200899 655.5 18.9125
7/18/2021 9:19:25 AM 18.91 66.038 0.154 7.206499 640.6001 18.91
7/18/2021 9:34:25 AM 18.8775 65.9795 0.1551 7.226101 638.8999 18.8775
7/18/2021 9:49:25 AM 18.8575 65.9435 0.1557501 7.231001 638.0498 18.8575
7/18/2021 10:04:25 AM 18.84 65.912 0.1557501 7.235901 623.6001 18.84
7/18/2021 10:19:25 AM 18.82 65.876 0.1557501 7.245701 626.25 18.82
7/18/2021 10:34:25 AM 18.79 65.82201 0.1554 7.245701 621.5 18.79
7/18/2021 10:49:25 AM 18.77 65.786 0.1547 7.249901 617.55 18.77
7/18/2021 11:04:25 AM 18.74 65.732 0.1543501 7.240101 613.5 18.74
7/18/2021 11:19:25 AM 18.7175 65.6915 0.1536999 7.250601 608.8999 18.7175
7/18/2021 11:34:25 AM 18.685 65.633 0.1533 7.255501 601.3501 18.685
7/18/2021 11:49:25 AM 18.6675 65.6015 0.153 7.254801 596.8 18.6675
7/18/2021 12:04:25 PM 18.635 65.543 0.1526999 7.259701 586.7 18.635
7/18/2021 12:19:25 PM 18.565 65.417 0.1526499 7.259701 577.3999 18.565
7/18/2021 12:34:25 PM 18.5775 65.4395 0.1523 7.266001 571.8499 18.5775
7/18/2021 12:49:25 PM 18.5825 65.4485 0.1523 7.266701 566.6499 18.5825
7/18/2021 1:04:25 PM 18.5625 65.4125 0.1519501 7.265301 557.3 18.5625
7/18/2021 1:19:25 PM 18.5625 65.4125 0.1516 7.268801 569.1001 18.5625
7/18/2021 1:34:25 PM 18.5475 65.3855 0.1512499 7.263201 563.2 18.5475
7/18/2021 1:49:25 PM 18.545 65.381 0.1509501 7.266001 571.1501 18.545
7/18/2021 2:04:25 PM 18.4925 65.2865 0.1501999 7.265301 571.55 18.4925
7/18/2021 2:19:25 PM 18.3925 65.1065 0.1502499 7.265301 584.75 18.3925
7/18/2021 2:34:24 PM 18.46 65.228 0.1491999 7.254101 590.55 18.46
7/18/2021 2:49:24 PM 18.5475 65.3855 0.1481 7.250601 599.8999 18.5475
7/18/2021 3:04:25 PM 18.58 65.444 0.1471 7.241501 599.6001 18.58
7/18/2021 3:19:25 PM 18.5625 65.4125 0.1464 7.228901 609.7 18.5625
7/18/2021 3:34:25 PM 18.4775 65.25951 0.1456999 7.220501 620 18.4775
7/18/2021 3:49:25 PM 18.445 65.201 0.1446999 7.215599 621.25 18.445
7/18/2021 4:04:25 PM 18.425 65.165 0.144 7.206499 631.1501 18.425
7/18/2021 4:19:25 PM 18.375 65.075 0.1433501 7.202299 627.5 18.375
7/18/2021 4:34:24 PM 18.34 65.012 0.143 7.193199 634.3501 18.34
7/18/2021 4:49:24 PM 18.3925 65.1065 0.1423001 7.186899 621.8 18.3925
7/18/2021 5:04:24 PM 18.425 65.165 0.14155 7.187599 624.25 18.425
7/18/2021 5:19:24 PM 18.4425 65.1965 0.1411999 7.172899 601.3 18.4425
7/18/2021 5:34:25 PM 18.4575 65.2235 0.1411999 7.168699 586.3999 18.4575
7/18/2021 5:49:25 PM 18.3725 65.0705 0.14155 7.158899 574.3501 18.3725
7/18/2021 6:04:25 PM 18.305 64.949 0.1419501 7.153999 553.8 18.305
7/18/2021 6:19:25 PM 18.255 64.859 0.1423001 7.157499 542.45 18.255
7/18/2021 6:34:25 PM 18.29 64.922 0.1423001 7.148399 512.9501 18.29
7/18/2021 6:49:25 PM 18.355 65.039 0.1426499 7.149099 492.7501 18.355
7/18/2021 7:04:25 PM 18.39 65.102 0.1426 7.142799 470.2 18.39
7/18/2021 7:19:25 PM 18.425 65.165 0.1429 7.143499 449.2 18.425
7/18/2021 7:34:25 PM 18.425 65.165 0.1433 7.138599 427 18.425
7/18/2021 7:49:25 PM 18.3875 65.0975 0.144 7.138599 406.15 18.3875
7/18/2021 8:04:25 PM 18.305 64.949 0.1446499 7.138599 394.4 18.305
7/18/2021 8:19:25 PM 18.2175 64.7915 0.1450499 7.133699 377.0499 18.2175
7/18/2021 8:49:25 PM 18.305 64.949 0.1454 7.134399 346.2 18.305
7/18/2021 9:04:24 PM 18.2675 64.8815 0.1461 7.133699 330.9 18.2675
7/18/2021 9:19:24 PM 18.235 64.823 0.1464 7.134399 320.2 18.235
7/18/2021 9:34:24 PM 18.2 64.76 0.1467501 7.129499 303.7 18.2
7/18/2021 9:49:24 PM 18.1825 64.7285 0.14745 7.134399 289.9501 18.1825
7/18/2021 10:04:24 PM 18.165 64.69701 0.1478 7.137899 279.15 18.165
7/18/2021 10:19:24 PM 18.1475 64.6655 0.14815 7.138599 268.85 18.1475
7/18/2021 10:34:24 PM 18.1325 64.6385 0.14845 7.137899 258.3501 18.1325
7/18/2021 10:49:24 PM 18.13 64.634 0.14885 7.143499 253.5 18.13
7/18/2021 11:04:24 PM 18.115 64.607 0.1491999 7.137899 243.0499 18.115
7/18/2021 11:19:24 PM 18.1125 64.6025 0.1495501 7.143499 236.5 18.1125
7/18/2021 11:34:24 PM 18.045 64.481 0.1501999 7.149099 231.9501 18.045
7/19/2021 12:04:24 AM 18.0625 64.5125 0.1509 7.148399 235.45 18.0625
7/19/2021 12:19:24 AM 18.0625 64.5125 0.1509501 7.147699 238.6 18.0625
7/19/2021 12:49:24 AM 18.045 64.481 0.1516 7.146999 212.5 18.045
7/19/2021 1:04:24 AM 18.01 64.418 0.1523 7.153299 198 18.01
7/19/2021 1:19:24 AM 17.975 64.355 0.1526499 7.152599 194.55 17.975
7/19/2021 1:34:24 AM 17.925 64.265 0.153 7.151899 185.85 17.925
7/19/2021 2:04:24 AM 17.84 64.112 0.1537501 7.157499 179.2 17.84
7/19/2021 2:19:24 AM 17.8375 64.1075 0.1540499 7.158199 175 17.8375
7/19/2021 2:34:24 AM 17.8375 64.1075 0.1544 7.161699 171.3 17.8375
7/19/2021 2:49:24 AM 17.82 64.076 0.1547501 7.158899 168.8 17.82
7/19/2021 3:04:24 AM 17.82 64.076 0.1551 7.157499 163.9501 17.82
7/19/2021 3:19:24 AM 17.8025 64.0445 0.1554 7.156799 161.9 17.8025
7/19/2021 3:34:25 AM 17.785 64.013 0.1558 7.157499 160.4 17.785
7/19/2021 3:49:25 AM 17.7675 63.9815 0.15615 7.158199 157.6499 17.7675
7/19/2021 4:04:25 AM 17.7325 63.9185 0.1564499 7.158899 155.6 17.7325
7/19/2021 4:19:25 AM 17.715 63.887 0.1568 7.163099 152.45 17.715
7/19/2021 4:34:25 AM 17.7 63.86 0.15715 7.161699 149.6499 17.7
7/19/2021 4:49:25 AM 17.665 63.797 0.1575 7.162399 147.2 17.665
7/19/2021 5:04:25 AM 17.6475 63.7655 0.15785 7.167999 146.6 17.6475
7/19/2021 5:19:25 AM 17.6125 63.7025 0.1582 7.167299 143.7501 17.6125
7/19/2021 5:34:25 AM 17.5775 63.6395 0.1585501 7.167999 143.4 17.5775
7/19/2021 5:49:24 AM 17.455 63.419 0.1592499 7.172899 142.1 17.455
7/19/2021 6:04:24 AM 17.44 63.392 0.1599501 7.171499 141.6499 17.44
7/19/2021 6:19:24 AM 17.455 63.419 0.1599501 7.173599 141.4 17.455
7/19/2021 6:34:25 AM 17.4575 63.4235 0.1603 7.177799 138.5 17.4575
7/19/2021 6:49:25 AM 17.455 63.419 0.1606 7.176399 139.6499 17.455
7/19/2021 7:04:25 AM 17.455 63.419 0.161 7.183399 137.45 17.455
7/19/2021 7:19:25 AM 17.4575 63.4235 0.1613 7.181999 136.45 17.4575
7/19/2021 7:34:25 AM 17.4575 63.4235 0.1613501 7.181999 137.9 17.4575
7/19/2021 8:04:25 AM 17.4725 63.4505 0.162 7.181299 137.85 17.4725
7/19/2021 8:19:25 AM 17.4725 63.4505 0.162 7.186899 133.2499 17.4725
7/19/2021 8:34:25 AM 17.3675 63.2615 0.1626499 7.187599 135 17.3675
7/19/2021 8:49:25 AM 17.265 63.077 0.1637501 7.188999 130.6499 17.265
7/19/2021 9:04:25 AM 17.2675 63.0815 0.1637501 7.178499 141.7501 17.2675
7/19/2021 9:19:25 AM 17.235 63.023 0.1644499 7.183399 138 17.235
7/19/2021 9:34:25 AM 17.25 63.05 0.1644499 7.203699 141.7501 17.25
7/19/2021 9:49:25 AM 17.235 63.023 0.1652 7.177799 140 17.235
7/19/2021 10:04:25 AM 17.2675 63.0815 0.1651 7.184099 134.85 17.2675
7/19/2021 10:19:25 AM 17.3225 63.1805 0.1655501 7.188999 130.7501 17.3225
7/19/2021 10:34:25 AM 17.375 63.275 0.1655 7.189699 128.9501 17.375
7/19/2021 10:49:25 AM 17.4475 63.4055 0.1655 7.193899 124.3501 17.4475
7/19/2021 11:04:25 AM 17.5125 63.5225 0.1659 7.194599 123.0499 17.5125
7/19/2021 11:19:25 AM 17.55 63.59 0.16585 7.199499 120.9 17.55
7/19/2021 11:34:25 AM 17.6525 63.7745 0.16585 7.200199 119.9 17.6525
7/19/2021 11:49:25 AM 17.74 63.932 0.1659 7.198099 119.2 17.74
7/19/2021 12:04:25 PM 17.8425 64.1165 0.16585 7.198799 117.45 17.8425
7/19/2021 12:19:25 PM 17.9125 64.2425 0.16585 7.202299 115.0499 17.9125
7/19/2021 12:34:25 PM 17.9775 64.3595 0.16585 7.198099 114 17.9825
7/19/2021 12:49:25 PM 17.9625 64.3325 0.1662 7.202999 113.9 17.9625
7/19/2021 1:04:25 PM 17.995 64.391 0.1665 7.202999 112.9 17.995
7/19/2021 1:19:25 PM 18.0475 64.4855 0.1665 7.201599 112.9 18.0475
7/19/2021 1:34:26 PM 18.17 64.706 0.16615 7.206499 113.2499 18.17
7/19/2021 1:49:26 PM 18.36 65.048 0.1658 7.202299 111.7501 18.36
7/19/2021 2:04:25 PM 18.43 65.174 0.1658 7.205799 112.85 18.43
7/19/2021 2:19:25 PM 18.48 65.264 0.1658 7.206499 113.6499 18.48
7/19/2021 2:34:25 PM 18.55 65.39 0.1658 7.210699 113.5 18.55
7/19/2021 2:49:25 PM 18.445 65.201 0.1665 7.207899 113.9 18.445
7/19/2021 3:04:25 PM 18.425 65.165 0.1668001 7.212099 113.55 18.425
7/19/2021 3:19:25 PM 18.4425 65.1965 0.1672 7.212099 113.5 18.4425
7/19/2021 3:34:25 PM 18.4625 65.2325 0.16755 7.213499 113.85 18.4625
7/19/2021 3:49:25 PM 18.4975 65.2955 0.1675 7.209999 113.55 18.4975
7/19/2021 4:04:25 PM 18.53 65.354 0.1679 7.212799 113.2 18.53
7/19/2021 4:19:25 PM 18.5675 65.4215 0.1682 7.216299 113.6 18.5675
7/19/2021 4:34:25 PM 18.6 65.48 0.16855 7.217699 113.2 18.6
7/19/2021 4:49:25 PM 18.6175 65.5115 0.1689501 7.215599 111.7501 18.6175
7/19/2021 5:04:25 PM 18.655 65.579 0.1692499 7.216299 110.85 18.655
7/19/2021 5:19:25 PM 18.67 65.606 0.1696 7.221201 110 18.67
7/19/2021 5:34:25 PM 18.69 65.642 0.1699501 7.221901 108.7501 18.69
7/19/2021 5:49:25 PM 18.7225 65.7005 0.1703001 7.227501 108 18.7225
7/19/2021 6:04:25 PM 18.74 65.732 0.1706499 7.225401 106.3501 18.74
7/19/2021 6:19:25 PM 18.7575 65.7635 0.1713501 7.231701 106.5 18.7575
7/19/2021 6:34:25 PM 18.76 65.768 0.1717 7.231701 105.9 18.76
7/19/2021 6:49:25 PM 18.775 65.795 0.1720499 7.231001 104.2499 18.775
7/19/2021 7:04:25 PM 18.7925 65.8265 0.1723501 7.237301 103.55 18.7925
7/19/2021 7:19:25 PM 18.7925 65.8265 0.1727 7.238001 100.6499 18.7925
7/19/2021 7:34:25 PM 18.7925 65.8265 0.1730499 7.240801 102.0499 18.7925
7/19/2021 7:49:25 PM 18.81 65.858 0.1734499 7.247101 100.7501 18.81
7/19/2021 8:04:25 PM 18.8125 65.8625 0.1734 7.247101 100.2499 18.8125
7/19/2021 8:19:25 PM 18.8275 65.8895 0.1737501 7.247801 100.3501 18.8275
7/19/2021 8:34:25 PM 18.83 65.894 0.1738001 7.249901 98.59998 18.83
7/19/2021 8:49:25 PM 18.83 65.894 0.1741 7.251301 96.30005 18.83
7/19/2021 9:04:25 PM 18.8325 65.8985 0.1745 7.250601 97.55005 18.8325
7/19/2021 9:19:25 PM 18.83 65.894 0.1744 7.256201 95.90002 18.83
7/19/2021 9:34:25 PM 18.8125 65.8625 0.1748001 7.255501 95.80005 18.8125
7/19/2021 10:04:25 PM 18.8125 65.8625 0.1752 7.261801 96.95007 18.8125
7/19/2021 10:19:25 PM 18.815 65.867 0.1752 7.261101 94.84998 18.815
7/19/2021 10:49:25 PM 18.815 65.867 0.1755 7.248501 91.55005 18.815
7/19/2021 11:04:25 PM 18.835 65.903 0.17555 7.242201 92.15002 18.835
7/19/2021 11:19:25 PM 18.815 65.867 0.1759 7.251301 93.09998 18.815
7/19/2021 11:34:25 PM 18.815 65.867 0.1762499 7.252701 91.75012 18.815
7/20/2021 12:04:25 AM 18.85 65.93 0.1769 7.257601 93.44995 18.85
7/20/2021 12:19:25 AM 18.9025 66.0245 0.1773001 7.258301 106.2499 18.9025
7/20/2021 12:34:25 AM 18.935 66.083 0.1776 7.258301 109.85 18.935
7/20/2021 12:49:24 AM 18.9525 66.1145 0.178 7.256901 107.3 18.9525
7/20/2021 1:04:25 AM 18.955 66.119 0.1783001 7.257601 98 18.955
7/20/2021 1:19:24 AM 18.9225 66.0605 0.179 7.257601 89.59998 18.9225
7/20/2021 1:34:24 AM 18.9225 66.0605 0.1793501 7.257601 89 18.9225
7/20/2021 1:49:25 AM 18.9025 66.0245 0.1800499 7.259001 88 18.9025
7/20/2021 2:04:24 AM 18.87 65.966 0.1804 7.259001 87.6499 18.87
7/20/2021 2:19:24 AM 18.87 65.966 0.1811 7.263901 86.15002 18.87
7/20/2021 2:34:24 AM 18.8675 65.9615 0.1814499 7.263201 85.15002 18.8675
7/20/2021 2:49:24 AM 18.8525 65.9345 0.1818001 7.264601 85.80005 18.8525
7/20/2021 3:04:24 AM 18.8525 65.9345 0.1825 7.261801 85.80005 18.8525
7/20/2021 3:19:24 AM 18.8325 65.8985 0.1828001 7.266001 84.55005 18.8325
7/20/2021 3:34:24 AM 18.835 65.903 0.1832 7.266701 85.24988 18.835
7/20/2021 3:49:24 AM 18.8 65.84 0.18355 7.266701 84.15002 18.8
7/20/2021 4:04:24 AM 18.8 65.84 0.18355 7.268801 85.19995 18.8
7/20/2021 4:34:25 AM 18.7675 65.7815 0.1846 7.266701 84.84998 18.7675
7/20/2021 4:49:24 AM 18.73 65.714 0.1849 7.268801 84.15002 18.73
7/20/2021 5:04:24 AM 18.715 65.687 0.1852499 7.267401 83.80005 18.715
7/20/2021 5:19:24 AM 18.7325 65.7185 0.1853001 7.268101 83.80005 18.7325
7/20/2021 5:34:24 AM 18.715 65.687 0.1856499 7.270201 83.3501 18.715
7/20/2021 5:49:24 AM 18.6975 65.6555 0.1856 7.268801 83.3501 18.6975
7/20/2021 6:04:25 AM 18.66 65.588 0.1856 7.269501 83.40002 18.66
7/20/2021 6:19:25 AM 18.6425 65.5565 0.1856 7.266701 83.84998 18.6425
7/20/2021 6:34:25 AM 18.645 65.561 0.1856499 7.268101 84.19995 18.645
7/20/2021 6:49:25 AM 18.61 65.498 0.1856499 7.268101 82.09998 18.61
7/20/2021 7:04:25 AM 18.61 65.498 0.1852499 7.269501 82 18.61
7/20/2021 7:19:25 AM 18.61 65.498 0.1852499 7.269501 84.15002 18.61
7/20/2021 7:34:25 AM 18.6125 65.5025 0.1853001 7.268801 82.15002 18.6125
7/20/2021 7:49:25 AM 18.61 65.498 0.1853001 7.270201 82.30005 18.61
7/20/2021 8:04:25 AM 18.6275 65.5295 0.1849501 7.273001 83.04993 18.6275
7/20/2021 8:19:25 AM 18.645 65.561 0.1849 7.272301 82.04993 18.645
7/20/2021 8:34:25 AM 18.56 65.408 0.1853001 7.267401 91.84998 18.56
7/20/2021 8:49:25 AM 18.5425 65.3765 0.1853001 7.273001 87.3501 18.5425
7/20/2021 9:04:25 AM 18.5775 65.4395 0.1853001 7.273701 85.09998 18.5775
7/20/2021 9:19:25 AM 18.665 65.597 0.1849501 7.273001 83.19995 18.665
7/20/2021 9:34:24 AM 18.6825 65.6285 0.1849501 7.273001 81.30005 18.6825
7/20/2021 9:49:24 AM 18.7 65.66 0.1849501 7.273701 79.55005 18.7
7/20/2021 10:04:25 AM 18.75 65.75 0.1849501 7.274401 81.04993 18.75
7/20/2021 10:19:25 AM 18.785 65.813 0.1849501 7.268101 79.95007 18.785
7/20/2021 10:34:24 AM 18.8875 65.9975 0.1846 7.268101 80.04993 18.8875
7/20/2021 10:49:25 AM 18.975 66.155 0.1842499 7.268101 78.95007 18.975
7/20/2021 11:04:25 AM 19.0775 66.3395 0.18385 7.268101 78.95007 19.0775
7/20/2021 11:19:24 AM 19.1275 66.4295 0.1839 7.268801 79 19.1275
7/20/2021 11:34:24 AM 19.2175 66.5915 0.18355 7.266701 79.30005 19.2175
7/20/2021 11:49:24 AM 19.3 66.74 0.18315 7.268101 79.24988 19.3
7/20/2021 12:04:24 PM 19.405 66.929 0.18315 7.267401 78.24988 19.405
7/20/2021 12:19:24 PM 19.4925 67.0865 0.1828001 7.285601 78.5 19.4925
7/20/2021 12:49:25 PM 19.5075 67.1135 0.18345 7.266001 78.90002 19.5075
7/20/2021 1:04:24 PM 19.575 67.235 0.18345 7.266001 78.44995 19.575
7/20/2021 1:19:24 PM 19.68 67.424 0.18345 7.268101 79.59998 19.68
7/20/2021 1:34:24 PM 19.8525 67.7345 0.1827501 7.270901 78.15002 19.8525
7/20/2021 1:49:24 PM 20.01 68.018 0.18245 7.265301 77.90002 19.9925
7/20/2021 2:04:24 PM 20.06 68.108 0.1824 7.266701 78.80005 20.06
7/20/2021 2:19:24 PM 20.1125 68.2025 0.1828001 7.265301 77.75012 20.1125
7/20/2021 2:34:24 PM 20.2175 68.3915 0.1827501 7.270201 78.19995 20.2175
7/20/2021 2:49:24 PM 20.1975 68.3555 0.1831 7.266701 77.80005 20.1975
7/20/2021 3:04:25 PM 20.1625 68.2925 0.1837501 7.266001 77.84998 20.1625
7/20/2021 3:19:25 PM 20.1625 68.2925 0.18445 7.265301 76.44995 20.1625
7/20/2021 3:34:25 PM 20.195 68.351 0.18485 7.270901 76.75012 20.195
7/20/2021 3:49:25 PM 20.2325 68.4185 0.18515 7.265301 76.40002 20.2325
7/20/2021 4:04:25 PM 20.2475 68.4455 0.18515 7.271601 75.40002 20.2475
7/20/2021 4:19:25 PM 20.2675 68.4815 0.1855 7.269501 74.3501 20.2675
7/20/2021 4:34:25 PM 20.3 68.54 0.1855 7.275801 74.59998 20.3
7/20/2021 4:49:25 PM 20.32 68.576 0.1855 7.273701 73.95007 20.32
7/20/2021 5:04:25 PM 20.355 68.639 0.18585 7.275101 73.30005 20.355
7/20/2021 5:19:25 PM 20.37 68.666 0.18585 7.275801 73.75012 20.37
7/20/2021 5:34:25 PM 20.405 68.729 0.18615 7.280701 72.24988 20.405
7/20/2021 5:49:25 PM 20.4425 68.7965 0.1865501 7.280001 71.59998 20.4425
7/20/2021 6:04:24 PM 20.475 68.855 0.1869 7.279301 70.90002 20.475
7/20/2021 6:19:25 PM 20.51 68.918 0.1872 7.280701 70.55005 20.51
7/20/2021 6:34:25 PM 20.545 68.981 0.1872 7.279301 70.84998 20.545
7/20/2021 6:49:24 PM 20.5975 69.0755 0.1876 7.279301 71.15002 20.5975
7/20/2021 7:04:24 PM 20.6325 69.1385 0.1879 7.284201 69.84998 20.6325
7/20/2021 7:19:24 PM 20.65 69.17 0.1879501 7.289101 68.75012 20.65
7/20/2021 7:34:24 PM 20.6325 69.1385 0.1883 7.284901 68.80005 20.6325
7/20/2021 7:49:25 PM 20.6325 69.1385 0.1889501 7.289101 67.69995 20.6325
7/20/2021 8:04:24 PM 20.595 69.071 0.1893501 7.296101 68.55005 20.595
7/20/2021 8:19:24 PM 20.4775 68.8595 0.19 7.310801 67.44995 20.4775
7/20/2021 8:34:24 PM 20.27 68.486 0.1910499 7.305201 65.69995 20.27
7/20/2021 8:49:24 PM 20.15 68.27 0.1911 7.295401 65.69995 20.15
7/20/2021 9:04:24 PM 20.065 68.117 0.1904 7.310101 65.80005 20.065
7/20/2021 9:19:24 PM 20.0475 68.0855 0.19045 7.311501 65.09998 20.0475
7/20/2021 9:34:24 PM 20.05 68.09 0.19045 7.312201 65.3501 20.05
7/20/2021 9:49:24 PM 20.015 68.027 0.1897501 7.312901 65.04993 20.015
7/20/2021 10:04:24 PM 19.9825 67.9685 0.1897501 7.305901 65.04993 19.9825
7/20/2021 10:19:25 PM 19.965 67.937 0.19045 7.307301 65.80005 19.965
7/20/2021 10:34:24 PM 19.93 67.874 0.1908001 7.306601 76.95007 19.93
7/20/2021 10:49:24 PM 19.8975 67.8155 0.1912 7.307301 79.59998 19.8975
7/20/2021 11:04:24 PM 19.8775 67.7795 0.1915 7.298201 74.44995 19.8775
7/20/2021 11:19:24 PM 19.86 67.748 0.1922499 7.297501 71 19.86
7/20/2021 11:34:24 PM 19.8425 67.7165 0.1929 7.303801 67.19995 19.8425
7/21/2021 12:04:25 AM 19.8275 67.6895 0.1943001 7.301001 62.75012 19.8275
7/21/2021 12:19:25 AM 19.8275 67.6895 0.1946499 7.308701 66.09998 19.8275
7/21/2021 12:34:25 AM 19.8275 67.6895 0.1956999 7.306601 74.5 19.8275
7/21/2021 12:49:25 AM 19.81 67.658 0.1963501 7.312201 75.75012 19.81
7/21/2021 1:04:25 AM 19.81 67.658 0.1970499 7.298201 71.6499 19.81
7/21/2021 1:19:25 AM 19.8075 67.6535 0.1974 7.303101 62.40002 19.8075
7/21/2021 1:34:25 AM 19.7925 67.6265 0.1977501 7.301001 59.90002 19.7925
7/21/2021 1:49:25 AM 19.7775 67.5995 0.1984 7.308701 58.44995 19.7775
7/21/2021 2:04:25 AM 19.7575 67.5635 0.19845 7.309401 57.44995 19.7575
7/21/2021 2:34:25 AM 19.7225 67.5005 0.19915 7.309401 57.04993 19.7225
7/21/2021 2:49:25 AM 19.7075 67.4735 0.1995 7.311501 56.69995 19.7075
7/21/2021 3:04:25 AM 19.6875 67.4375 0.19985 7.312901 57.09998 19.6875
7/21/2021 3:19:25 AM 19.655 67.379 0.2001999 7.314301 56.44995 19.655
7/21/2021 3:34:24 AM 19.6375 67.3475 0.2009 7.314301 56.75012 19.6375
7/21/2021 3:49:24 AM 19.62 67.316 0.2012499 7.312901 56.6499 19.62
7/21/2021 4:04:24 AM 19.585 67.253 0.2019 7.313601 57.40002 19.585
7/21/2021 4:19:24 AM 19.55 67.19 0.2022499 7.312201 58.15002 19.55
7/21/2021 4:34:24 AM 19.5175 67.1315 0.2029501 7.317101 57.3501 19.5175
7/21/2021 4:49:24 AM 19.4825 67.0685 0.2036499 7.312901 61.55005 19.4825
7/21/2021 5:04:24 AM 19.4475 67.0055 0.2043 7.312201 60.84998 19.4475
7/21/2021 5:19:24 AM 19.4125 66.9425 0.2054 7.314301 61.15002 19.4125
7/21/2021 5:34:24 AM 19.3775 66.8795 0.2057 7.312901 66.95007 19.3775
7/21/2021 5:49:24 AM 19.345 66.821 0.2057501 7.312201 75.19995 19.345
7/21/2021 6:04:24 AM 19.3075 66.7535 0.2050499 7.313601 86.6499 19.3075
7/21/2021 6:19:24 AM 19.2375 66.6275 0.2039501 7.306601 96.3501 19.2375
7/21/2021 6:34:24 AM 19.1875 66.5375 0.2019 7.302401 111.6499 19.1875
7/21/2021 6:49:24 AM 19.115 66.407 0.19915 7.299601 137.15 19.115
7/21/2021 7:04:24 AM 19.0475 66.2855 0.1956499 7.284201 169.2 19.0475
7/21/2021 7:19:24 AM 18.96 66.128 0.1912 7.273701 210.6 18.96
7/21/2021 7:34:24 AM 18.875 65.975 0.1876999 7.260401 242.6499 18.875
7/21/2021 7:49:25 AM 18.805 65.849 0.1846 7.250601 260.0499 18.805
7/21/2021 8:04:24 AM 18.7375 65.7275 0.1822 7.243601 265.7501 18.7375
7/21/2021 8:34:25 AM 18.51 65.318 0.1804499 7.239401 257.45 18.51
7/21/2021 8:49:24 AM 18.525 65.345 0.18015 7.236601 255.85 18.525
7/21/2021 9:04:24 AM 18.4925 65.2865 0.1794499 7.236601 252.3501 18.4925
7/21/2021 9:19:25 AM 18.475 65.255 0.1791 7.233801 256.85 18.475
7/21/2021 9:34:25 AM 18.4375 65.1875 0.1780499 7.229601 272.8 18.4375
7/21/2021 9:49:25 AM 18.405 65.129 0.1763 7.223301 294.3 18.405
7/21/2021 10:04:25 AM 18.3875 65.0975 0.1746 7.220501 317.8 18.3875
7/21/2021 10:19:25 AM 18.4025 65.1245 0.1721999 7.212099 345.0499 18.4025
7/21/2021 10:34:25 AM 18.49 65.282 0.169 7.205799 367.15 18.49
7/21/2021 10:49:25 AM 18.5575 65.4035 0.1666 7.200899 387.6499 18.5575
7/21/2021 11:04:25 AM 18.575 65.435 0.16415 7.195299 394.9501 18.575
7/21/2021 11:19:25 AM 18.61 65.498 0.1624 7.189699 394.5 18.61
7/21/2021 11:34:25 AM 18.6075 65.4935 0.1610499 7.184799 388.3 18.6075
7/21/2021 11:49:25 AM 18.6225 65.5205 0.1603501 7.179199 379.9501 18.6225
7/21/2021 12:04:25 PM 18.64 65.552 0.1599501 7.184799 366.3501 18.64
7/21/2021 12:19:25 PM 18.5375 65.3675 0.1603 7.179199 350.85 18.5375
7/21/2021 12:34:25 PM 18.435 65.183 0.1610499 7.178499 335.1 18.435
7/21/2021 12:49:24 PM 18.47 65.246 0.1613501 7.179899 327.9501 18.47
7/21/2021 1:04:25 PM 18.555 65.399 0.1613501 7.180599 311.3 18.555
7/21/2021 1:19:25 PM 18.6225 65.5205 0.1617 7.184799 301.2499 18.6225
7/21/2021 2:04:25 PM 18.5375 65.3675 0.1648 7.188999 265.3 18.5375
7/21/2021 2:19:24 PM 18.5375 65.3675 0.16585 7.188999 257.4 18.5375
7/21/2021 2:34:24 PM 18.555 65.399 0.1669501 7.195999 242.5 18.555
7/21/2021 2:49:24 PM 18.57 65.426 0.1679501 7.200199 229.55 18.57
7/21/2021 3:04:25 PM 18.5875 65.4575 0.169 7.199499 221.9501 18.5875
7/21/2021 3:19:25 PM 18.7275 65.7095 0.1700499 7.207899 210.6 18.7275
7/21/2021 3:34:24 PM 18.795 65.831 0.1707 7.214899 198 18.795
7/21/2021 3:49:24 PM 18.7475 65.7455 0.1724499 7.212099 185.45 18.7475
7/21/2021 4:04:25 PM 18.6575 65.5835 0.1738001 7.224001 176.5 18.6575
7/21/2021 4:34:24 PM 18.6775 65.6195 0.1759501 7.228201 162.6 18.6775
7/21/2021 4:49:24 PM 18.6925 65.6465 0.1769501 7.237301 154.9501 18.6925
7/21/2021 5:04:24 PM 18.7475 65.7455 0.1779501 7.238001 151.0499 18.7475
7/21/2021 5:19:25 PM 18.7975 65.8355 0.1786499 7.242201 143.85 18.7975
7/21/2021 5:34:24 PM 18.8325 65.8985 0.179 7.249901 140.0499 18.8325
7/21/2021 5:49:25 PM 18.85 65.93 0.1794 7.246401 133.85 18.85
7/21/2021 6:04:24 PM 18.8525 65.9345 0.1797 7.252701 130.7 18.8525
7/21/2021 6:19:25 PM 18.85 65.93 0.1797 7.254101 125.1 18.85
7/21/2021 6:34:25 PM 18.8675 65.9615 0.1797 7.257601 120.6 18.8675
7/21/2021 7:04:25 PM 18.97 66.146 0.1793501 7.261101 114.7501 18.97
7/21/2021 7:19:25 PM 19.0225 66.24049 0.1789501 7.266701 112.9501 19.0225
7/21/2021 7:34:25 PM 18.935 66.083 0.1796499 7.271601 108.0499 18.935
7/21/2021 7:49:25 PM 18.8475 65.9255 0.1804 7.274401 105.2499 18.8475
7/21/2021 8:04:25 PM 18.7975 65.8355 0.1807501 7.277201 103.2499 18.7975
7/21/2021 8:19:25 PM 18.885 65.993 0.1806999 7.277201 100.8 18.885
7/21/2021 8:34:25 PM 18.935 66.083 0.1807501 7.287701 99.90002 18.935
7/21/2021 8:49:25 PM 18.7825 65.8085 0.1818001 7.281401 96.15002 18.7825
7/21/2021 9:04:25 PM 18.6425 65.5565 0.1828001 7.282101 95.5 18.6425
7/21/2021 9:19:25 PM 18.6925 65.6465 0.1828001 7.287001 100.1 18.6925
7/21/2021 9:34:25 PM 18.66 65.588 0.1835 7.286301 104.2 18.66
7/21/2021 9:49:25 PM 18.4525 65.2145 0.1849 7.290501 100.3501 18.4525
7/21/2021 10:04:25 PM 18.3825 65.0885 0.1856499 7.287001 95.6499 18.3825
7/21/2021 10:19:24 PM 18.4525 65.2145 0.1859501 7.290501 84.84998 18.4525
7/21/2021 10:34:25 PM 18.4675 65.2415 0.1859501 7.292601 80.6499 18.4675
7/21/2021 10:49:25 PM 18.345 65.021 0.1869501 7.291201 77.5 18.345
7/21/2021 11:04:24 PM 18.21 64.778 0.188 7.296101 75.09998 18.21
7/21/2021 11:19:24 PM 18.28 64.904 0.188 7.296101 73.40002 18.28
7/21/2021 11:34:24 PM 18.2975 64.9355 0.1883501 7.295401 71.6499 18.2975
7/22/2021 12:04:24 AM 18.09 64.562 0.1901 7.301001 70.55005 18.09
7/22/2021 12:19:24 AM 18.0875 64.5575 0.1908001 7.306601 74.04993 18.0875
7/22/2021 12:34:24 AM 18.1575 64.6835 0.1908001 7.305901 72.6499 18.1575
7/22/2021 12:49:24 AM 18.1225 64.6205 0.19145 7.310101 72.44995 18.1225
7/22/2021 1:04:24 AM 17.8975 64.2155 0.1929 7.311501 70.24988 17.8975
7/22/2021 1:19:24 AM 17.9675 64.3415 0.1929 7.310801 69.15002 17.9675
7/22/2021 1:34:24 AM 18.0375 64.4675 0.19285 7.315701 68.15002 18.0375
7/22/2021 1:49:24 AM 17.9825 64.3685 0.1936 7.316401 67.75012 17.9825
7/22/2021 2:04:24 AM 17.7925 64.0265 0.1946 7.316401 67.59998 17.7925
7/22/2021 2:19:24 AM 17.88 64.184 0.1946 7.316401 65.69995 17.88
7/22/2021 2:34:24 AM 17.95 64.31 0.1946 7.320601 64.69995 17.95
7/22/2021 2:49:24 AM 17.88 64.184 0.1953 7.322001 64.69995 17.88
7/22/2021 3:04:24 AM 17.675 63.815 0.1966499 7.321301 64.44995 17.675
7/22/2021 3:19:24 AM 17.76 63.968 0.1966499 7.319901 63.95007 17.76
7/22/2021 3:34:25 AM 17.8125 64.0625 0.1970499 7.320601 63.69995 17.8125
7/22/2021 3:49:24 AM 17.76 63.968 0.1976999 7.3255 63.40002 17.76
7/22/2021 4:04:25 AM 17.535 63.563 0.1991 7.3276 61.6499 17.535
7/22/2021 4:19:25 AM 17.62 63.716 0.1991 7.3311 61.15002 17.62
7/22/2021 4:34:25 AM 17.6725 63.8105 0.1991 7.3248 60.24988 17.6725
7/22/2021 4:49:25 AM 17.6725 63.8105 0.1994 7.3248 59.80005 17.6725
7/22/2021 5:04:25 AM 17.395 63.311 0.2011999 7.3311 59.44995 17.395
7/22/2021 5:19:25 AM 17.465 63.437 0.2011999 7.3304 60.84998 17.465
7/22/2021 5:34:25 AM 17.535 63.563 0.20115 7.3297 60.30005 17.535
7/22/2021 5:49:25 AM 17.5675 63.6215 0.2015 7.3339 60.09998 17.5675
7/22/2021 6:04:25 AM 17.395 63.311 0.2025501 7.336 59.5 17.395
7/22/2021 6:19:25 AM 17.29 63.122 0.2032499 7.3374 59.75012 17.29
7/22/2021 6:34:25 AM 17.395 63.311 0.2029 7.3367 58.3501 17.395
7/22/2021 6:49:25 AM 17.4625 63.4325 0.2025501 7.336 57.80005 17.4625
7/22/2021 7:04:25 AM 17.445 63.401 0.2029 7.3409 58 17.445
7/22/2021 7:19:25 AM 17.24 63.032 0.2043 7.336 58.44995 17.24
7/22/2021 7:34:25 AM 17.3425 63.2165 0.2036 7.3416 58.80005 17.3425
7/22/2021 7:49:24 AM 17.4625 63.4325 0.2032499 7.3465 59.09998 17.4625
7/22/2021 8:04:25 AM 17.5325 63.5585 0.2029 7.3514 57.84998 17.5325
7/22/2021 8:19:25 AM 17.4125 63.3425 0.2032499 7.3472 58.19995 17.4125
7/22/2021 8:34:24 AM 17.3625 63.2525 0.2036 7.3703 58.69995 17.3625
7/22/2021 8:49:24 AM 17.275 63.095 0.2043 7.298201 100.85 17.275
7/22/2021 9:04:24 AM 17.24 63.032 0.2043 7.318501 71.30005 17.24
7/22/2021 9:19:25 AM 17.21 62.978 0.2043501 7.3311 65.5 17.21
7/22/2021 9:34:25 AM 17.2775 63.0995 0.204 7.3325 63.04993 17.2775
7/22/2021 9:49:24 AM 17.3475 63.2255 0.2033 7.3367 61.55005 17.3475
7/22/2021 10:04:25 AM 17.4325 63.3785 0.2029501 7.3423 62.40002 17.4325
7/22/2021 10:19:25 AM 17.5525 63.5945 0.2019 7.3423 61.95007 17.5525
7/22/2021 10:34:25 AM 17.675 63.815 0.2011999 7.3402 61.95007 17.675
7/22/2021 10:49:25 AM 17.7425 63.9365 0.20085 7.3472 63.3501 17.7425
7/22/2021 11:04:24 AM 17.8125 64.0625 0.20045 7.3409 63.6499 17.8125
7/22/2021 11:19:24 AM 17.8625 64.1525 0.2005 7.3395 64.30005 17.8625
7/22/2021 11:34:24 AM 17.95 64.31 0.1997501 7.3402 65.44995 17.95
7/22/2021 11:49:24 AM 18.0175 64.4315 0.1998 7.3423 65.40002 18.0175
7/22/2021 12:04:24 PM 18.035 64.463 0.2001 7.273001 227.3 18.035
7/22/2021 12:19:24 PM 18.105 64.589 0.1994 7.322701 71.95007 18.105
7/22/2021 12:34:25 PM 18.1725 64.7105 0.1987 7.329 69.59998 18.1725
7/22/2021 12:49:25 PM 18.225 64.805 0.1987501 7.3367 69.59998 18.225
7/22/2021 1:04:25 PM 18.295 64.931 0.1984 7.3339 69.5 18.295
7/22/2021 1:19:25 PM 18.345 65.021 0.1984 7.3339 69.59998 18.345
7/22/2021 1:34:25 PM 18.3625 65.0525 0.1983501 7.3402 70.15002 18.3625
7/22/2021 1:49:25 PM 18.38 65.084 0.1983501 7.3395 70.95007 18.38
7/22/2021 2:04:25 PM 18.415 65.147 0.1987 7.3388 70.90002 18.415
7/22/2021 2:19:25 PM 18.4675 65.2415 0.1986499 7.3451 70.90002 18.4675
7/22/2021 2:34:25 PM 18.4475 65.2055 0.199 7.3395 70.30005 18.4475
7/22/2021 2:49:25 PM 18.4475 65.2055 0.1990499 7.3451 70.55005 18.4475
7/22/2021 3:19:25 PM 18.5675 65.4215 0.1993501 7.3451 73.04993 18.5675
7/22/2021 3:34:24 PM 18.605 65.489 0.1997501 7.3444 73.30005 18.605
7/22/2021 3:49:24 PM 18.605 65.489 0.1997 7.3437 72.24988 18.605
7/22/2021 4:04:24 PM 18.62 65.516 0.2000499 7.3451 70.15002 18.62
7/22/2021 4:19:24 PM 18.655 65.579 0.2000499 7.3444 71.59998 18.655
7/22/2021 4:34:24 PM 18.705 65.669 0.2000499 7.3493 69.80005 18.705
7/22/2021 4:49:24 PM 18.745 65.741 0.2000499 7.3486 69.55005 18.745
7/22/2021 5:04:24 PM 18.775 65.795 0.2004 7.3549 68.80005 18.775
7/22/2021 5:14:54 PM 18.7925 65.8265 0.2008 7.3535 68.5 18.7925
7/22/2021 5:44:53 PM 18.845 65.921 0.2010499 7.3549 66.30005 18.845
7/22/2021 5:59:53 PM 18.845 65.921 0.2014499 7.3584 66.69995 18.845
7/22/2021 6:14:53 PM 18.88 65.984 0.2017501 7.3591 64.3501 18.88
7/22/2021 6:29:53 PM 18.8825 65.9885 0.2024499 7.3633 63.59998 18.8825
7/22/2021 6:44:53 PM 18.93 66.074 0.2024499 7.364 64.59998 18.93
7/22/2021 6:59:53 PM 18.9675 66.1415 0.2028001 7.3647 62.15002 18.9675
7/22/2021 7:14:53 PM 18.965 66.137 0.20315 7.3682 61.75012 18.965
7/22/2021 7:29:53 PM 18.9675 66.1415 0.2035 7.3738 60.90002 18.9675
7/22/2021 7:44:53 PM 18.9675 66.1415 0.20385 7.3745 59.6499 18.9675
7/22/2021 7:59:52 PM 18.915 66.047 0.2042 7.3738 59 18.915
7/22/2021 8:14:53 PM 18.865 65.957 0.2049 7.3787 58 18.865
7/22/2021 8:29:53 PM 18.8125 65.8625 0.2052499 7.3787 57.69995 18.8125
7/22/2021 8:44:52 PM 18.7775 65.7995 0.2056 7.385 56.55005 18.7775
7/22/2021 8:59:53 PM 18.76 65.768 0.2059501 7.3822 56.6499 18.76
7/22/2021 9:14:52 PM 18.7625 65.7725 0.2067 7.3829 55.59998 18.7625
7/22/2021 9:29:53 PM 18.7275 65.7095 0.207 7.385 55.19995 18.7275
7/22/2021 9:44:53 PM 18.71 65.67799 0.2073501 7.3843 55 18.71
7/22/2021 9:59:53 PM 18.6925 65.6465 0.2073501 7.3836 54.55005 18.6925
7/22/2021 10:14:53 PM 18.6775 65.6195 0.2077501 7.3892 54 18.6775
7/22/2021 10:29:54 PM 18.66 65.588 0.2084 7.3892 53.3501 18.6625
7/22/2021 10:44:53 PM 18.625 65.525 0.2088 7.3892 52.90002 18.625
7/22/2021 10:59:53 PM 18.6075 65.4935 0.20915 7.3899 52.44995 18.6075
7/22/2021 11:14:53 PM 18.5925 65.4665 0.2094499 7.3878 53.19995 18.5925
7/22/2021 11:29:53 PM 18.5575 65.4035 0.21015 7.3906 53.5 18.5575
7/22/2021 11:44:53 PM 18.5225 65.3405 0.2105 7.3892 51.15002 18.5225
7/23/2021 12:14:53 AM 18.47 65.246 0.21185 7.3906 50.84998 18.47
7/23/2021 12:29:53 AM 18.4375 65.1875 0.2122499 7.3899 49.6499 18.4375
7/23/2021 12:44:53 AM 18.4 65.12 0.2132499 7.3955 49.40002 18.4
7/23/2021 12:59:53 AM 18.3825 65.0885 0.2139501 7.3948 48.69995 18.3825
7/23/2021 1:14:53 AM 18.35 65.03 0.2147 7.3948 48.75012 18.35
7/23/2021 1:29:53 AM 18.3325 64.9985 0.2154 7.312901 129.1 18.3325
7/23/2021 1:44:53 AM 18.3 64.94 0.2157501 7.3696 35.835 18.3
7/23/2021 1:59:53 AM 18.265 64.877 0.2168 7.399 36.8225 18.265
7/23/2021 2:14:53 AM 18.2125 64.7825 0.2175 7.3941 35.5225 18.2125
7/23/2021 2:29:53 AM 18.16 64.688 0.21815 7.4039 34.825 18.16
7/23/2021 2:44:53 AM 18.1275 64.6295 0.2192 7.4151 34.6375 18.1275
7/23/2021 2:59:53 AM 18.0925 64.5665 0.2199 7.42 34.585 18.0925
7/23/2021 3:14:53 AM 18.0775 64.5395 0.2206 7.4298 34.5175 18.0775
7/23/2021 3:29:53 AM 18.06 64.508 0.2213001 7.4284 34.76 18.06
7/23/2021 3:44:53 AM 18.025 64.445 0.222 7.4235 34.7575 18.025
7/23/2021 3:59:53 AM 17.9875 64.3775 0.2223501 7.4354 34.9325 17.9875
7/23/2021 4:14:53 AM 17.9725 64.3505 0.2230499 7.4361 34.5025 17.9725
7/23/2021 4:29:53 AM 17.9375 64.2875 0.2233501 7.4333 34.535 17.9375
7/23/2021 4:44:53 AM 17.92 64.256 0.2241 7.4354 34.9525 17.92
7/23/2021 4:59:53 AM 17.87 64.166 0.2244 7.4347 35.0225 17.87
7/23/2021 5:14:53 AM 17.835 64.103 0.2251 7.4354 35.4075 17.835
7/23/2021 5:29:53 AM 17.8175 64.0715 0.2254499 7.4382 35.0575 17.8175
7/23/2021 5:44:52 AM 17.7825 64.0085 0.2262 7.4403 35.0575 17.7825
7/23/2021 5:59:53 AM 17.73 63.914 0.2265 7.4389 35.475 17.73
7/23/2021 6:14:53 AM 17.695 63.851 0.2272 7.4403 35.235 17.695
7/23/2021 6:29:53 AM 17.6625 63.7925 0.22755 7.4347 35.6675 17.6625
7/23/2021 6:44:53 AM 17.6275 63.7295 0.22785 7.4396 35.44 17.6275
7/23/2021 6:59:53 AM 17.6075 63.6935 0.2282499 7.4354 35.755 17.6075
7/23/2021 7:14:53 AM 17.59 63.662 0.22855 7.4354 35.6625 17.59
7/23/2021 7:29:53 AM 17.5725 63.6305 0.2286 7.434 34.86 17.5725
7/23/2021 7:44:53 AM 17.59 63.662 0.2289 7.4361 35.545 17.59
7/23/2021 7:59:53 AM 17.59 63.662 0.2292499 7.4333 35.2125 17.59
7/23/2021 8:14:53 AM 17.6075 63.6935 0.2293001 7.4389 34.7075 17.6075
7/23/2021 8:29:53 AM 17.555 63.599 0.23 7.4389 34.395 17.555
7/23/2021 8:44:53 AM 17.505 63.509 0.2307 7.4389 34.245 17.505
7/23/2021 8:59:53 AM 17.5025 63.5045 0.231 7.4389 34.1 17.5025
7/23/2021 9:29:53 AM 17.59 63.662 0.2313501 7.4403 33.8575 17.59
7/23/2021 9:44:53 AM 17.6575 63.7835 0.2313001 7.4382 33.715 17.6575
7/23/2021 9:59:53 AM 17.745 63.941 0.2313001 7.4438 33.6475 17.745
7/23/2021 10:14:53 AM 17.8475 64.1255 0.2313001 7.4452 32.9675 17.8475
7/23/2021 10:29:53 AM 17.9525 64.3145 0.2313001 7.4445 32.6525 17.9525
7/23/2021 10:44:53 AM 18.0375 64.4675 0.2309 7.4347 75.84998 18.0375
7/23/2021 10:59:53 AM 18.1075 64.5935 0.2316 7.4389 42.2325 18.1075
7/23/2021 11:14:53 AM 18.1925 64.7465 0.2319501 7.4424 38.6875 18.1925
7/23/2021 11:29:53 AM 18.275 64.895 0.2322499 7.448 36.255 18.275
7/23/2021 11:44:53 AM 18.3825 65.0885 0.2326 7.4515 34.3275 18.3825
7/23/2021 11:59:53 AM 18.45 65.21 0.233 7.4515 32.9175 18.45
7/23/2021 12:14:53 PM 18.5025 65.3045 0.2329501 7.4571 32.3425 18.5025
7/23/2021 12:29:53 PM 18.605 65.489 0.2333 7.4564 32.4975 18.605
7/23/2021 12:44:53 PM 18.675 65.615 0.2333 7.4571 31.7525 18.675
7/23/2021 12:59:53 PM 18.7625 65.7725 0.2336499 7.462 31.51 18.7625
7/23/2021 1:14:53 PM 18.795 65.831 0.2336 7.4613 31.4575 18.795
7/23/2021 1:29:53 PM 18.8825 65.9885 0.2336 7.4606 31.075 18.8825
7/23/2021 1:44:53 PM 18.9 66.02 0.234 7.4599 31.2475 18.9
7/23/2021 1:59:53 PM 18.9175 66.0515 0.2343 7.4662 30.8625 18.9175
7/23/2021 2:14:53 PM 19.0025 66.2045 0.2343501 7.4662 30.92 19.0025
7/23/2021 2:29:53 PM 19.0725 66.3305 0.2343 7.4704 30.86 19.0725
7/23/2021 2:44:53 PM 19.1275 66.4295 0.2346499 7.4711 30.575 19.1275
7/23/2021 2:59:53 PM 19.1775 66.5195 0.2346499 7.4711 30.1025 19.1775
7/23/2021 3:14:53 PM 19.2625 66.6725 0.2346499 7.476 30.1725 19.2625
7/23/2021 3:29:52 PM 19.3675 66.8615 0.235 7.4753 30.3625 19.3675
7/23/2021 3:44:53 PM 19.455 67.019